Provisional Data: Chest Creek near Patton, PA


Please select a monitoring station.
Please select start date.
Please select start date.

Toggle Unit: C/F Toggle Unit: C/F
Sample Time Temperature (C) Temperature (F) Specific Conductivity (mS/cm) pH   Turbidity (NTU+) DO (mg/L)
12/11/2021 12:00:00 AM 3.12 37.616 0.219 7.34 5.12 12.37
12/11/2021 12:15:00 AM 3.14 37.652 0.219 7.35 5.47 12.36
12/11/2021 12:30:00 AM 3.15 37.67 0.219 7.34 5.22 12.34
12/11/2021 12:45:00 AM 3.17 37.706 0.219 7.34 4.99 12.32
12/11/2021 1:00:00 AM 3.19 37.742 0.219 7.33 5.05 12.3
12/11/2021 1:15:00 AM 3.21 37.778 0.219 7.34 5.21 12.29
12/11/2021 1:30:00 AM 3.23 37.814 0.219 7.34 5.26 12.28
12/11/2021 1:45:00 AM 3.25 37.85 0.219 7.35 5.23 12.27
12/11/2021 2:00:00 AM 3.27 37.886 0.219 7.34 5.23 12.26
12/11/2021 2:15:00 AM 3.3 37.94 0.219 7.34 5.38 12.24
12/11/2021 2:30:00 AM 3.32 37.976 0.219 7.34 5.35 12.23
12/11/2021 2:45:00 AM 3.34 38.012 0.219 7.34 5.3 12.22
12/11/2021 3:00:00 AM 3.36 38.048 0.218 7.34 5.32 12.21
12/11/2021 3:15:00 AM 3.4 38.12 0.257 7.34 9.14 12.2
12/11/2021 3:30:00 AM 3.48 38.264 0.3 7.38 18.18 12.17
12/11/2021 3:45:00 AM 3.52 38.336 0.257 7.38 13.58 12.15
12/11/2021 4:00:00 AM 3.58 38.444 0.281 7.36 13.45 12.11
12/11/2021 4:15:00 AM 3.61 38.498 0.32 7.37 15.37 12.08
12/11/2021 4:30:00 AM 3.63 38.534 0.302 7.37 14.27 12.07
12/11/2021 4:45:00 AM 3.63 38.534 0.272 7.37 11.88 12.06
12/11/2021 5:00:00 AM 3.62 38.516 0.253 7.36 10.23 12.07
12/11/2021 5:15:00 AM 3.63 38.534 0.243 7.36 9.14 12.06
12/11/2021 5:30:00 AM 3.71 38.678 0.247 7.35 18.15 12.04
12/11/2021 5:45:00 AM 3.8 38.84 0.235 7.38 21.25 12.02
12/11/2021 6:00:00 AM 3.83 38.894 0.244 7.37 17.96 11.98
12/11/2021 6:15:00 AM 3.91 39.038 0.245 7.36 27.74 11.91
12/11/2021 6:30:00 AM 3.92 39.056 0.235 7.37 23.98 11.92
12/11/2021 6:45:00 AM 3.91 39.038 0.23 7.36 19.19 11.93
12/11/2021 7:00:00 AM 3.92 39.056 0.229 7.36 18.46 11.92
12/11/2021 7:15:00 AM 3.92 39.056 0.227 7.35 15.51 11.92
12/11/2021 7:30:00 AM 3.93 39.074 0.226 7.35 15.07 11.91
12/11/2021 7:45:00 AM 3.95 39.11 0.226 7.34 13.39 11.91
12/11/2021 8:00:00 AM 3.96 39.128 0.224 7.34 12.75 11.91
12/11/2021 8:15:00 AM 3.98 39.164 0.224 7.34 11.21 11.92
12/11/2021 8:30:00 AM 4 39.2 0.224 7.33 10.56 11.95
12/11/2021 8:45:00 AM 4.02 39.236 0.224 7.34 10.27 11.99
12/11/2021 9:00:00 AM 4.07 39.326 0.225 7.35 9.64 12
12/11/2021 9:15:00 AM 4.13 39.434 0.227 7.37 9.88 12.05
12/11/2021 9:30:00 AM 4.18 39.524 0.227 7.37 10.09 12.08
12/11/2021 9:45:00 AM 4.21 39.578 0.227 7.38 9.56 12.09
12/11/2021 10:00:00 AM 4.29 39.722 0.206 7.39 92.35 12.12
12/11/2021 10:15:00 AM 4.33 39.794 0.229 7.4 19.18 12.08
12/11/2021 10:30:00 AM 4.38 39.884 0.23 7.4 24.13 12.11
12/11/2021 10:45:00 AM 4.41 39.938 0.23 7.39 12.01 12.09
12/11/2021 11:00:00 AM 4.43 39.974 0.229 7.4 11.13 12.1
12/11/2021 11:15:00 AM 4.43 39.974 0.227 7.4 11.72 12.1
12/11/2021 11:30:00 AM 4.43 39.974 0.227 7.4 11.4 12.09
12/11/2021 11:45:00 AM 4.44 39.992 0.228 7.4 14.99 12.04
12/11/2021 12:00:00 PM 4.5 40.1 0.231 7.41 16.74 12.05
12/11/2021 12:15:00 PM 4.6 40.28 0.232 7.42 24.3 12.01
12/11/2021 12:30:00 PM 4.63 40.334 0.236 7.41 23.52 12
12/11/2021 12:45:00 PM 4.68 40.424 0.235 7.44 22.38 11.98
12/11/2021 1:00:00 PM 4.71 40.478 0.232 7.45 20.27 12
12/11/2021 1:15:00 PM 4.79 40.622 0.229 7.43 16.05 12.01
12/11/2021 1:30:00 PM 4.88 40.784 0.227 7.44 15.55 12.01
12/11/2021 1:45:00 PM 4.96 40.928 0.226 7.44 13.27 12.04
12/11/2021 2:00:00 PM 5.04 41.072 0.224 7.45 14.27 12.03
12/11/2021 2:15:00 PM 5.11 41.198 0.223 7.45 13.76 12
12/11/2021 2:30:00 PM 5.14 41.252 0.222 7.45 12.71 11.97
12/11/2021 2:45:00 PM 5.17 41.306 0.222 7.44 14.3 11.92
12/11/2021 3:00:00 PM 5.22 41.396 0.222 7.45 13.85 11.88
12/11/2021 3:15:00 PM 5.26 41.468 0.222 7.44 13.95 11.83
12/11/2021 3:30:00 PM 5.32 41.576 0.221 7.44 13.5 11.79
12/11/2021 3:45:00 PM 5.36 41.648 0.221 7.43 13.63 11.76
12/11/2021 4:00:00 PM 5.41 41.738 0.222 7.43 13.86 11.73
12/11/2021 4:15:00 PM 5.45 41.81 0.223 7.42 13.72 11.7
12/11/2021 4:30:00 PM 5.5 41.9 0.224 7.42 13.76 11.67
12/11/2021 4:45:00 PM 5.57 42.026 0.225 7.42 13.59 11.63
12/11/2021 5:00:00 PM 5.84 42.512 0.224 7.44 45.52 11.54
12/11/2021 5:15:00 PM 5.86 42.548 0.229 7.46 28.57 11.5
12/11/2021 5:30:00 PM 5.89 42.602 0.227 7.48 43.35 11.46
12/11/2021 5:45:00 PM 5.85 42.53 0.222 7.47 30.1 11.44
12/11/2021 6:00:00 PM 5.77 42.386 0.219 7.45 27.37 11.46
12/11/2021 6:15:00 PM 5.71 42.278 0.217 7.44 23.64 11.46
12/11/2021 6:30:00 PM 5.63 42.134 0.215 7.42 25.76 11.48
12/11/2021 6:45:00 PM 5.57 42.026 0.214 7.41 21.72 11.48
12/11/2021 7:00:00 PM 5.49 41.882 0.213 7.41 17.54 11.49
12/11/2021 7:15:00 PM 5.44 41.792 0.213 7.41 20.64 11.5
12/11/2021 7:30:00 PM 5.4 41.72 0.212 7.41 18.66 11.5
12/11/2021 7:45:00 PM 5.35 41.63 0.212 7.4 21.04 11.5
12/11/2021 8:00:00 PM 5.32 41.576 0.211 7.41 18.15 11.51
12/11/2021 8:15:00 PM 5.27 41.486 0.209 7.42 18.25 11.51
12/11/2021 8:30:00 PM 5.23 41.414 0.208 7.41 19.44 11.52
12/11/2021 8:45:00 PM 5.2 41.36 0.207 7.4 19.55 11.52
12/11/2021 9:00:00 PM 5.16 41.288 0.206 7.4 19.75 11.53
12/11/2021 9:15:00 PM 5.13 41.234 0.206 7.4 19.53 11.54
12/11/2021 9:30:00 PM 5.11 41.198 0.207 7.4 19.8 11.54
12/11/2021 9:45:00 PM 5.09 41.162 0.207 7.39 21.92 11.54
12/11/2021 10:00:00 PM 5.06 41.108 0.206 7.4 27.06 11.54
12/11/2021 10:15:00 PM 5.02 41.036 0.206 7.4 32.57 11.55
12/11/2021 10:30:00 PM 4.99 40.982 0.205 7.4 37.4 11.55
12/11/2021 10:45:00 PM 4.96 40.928 0.205 7.41 31.58 11.55
12/11/2021 11:00:00 PM 4.93 40.874 0.205 7.39 31.78 11.56
12/11/2021 11:15:00 PM 4.91 40.838 0.205 7.4 24.51 11.57
12/11/2021 11:30:00 PM 4.88 40.784 0.205 7.4 28.44 11.57
12/11/2021 11:45:00 PM 4.86 40.748 0.204 7.4 21.24 11.58
12/12/2021 12:00:00 AM 4.84 40.712 0.203 7.4 21.7 11.58
12/12/2021 12:15:00 AM 4.81 40.658 0.203 7.38 18.43 11.59
12/12/2021 12:30:00 AM 4.79 40.622 0.203 7.39 19.73 11.59
12/12/2021 12:45:00 AM 4.76 40.568 0.202 7.39 18.34 11.59
12/12/2021 1:00:00 AM 4.74 40.532 0.201 7.39 18.06 11.6
12/12/2021 1:15:00 AM 4.73 40.514 0.201 7.38 20.56 11.6
12/12/2021 1:30:00 AM 4.7 40.46 0.201 7.38 17.83 11.6
12/12/2021 1:45:00 AM 4.66 40.388 0.2 7.38 15.75 11.59
12/12/2021 2:00:00 AM 4.61 40.298 0.2 7.38 19.38 11.6
12/12/2021 2:15:00 AM 4.57 40.226 0.2 7.37 16.98 11.61
12/12/2021 2:30:00 AM 4.53 40.154 0.2 7.38 16.69 11.61
12/12/2021 2:45:00 AM 4.52 40.136 0.199 7.36 16.85 11.62
12/12/2021 3:00:00 AM 4.52 40.136 0.199 7.37 16.1 11.62
12/12/2021 3:15:00 AM 4.51 40.118 0.199 7.37 15.23 11.63
12/12/2021 3:30:00 AM 4.49 40.082 0.199 7.38 15.42 11.64
12/12/2021 3:45:00 AM 4.46 40.028 0.199 7.37 15.45 11.65
12/12/2021 4:00:00 AM 4.42 39.956 0.199 7.38 16.52 11.65
12/12/2021 4:15:00 AM 4.38 39.884 0.2 7.37 17.47 11.66
12/12/2021 4:30:00 AM 4.35 39.83 0.2 7.36 14.61 11.67
12/12/2021 4:45:00 AM 4.32 39.776 0.2 7.37 14.93 11.68
12/12/2021 5:00:00 AM 4.29 39.722 0.2 7.37 15.62 11.69
12/12/2021 5:15:00 AM 4.27 39.686 0.2 7.37 15.56 11.7
12/12/2021 5:30:00 AM 4.23 39.614 0.2 7.37 15.38 11.71
12/12/2021 5:45:00 AM 4.2 39.56 0.2 7.37 15.88 11.72
12/12/2021 6:00:00 AM 4.16 39.488 0.2 7.37 15.37 11.74
12/12/2021 6:15:00 AM 4.13 39.434 0.2 7.35 16.78 11.75
12/12/2021 6:30:00 AM 4.11 39.398 0.2 7.37 16.1 11.76
12/12/2021 6:45:00 AM 4.08 39.344 0.2 7.37 16.61 11.76
12/12/2021 7:00:00 AM 4.05 39.29 0.2 7.38 16.62 11.78
12/12/2021 7:15:00 AM 4.01 39.218 0.2 7.37 16.56 11.78
12/12/2021 7:30:00 AM 3.98 39.164 0.2 7.37 15.43 11.8
12/12/2021 7:45:00 AM 3.95 39.11 0.2 7.38 14.24 11.81
12/12/2021 8:00:00 AM 3.93 39.074 0.2 7.36 15.04 11.84
12/12/2021 8:15:00 AM 3.9 39.02 0.2 7.38 14.55 11.87
12/12/2021 8:30:00 AM 3.88 38.984 0.2 7.38 15.55 11.91
12/12/2021 8:45:00 AM 3.88 38.984 0.2 7.39 14.75 11.95
12/12/2021 9:00:00 AM 3.88 38.984 0.2 7.39 14.57 12
12/12/2021 9:15:00 AM 3.88 38.984 0.201 7.4 13.94 12.05
12/12/2021 9:30:00 AM 3.9 39.02 0.201 7.39 14.64 12.1
12/12/2021 9:45:00 AM 3.94 39.092 0.201 7.41 14.02 12.15
12/12/2021 10:00:00 AM 3.98 39.164 0.202 7.41 14.56 12.2
12/12/2021 10:15:00 AM 4.04 39.272 0.202 7.42 13.87 12.25
12/12/2021 10:30:00 AM 4.1 39.38 0.203 7.42 14.25 12.28
12/12/2021 10:45:00 AM 4.16 39.488 0.203 7.43 14.23 12.31
12/12/2021 11:00:00 AM 4.22 39.596 0.204 7.44 14.39 12.34
12/12/2021 11:15:00 AM 4.29 39.722 0.204 7.45 13.31 12.36
12/12/2021 11:30:00 AM 4.36 39.848 0.204 7.45 13.89 12.38
12/12/2021 11:45:00 AM 4.42 39.956 0.205 7.45 14.1 12.4
12/12/2021 12:00:00 PM 4.46 40.028 0.205 7.45 13.03 12.41
12/12/2021 12:15:00 PM 4.51 40.118 0.205 7.45 13.54 12.43
12/12/2021 12:30:00 PM 4.54 40.172 0.206 7.46 13.26 12.43
12/12/2021 12:45:00 PM 4.58 40.244 0.206 7.46 12.65 12.44
12/12/2021 1:00:00 PM 4.6 40.28 0.206 7.46 12.8 12.45
12/12/2021 1:15:00 PM 4.61 40.298 0.206 7.47 13.02 12.46
12/12/2021 1:30:00 PM 4.61 40.298 0.206 7.47 12.38 12.47
12/12/2021 1:45:00 PM 4.61 40.298 0.206 7.48 13.42 12.47
12/12/2021 2:00:00 PM 4.6 40.28 0.206 7.47 12.58 12.48
12/12/2021 2:15:00 PM 4.58 40.244 0.206 7.48 12.69 12.48
12/12/2021 2:30:00 PM 4.54 40.172 0.206 7.48 12.39 12.48
12/12/2021 2:45:00 PM 4.5 40.1 0.206 7.47 12.68 12.47
12/12/2021 3:00:00 PM 4.45 40.01 0.206 7.47 12.36 12.47
12/12/2021 3:15:00 PM 4.38 39.884 0.206 7.46 12.14 12.45
12/12/2021 3:30:00 PM 4.3 39.74 0.206 7.45 12.22 12.42
12/12/2021 3:45:00 PM 4.23 39.614 0.206 7.44 11.81 12.38
12/12/2021 4:00:00 PM 4.16 39.488 0.206 7.44 11.95 12.33
12/12/2021 4:15:00 PM 4.1 39.38 0.206 7.42 11.64 12.28
12/12/2021 4:30:00 PM 4.06 39.308 0.206 7.41 11.5 12.25
12/12/2021 4:45:00 PM 4.03 39.254 0.206 7.4 11.22 12.23
12/12/2021 5:00:00 PM 4.01 39.218 0.206 7.4 11.29 12.2
12/12/2021 5:15:00 PM 3.98 39.164 0.206 7.4 11.41 12.17
12/12/2021 5:30:00 PM 3.94 39.092 0.206 7.39 11.27 12.15
12/12/2021 5:45:00 PM 3.91 39.038 0.206 7.37 11.01 12.13
12/12/2021 6:00:00 PM 3.88 38.984 0.206 7.37 10.85 12.13
12/12/2021 6:15:00 PM 3.84 38.912 0.206 7.37 10.98 12.13
12/12/2021 6:30:00 PM 3.8 38.84 0.206 7.36 11.03 12.13
12/12/2021 6:45:00 PM 3.77 38.786 0.206 7.36 11.1 12.13
12/12/2021 7:00:00 PM 3.73 38.714 0.206 7.37 11.34 12.13
12/12/2021 7:15:00 PM 3.69 38.642 0.206 7.36 11.05 12.14
12/12/2021 7:30:00 PM 3.66 38.588 0.206 7.36 11.27 12.14
12/12/2021 7:45:00 PM 3.63 38.534 0.206 7.35 11.33 12.15
12/12/2021 8:00:00 PM 3.61 38.498 0.206 7.36 10.8 12.16
12/12/2021 8:15:00 PM 3.58 38.444 0.206 7.35 10.72 12.17
12/12/2021 8:30:00 PM 3.56 38.408 0.206 7.35 10.67 12.17
12/12/2021 8:45:00 PM 3.53 38.354 0.206 7.35 10.83 12.18
12/12/2021 9:00:00 PM 3.5 38.3 0.206 7.35 10.67 12.18
12/12/2021 9:15:00 PM 3.48 38.264 0.206 7.35 10.78 12.18
12/12/2021 9:30:00 PM 3.45 38.21 0.207 7.34 10.05 12.19
12/12/2021 9:45:00 PM 3.42 38.156 0.207 7.34 10.04 12.2
12/12/2021 10:00:00 PM 3.4 38.12 0.207 7.35 10.6 12.2
12/12/2021 10:15:00 PM 3.37 38.066 0.207 7.35 9.65 12.21
12/12/2021 10:30:00 PM 3.34 38.012 0.207 7.34 10.24 12.21
12/12/2021 10:45:00 PM 3.32 37.976 0.207 7.34 9.84 12.21
12/12/2021 11:00:00 PM 3.29 37.922 0.208 7.34 9.79 12.21
12/12/2021 11:15:00 PM 3.26 37.868 0.207 7.34 10.04 12.22
12/12/2021 11:30:00 PM 3.23 37.814 0.208 7.34 10.02 12.22
12/12/2021 11:45:00 PM 3.2 37.76 0.208 7.34 9.79 12.23
12/13/2021 12:00:00 AM 3.18 37.724 0.208 7.35 10.04 12.24
12/13/2021 12:15:00 AM 3.16 37.688 0.208 7.34 9.8 12.24
12/13/2021 12:30:00 AM 3.13 37.634 0.208 7.34 9.53 12.25
12/13/2021 12:45:00 AM 3.11 37.598 0.208 7.33 9.54 12.25
12/13/2021 1:00:00 AM 3.08 37.544 0.208 7.34 9.94 12.26
12/13/2021 1:15:00 AM 3.06 37.508 0.209 7.33 9.74 12.26
12/13/2021 1:30:00 AM 3.03 37.454 0.209 7.34 9.69 12.27
12/13/2021 1:45:00 AM 3.01 37.418 0.209 7.33 9.45 12.28
12/13/2021 2:00:00 AM 2.98 37.364 0.209 7.33 9.6 12.29
12/13/2021 2:15:00 AM 2.96 37.328 0.209 7.33 9.76 12.3
12/13/2021 2:30:00 AM 2.94 37.292 0.209 7.33 9.33 12.31
12/13/2021 2:45:00 AM 2.92 37.256 0.209 7.34 9.52 12.31
12/13/2021 3:00:00 AM 2.91 37.238 0.209 7.33 9.52 12.32
12/13/2021 3:15:00 AM 2.9 37.22 0.209 7.33 9.68 12.33
12/13/2021 3:30:00 AM 2.89 37.202 0.209 7.33 9.31 12.33
12/13/2021 3:45:00 AM 2.88 37.184 0.21 7.33 9.15 12.34
12/13/2021 4:00:00 AM 2.86 37.148 0.21 7.33 9.22 12.34
12/13/2021 4:15:00 AM 2.85 37.13 0.21 7.34 9.62 12.35
12/13/2021 4:30:00 AM 2.83 37.094 0.21 7.33 9.42 12.36
12/13/2021 4:45:00 AM 2.82 37.076 0.21 7.33 9.52 12.36
12/13/2021 5:00:00 AM 2.81 37.058 0.21 7.33 9.12 12.37
12/13/2021 5:15:00 AM 2.78 37.004 0.21 7.32 9.22 12.38
12/13/2021 5:30:00 AM 2.76 36.968 0.21 7.33 9.31 12.38
12/13/2021 5:45:00 AM 2.73 36.914 0.21 7.33 9.17 12.39
12/13/2021 6:00:00 AM 2.7 36.86 0.21 7.33 9.1 12.4
12/13/2021 6:15:00 AM 2.68 36.824 0.21 7.32 9.1 12.41
12/13/2021 6:30:00 AM 2.65 36.77 0.21 7.32 8.85 12.42
12/13/2021 6:45:00 AM 2.62 36.716 0.21 7.31 8.69 12.42
12/13/2021 7:00:00 AM 2.59 36.662 0.211 7.32 9.09 12.44
12/13/2021 7:15:00 AM 2.56 36.608 0.211 7.31 8.93 12.44
12/13/2021 7:30:00 AM 2.53 36.554 0.211 7.31 8.89 12.46
12/13/2021 7:45:00 AM 2.51 36.518 0.211 7.32 8.51 12.48
12/13/2021 8:00:00 AM 2.5 36.5 0.211 7.33 8.27 12.51
12/13/2021 8:15:00 AM 2.48 36.464 0.211 7.33 8.38 12.55
12/13/2021 8:30:00 AM 2.46 36.428 0.211 7.34 8.5 12.59
12/13/2021 8:45:00 AM 2.46 36.428 0.211 7.34 8.21 12.65
12/13/2021 9:00:00 AM 2.46 36.428 0.211 7.35 8.57 12.7
12/13/2021 9:15:00 AM 2.48 36.464 0.211 7.36 8.21 12.75
12/13/2021 9:30:00 AM 2.51 36.518 0.211 7.36 8.21 12.81
12/13/2021 9:45:00 AM 2.58 36.644 0.211 7.38 7.79 12.89
12/13/2021 10:00:00 AM 2.67 36.806 0.211 7.38 7.87 12.96
12/13/2021 10:15:00 AM 2.75 36.95 0.211 7.39 7.86 13.01
12/13/2021 10:30:00 AM 2.85 37.13 0.211 7.41 7.56 13.04
12/13/2021 10:45:00 AM 2.94 37.292 0.211 7.41 7.57 13.07
12/13/2021 11:00:00 AM 3.03 37.454 0.211 7.41 7.49 13.08
12/13/2021 11:15:00 AM 3.13 37.634 0.211 7.42 7.97 13.09
12/13/2021 11:30:00 AM 3.22 37.796 0.211 7.42 7.34 13.1
12/13/2021 11:45:00 AM 3.3 37.94 0.211 7.42 7.56 13.11
12/13/2021 12:00:00 PM 3.37 38.066 0.211 7.42 7.59 13.13
12/13/2021 12:15:00 PM 3.43 38.174 0.211 7.43 7.1 13.14
12/13/2021 12:30:00 PM 3.48 38.264 0.211 7.44 7.49 13.15
12/13/2021 12:45:00 PM 3.53 38.354 0.211 7.45 7.48 13.15
12/13/2021 1:00:00 PM 3.56 38.408 0.211 7.44 7.31 13.16
12/13/2021 1:15:00 PM 3.59 38.462 0.211 7.45 7.23 13.16
12/13/2021 1:30:00 PM 3.61 38.498 0.211 7.45 7.2 13.16
12/13/2021 1:45:00 PM 3.62 38.516 0.211 7.45 7.09 13.16
12/13/2021 2:00:00 PM 3.62 38.516 0.211 7.45 6.96 13.15
12/13/2021 2:15:00 PM 3.61 38.498 0.211 7.46 7.12 13.15
12/13/2021 2:30:00 PM 3.59 38.462 0.211 7.46 7.2 13.14
12/13/2021 2:45:00 PM 3.55 38.39 0.211 7.45 7.1 13.13
12/13/2021 3:00:00 PM 3.49 38.282 0.212 7.45 7.1 13.11
12/13/2021 3:15:00 PM 3.42 38.156 0.212 7.44 6.99 13.09
12/13/2021 3:30:00 PM 3.33 37.994 0.212 7.43 6.67 13.06
12/13/2021 3:45:00 PM 3.24 37.832 0.212 7.43 7.06 13.01
12/13/2021 4:00:00 PM 3.17 37.706 0.212 7.42 6.75 12.94
12/13/2021 4:15:00 PM 3.12 37.616 0.213 7.4 6.98 12.87
12/13/2021 4:30:00 PM 3.08 37.544 0.212 7.4 7.29 12.83
12/13/2021 4:45:00 PM 3.06 37.508 0.212 7.39 6.93 12.78
12/13/2021 5:00:00 PM 3.04 37.472 0.213 7.38 6.68 12.74
12/13/2021 5:15:00 PM 3.02 37.436 0.213 7.37 7.14 12.7
12/13/2021 5:30:00 PM 2.99 37.382 0.213 7.36 6.77 12.67
12/13/2021 5:45:00 PM 2.97 37.346 0.213 7.35 7.29 12.65
12/13/2021 6:00:00 PM 2.94 37.292 0.213 7.35 6.47 12.62
12/13/2021 6:15:00 PM 2.91 37.238 0.213 7.34 7.24 12.61
12/13/2021 6:30:00 PM 2.88 37.184 0.213 7.33 6.75 12.6
12/13/2021 6:45:00 PM 2.86 37.148 0.213 7.33 6.65 12.6
12/13/2021 7:00:00 PM 2.83 37.094 0.213 7.33 6.52 12.61
12/13/2021 7:15:00 PM 2.81 37.058 0.213 7.33 6.43 12.61
12/13/2021 7:30:00 PM 2.79 37.022 0.213 7.33 6.76 12.61
12/13/2021 7:45:00 PM 2.77 36.986 0.213 7.32 6.61 12.6
12/13/2021 8:00:00 PM 2.75 36.95 0.213 7.32 6.81 12.6
12/13/2021 8:15:00 PM 2.73 36.914 0.213 7.32 6.42 12.61
12/13/2021 8:30:00 PM 2.71 36.878 0.213 7.33 6.49 12.61
12/13/2021 8:45:00 PM 2.69 36.842 0.214 7.32 6.65 12.61
12/13/2021 9:00:00 PM 2.67 36.806 0.213 7.33 6.63 12.61
12/13/2021 9:15:00 PM 2.65 36.77 0.214 7.33 6.6 12.62
12/13/2021 9:30:00 PM 2.63 36.734 0.214 7.32 6.82 12.61
12/13/2021 9:45:00 PM 2.62 36.716 0.214 7.33 6.6 12.61
12/13/2021 10:00:00 PM 2.6 36.68 0.214 7.32 6.82 12.61
12/13/2021 10:15:00 PM 2.59 36.662 0.214 7.32 6.55 12.6
12/13/2021 10:30:00 PM 2.57 36.626 0.214 7.32 6.92 12.61
12/13/2021 10:45:00 PM 2.57 36.626 0.214 7.32 7.32 12.61
12/13/2021 11:00:00 PM 2.56 36.608 0.214 7.32 6.57 12.61
12/13/2021 11:15:00 PM 2.55 36.59 0.214 7.32 7.06 12.61
12/13/2021 11:30:00 PM 2.55 36.59 0.214 7.33 6.48 12.61
12/13/2021 11:45:00 PM 2.54 36.572 0.214 7.32 6.3 12.61
12/14/2021 12:00:00 AM 2.53 36.554 0.213 7.32 6.75 12.61
12/14/2021 12:15:00 AM 2.52 36.536 0.214 7.33 6.69 12.61
12/14/2021 12:30:00 AM 2.52 36.536 0.214 7.32 6.38 12.61
12/14/2021 12:45:00 AM 2.5 36.5 0.214 7.32 6.31 12.61
12/14/2021 1:00:00 AM 2.5 36.5 0.214 7.32 6.96 12.61
12/14/2021 1:15:00 AM 2.49 36.482 0.214 7.32 6.4 12.62
12/14/2021 1:30:00 AM 2.47 36.446 0.214 7.32 6.86 12.62
12/14/2021 1:45:00 AM 2.47 36.446 0.214 7.31 6.31 12.62
12/14/2021 2:00:00 AM 2.46 36.428 0.214 7.31 6.24 12.62
12/14/2021 2:15:00 AM 2.45 36.41 0.214 7.32 6.4 12.62
12/14/2021 2:30:00 AM 2.43 36.374 0.214 7.32 6.51 12.62
12/14/2021 2:45:00 AM 2.42 36.356 0.214 7.32 6.08 12.62
12/14/2021 3:00:00 AM 2.4 36.32 0.214 7.32 6.25 12.63
12/14/2021 3:15:00 AM 2.38 36.284 0.214 7.32 6.44 12.63
12/14/2021 3:30:00 AM 2.37 36.266 0.214 7.31 6.12 12.63
12/14/2021 3:45:00 AM 2.35 36.23 0.214 7.32 6.14 12.64
12/14/2021 4:00:00 AM 2.33 36.194 0.214 7.32 6.41 12.64
12/14/2021 4:15:00 AM 2.32 36.176 0.214 7.31 6.33 12.65
12/14/2021 4:30:00 AM 2.29 36.122 0.214 7.31 6.17 12.65
12/14/2021 4:45:00 AM 2.27 36.086 0.214 7.32 6.43 12.66
12/14/2021 5:00:00 AM 2.25 36.05 0.214 7.31 6.35 12.67
12/14/2021 5:15:00 AM 2.23 36.014 0.214 7.31 6.57 12.67
12/14/2021 5:30:00 AM 2.21 35.978 0.214 7.31 6.1 12.68
12/14/2021 5:45:00 AM 2.19 35.942 0.214 7.31 6.15 12.69
12/14/2021 6:00:00 AM 2.17 35.906 0.214 7.33 5.96 12.69
12/14/2021 6:15:00 AM 2.14 35.852 0.214 7.31 6.31 12.7
12/14/2021 6:30:00 AM 2.12 35.816 0.214 7.32 6.06 12.71
12/14/2021 6:45:00 AM 2.1 35.78 0.214 7.31 6.52 12.72
12/14/2021 7:00:00 AM 2.08 35.744 0.214 7.31 6.48 12.73
12/14/2021 7:15:00 AM 2.06 35.708 0.214 7.32 6.25 12.74
12/14/2021 7:30:00 AM 2.03 35.654 0.214 7.31 6.08 12.75
12/14/2021 7:45:00 AM 2.02 35.636 0.214 7.31 6.56 12.78
12/14/2021 8:00:00 AM 2 35.6 0.214 7.33 5.93 12.82
12/14/2021 8:15:00 AM 1.99 35.582 0.214 7.32 5.96 12.87
12/14/2021 8:30:00 AM 1.98 35.564 0.214 7.33 6.02 12.93
12/14/2021 8:45:00 AM 1.98 35.564 0.214 7.34 5.9 12.99
12/14/2021 9:00:00 AM 1.99 35.582 0.214 7.34 6.29 13.04
12/14/2021 9:15:00 AM 2 35.6 0.214 7.36 5.84 13.1
12/14/2021 9:30:00 AM 2.04 35.672 0.214 7.36 5.87 13.16
12/14/2021 9:45:00 AM 2.11 35.798 0.214 7.37 6.16 13.23
12/14/2021 10:00:00 AM 2.21 35.978 0.214 7.38 6.06 13.29
12/14/2021 10:15:00 AM 2.32 36.176 0.214 7.38 6.29 13.33
12/14/2021 10:30:00 AM 2.42 36.356 0.214 7.39 5.87 13.36
12/14/2021 10:45:00 AM 2.52 36.536 0.213 7.4 6.23 13.38
12/14/2021 11:00:00 AM 2.64 36.752 0.213 7.41 6.1 13.41
12/14/2021 11:15:00 AM 2.75 36.95 0.213 7.41 6.12 13.43
12/14/2021 11:30:00 AM 2.86 37.148 0.213 7.42 5.88 13.44
12/14/2021 11:45:00 AM 2.96 37.328 0.213 7.42 5.77 13.45
12/14/2021 12:00:00 PM 3.05 37.49 0.213 7.44 5.94 13.45
12/14/2021 12:15:00 PM 3.13 37.634 0.213 7.44 5.66 13.45
12/14/2021 12:30:00 PM 3.2 37.76 0.213 7.44 5.96 13.45
12/14/2021 12:45:00 PM 3.26 37.868 0.213 7.44 5.94 13.45
12/14/2021 1:00:00 PM 3.32 37.976 0.213 7.44 5.73 13.45
12/14/2021 1:15:00 PM 3.37 38.066 0.213 7.45 5.76 13.44
12/14/2021 1:30:00 PM 3.4 38.12 0.213 7.45 5.72 13.43
12/14/2021 1:45:00 PM 3.42 38.156 0.213 7.46 5.94 13.43
12/14/2021 2:00:00 PM 3.44 38.192 0.213 7.45 5.91 13.43
12/14/2021 2:15:00 PM 3.44 38.192 0.213 7.45 5.97 13.41
12/14/2021 2:30:00 PM 3.42 38.156 0.213 7.45 6.21 13.4
12/14/2021 2:45:00 PM 3.39 38.102 0.213 7.45 5.81 13.38
12/14/2021 3:00:00 PM 3.34 38.012 0.213 7.46 5.77 13.36
12/14/2021 3:15:00 PM 3.28 37.904 0.213 7.45 5.5 13.32
12/14/2021 3:30:00 PM 3.21 37.778 0.213 7.43 5.67 13.29
12/14/2021 3:45:00 PM 3.13 37.634 0.214 7.43 5.72 13.25
12/14/2021 4:00:00 PM 3.07 37.526 0.214 7.42 5.64 13.17
12/14/2021 4:15:00 PM 3.02 37.436 0.214 7.41 6.01 13.1
12/14/2021 4:30:00 PM 2.99 37.382 0.214 7.39 5.67 13.05
12/14/2021 4:45:00 PM 2.96 37.328 0.214 7.39 5.5 13
12/14/2021 5:00:00 PM 2.94 37.292 0.214 7.38 5.8 12.95
12/14/2021 5:15:00 PM 2.92 37.256 0.214 7.37 5.87 12.9
12/14/2021 5:30:00 PM 2.9 37.22 0.214 7.37 5.81 12.86
12/14/2021 5:45:00 PM 2.88 37.184 0.214 7.35 6.26 12.83
12/14/2021 6:00:00 PM 2.85 37.13 0.214 7.36 6.15 12.81
12/14/2021 6:15:00 PM 2.82 37.076 0.214 7.35 5.98 12.8
12/14/2021 6:30:00 PM 2.79 37.022 0.214 7.33 5.91 12.78
12/14/2021 6:45:00 PM 2.76 36.968 0.215 7.33 5.96 12.78
12/14/2021 7:00:00 PM 2.73 36.914 0.214 7.33 6.05 12.78
12/14/2021 7:15:00 PM 2.71 36.878 0.215 7.33 6 12.77
12/14/2021 7:30:00 PM 2.68 36.824 0.215 7.33 5.78 12.77
12/14/2021 7:45:00 PM 2.66 36.788 0.215 7.34 6.25 12.76
12/14/2021 8:00:00 PM 2.64 36.752 0.214 7.33 6.09 12.76
12/14/2021 8:15:00 PM 2.62 36.716 0.215 7.33 5.99 12.76
12/14/2021 8:30:00 PM 2.6 36.68 0.215 7.33 5.89 12.76
12/14/2021 8:45:00 PM 2.58 36.644 0.215 7.33 5.74 12.76
12/14/2021 9:00:00 PM 2.55 36.59 0.214 7.33 5.73 12.76
12/14/2021 9:15:00 PM 2.54 36.572 0.215 7.32 5.96 12.75
12/14/2021 9:30:00 PM 2.52 36.536 0.215 7.32 5.78 12.74
12/14/2021 9:45:00 PM 2.5 36.5 0.215 7.31 6.25 12.73
12/14/2021 10:00:00 PM 2.48 36.464 0.215 7.32 6.07 12.74
12/14/2021 10:15:00 PM 2.46 36.428 0.215 7.31 5.94 12.74
12/14/2021 10:30:00 PM 2.44 36.392 0.215 7.32 5.89 12.74
12/14/2021 10:45:00 PM 2.42 36.356 0.215 7.31 6.3 12.74
12/14/2021 11:00:00 PM 2.4 36.32 0.215 7.31 5.78 12.74
12/14/2021 11:15:00 PM 2.38 36.284 0.215 7.31 5.69 12.74
12/14/2021 11:30:00 PM 2.37 36.266 0.215 7.32 5.86 12.74
12/14/2021 11:45:00 PM 2.36 36.248 0.215 7.31 5.83 12.74
12/15/2021 12:00:00 AM 2.35 36.23 0.215 7.31 6.02 12.73
12/15/2021 12:15:00 AM 2.33 36.194 0.215 7.31 6.12 12.73
12/15/2021 12:30:00 AM 2.32 36.176 0.215 7.31 5.99 12.74
12/15/2021 12:45:00 AM 2.31 36.158 0.215 7.31 5.85 12.74
12/15/2021 1:00:00 AM 2.3 36.14 0.215 7.31 6.17 12.74
12/15/2021 1:15:00 AM 2.29 36.122 0.215 7.31 6.02 12.74
12/15/2021 1:30:00 AM 2.3 36.14 0.215 7.32 6.01 12.74
12/15/2021 1:45:00 AM 2.29 36.122 0.215 7.31 6.16 12.74
12/15/2021 2:00:00 AM 2.29 36.122 0.215 7.31 5.97 12.74
12/15/2021 2:15:00 AM 2.29 36.122 0.215 7.31 5.68 12.73
12/15/2021 2:30:00 AM 2.29 36.122 0.215 7.32 5.74 12.74
12/15/2021 2:45:00 AM 2.29 36.122 0.215 7.32 5.78 12.74
12/15/2021 3:00:00 AM 2.28 36.104 0.215 7.31 6.16 12.73
12/15/2021 3:15:00 AM 2.28 36.104 0.215 7.31 6.18 12.74
12/15/2021 3:30:00 AM 2.27 36.086 0.215 7.31 6.1 12.73
12/15/2021 3:45:00 AM 2.26 36.068 0.215 7.31 6.1 12.73
12/15/2021 4:00:00 AM 2.25 36.05 0.215 7.32 5.81 12.74
12/15/2021 4:15:00 AM 2.25 36.05 0.215 7.31 5.85 12.74
12/15/2021 4:30:00 AM 2.25 36.05 0.215 7.31 6.07 12.74
12/15/2021 4:45:00 AM 2.24 36.032 0.215 7.31 5.89 12.74
12/15/2021 5:00:00 AM 2.24 36.032 0.215 7.31 5.7 12.74
12/15/2021 5:15:00 AM 2.23 36.014 0.215 7.31 5.88 12.73
12/15/2021 5:30:00 AM 2.22 35.996 0.215 7.31 6.16 12.73
12/15/2021 5:45:00 AM 2.21 35.978 0.216 7.3 6.03 12.73
12/15/2021 6:00:00 AM 2.2 35.96 0.215 7.3 6.16 12.74
12/15/2021 6:15:00 AM 2.2 35.96 0.215 7.31 6.11 12.74
12/15/2021 6:30:00 AM 2.2 35.96 0.216 7.31 6.08 12.74
12/15/2021 6:45:00 AM 2.2 35.96 0.215 7.3 6.11 12.74
12/15/2021 7:00:00 AM 2.2 35.96 0.215 7.31 6.1 12.73
12/15/2021 7:15:00 AM 2.21 35.978 0.215 7.31 6.11 12.73
12/15/2021 7:30:00 AM 2.21 35.978 0.216 7.31 6.19 12.74
12/15/2021 7:45:00 AM 2.22 35.996 0.216 7.31 6.02 12.76
12/15/2021 8:00:00 AM 2.25 36.05 0.215 7.32 5.77 12.82
12/15/2021 8:15:00 AM 2.28 36.104 0.216 7.33 6.09 12.9
12/15/2021 8:30:00 AM 2.31 36.158 0.215 7.34 5.93 12.97
12/15/2021 8:45:00 AM 2.35 36.23 0.215 7.35 5.89 13.05
12/15/2021 9:00:00 AM 2.41 36.338 0.215 7.36 5.87 13.15
12/15/2021 9:15:00 AM 2.46 36.428 0.215 7.38 5.62 13.22
12/15/2021 9:30:00 AM 2.55 36.59 0.215 7.38 5.67 13.27
12/15/2021 9:45:00 AM 2.64 36.752 0.215 7.4 5.99 13.33
12/15/2021 10:00:00 AM 2.73 36.914 0.215 7.4 6.03 13.37
12/15/2021 10:15:00 AM 2.82 37.076 0.215 7.42 6.16 13.38
12/15/2021 10:30:00 AM 2.88 37.184 0.215 7.41 5.69 13.38
12/15/2021 10:45:00 AM 2.95 37.31 0.215 7.42 5.81 13.4
12/15/2021 11:00:00 AM 3.01 37.418 0.215 7.43 5.64 13.42
12/15/2021 11:15:00 AM 3.06 37.508 0.215 7.44 5.69 13.41
12/15/2021 11:30:00 AM 3.12 37.616 0.215 7.44 5.8 13.42
12/15/2021 11:45:00 AM 3.18 37.724 0.215 7.45 5.93 13.42
12/15/2021 12:00:00 PM 3.24 37.832 0.215 7.44 5.92 13.42
12/15/2021 12:15:00 PM 3.29 37.922 0.215 7.45 5.64 13.42
12/15/2021 12:30:00 PM 3.3 37.94 0.215 7.45 6.04 13.37
12/15/2021 12:45:00 PM 3.32 37.976 0.215 7.44 5.95 13.35
12/15/2021 1:00:00 PM 3.32 37.976 0.215 7.45 5.55 13.33
12/15/2021 1:15:00 PM 3.34 38.012 0.216 7.45 5.79 13.32
12/15/2021 1:30:00 PM 3.35 38.03 0.215 7.44 6.42 13.3
12/15/2021 1:45:00 PM 3.36 38.048 0.215 7.44 5.92 13.26
12/15/2021 2:00:00 PM 3.37 38.066 0.215 7.44 5.92 13.23
12/15/2021 2:15:00 PM 3.38 38.084 0.216 7.44 5.71 13.21
12/15/2021 2:30:00 PM 3.41 38.138 0.215 7.43 5.65 13.25
12/15/2021 2:45:00 PM 3.45 38.21 0.216 7.43 5.85 13.27
12/15/2021 3:00:00 PM 3.47 38.246 0.216 7.45 5.93 13.23
12/15/2021 3:15:00 PM 3.49 38.282 0.216 7.44 5.69 13.2
12/15/2021 3:30:00 PM 3.49 38.282 0.216 7.43 5.62 13.15
12/15/2021 3:45:00 PM 3.5 38.3 0.216 7.42 5.84 13.09
12/15/2021 4:00:00 PM 3.49 38.282 0.216 7.41 5.74 12.99
12/15/2021 4:15:00 PM 3.49 38.282 0.216 7.4 5.71 12.94
12/15/2021 4:30:00 PM 3.49 38.282 0.216 7.39 5.77 12.9
12/15/2021 4:45:00 PM 3.49 38.282 0.216 7.38 5.84 12.82
12/15/2021 5:00:00 PM 3.49 38.282 0.216 7.38 5.56 12.75
12/15/2021 5:15:00 PM 3.49 38.282 0.216 7.37 5.98 12.7
12/15/2021 5:30:00 PM 3.48 38.264 0.216 7.37 5.73 12.66
12/15/2021 5:45:00 PM 3.47 38.246 0.216 7.35 6.43 12.63
12/15/2021 6:00:00 PM 3.46 38.228 0.216 7.35 5.94 12.6
12/15/2021 6:15:00 PM 3.46 38.228 0.216 7.35 6.23 12.57
12/15/2021 6:30:00 PM 3.46 38.228 0.216 7.35 6.12 12.55
12/15/2021 6:45:00 PM 3.46 38.228 0.216 7.34 6.27 12.53
12/15/2021 7:00:00 PM 3.45 38.21 0.217 7.33 5.98 12.52
12/15/2021 7:15:00 PM 3.45 38.21 0.216 7.34 6 12.51
12/15/2021 7:30:00 PM 3.44 38.192 0.216 7.34 6.72 12.5
12/15/2021 7:45:00 PM 3.44 38.192 0.217 7.33 6 12.49
12/15/2021 8:00:00 PM 3.43 38.174 0.216 7.34 5.99 12.48
12/15/2021 8:15:00 PM 3.43 38.174 0.216 7.33 6.31 12.48
12/15/2021 8:30:00 PM 3.44 38.192 0.216 7.33 6.09 12.47
12/15/2021 8:45:00 PM 3.46 38.228 0.216 7.32 6.02 12.45
12/15/2021 9:00:00 PM 3.48 38.264 0.217 7.34 6.12 12.44
12/15/2021 9:15:00 PM 3.49 38.282 0.217 7.32 6.06 12.43
12/15/2021 9:30:00 PM 3.51 38.318 0.216 7.33 5.74 12.42
12/15/2021 9:45:00 PM 3.52 38.336 0.216 7.32 6.23 12.39
12/15/2021 10:00:00 PM 3.54 38.372 0.216 7.32 6.12 12.37
12/15/2021 10:15:00 PM 3.55 38.39 0.216 7.31 5.88 12.36
12/15/2021 10:30:00 PM 3.57 38.426 0.216 7.31 6.3 12.34
12/15/2021 10:45:00 PM 3.59 38.462 0.216 7.31 6.26 12.32
12/15/2021 11:00:00 PM 3.6 38.48 0.216 7.3 5.86 12.31
12/15/2021 11:15:00 PM 3.61 38.498 0.216 7.3 6.29 12.3
12/15/2021 11:30:00 PM 3.61 38.498 0.216 7.31 6.25 12.29
12/15/2021 11:45:00 PM 3.61 38.498 0.216 7.31 6.13 12.28
12/16/2021 12:00:00 AM 3.61 38.498 0.216 7.32 6.14 12.27
12/16/2021 12:15:00 AM 3.61 38.498 0.216 7.31 6.29 12.26
12/16/2021 12:30:00 AM 3.62 38.516 0.216 7.31 6.12 12.25
12/16/2021 12:45:00 AM 3.63 38.534 0.216 7.3 6.41 12.24
12/16/2021 1:00:00 AM 3.63 38.534 0.216 7.3 6.08 12.23
12/16/2021 1:15:00 AM 3.64 38.552 0.216 7.31 6.08 12.22
12/16/2021 1:30:00 AM 3.64 38.552 0.216 7.3 6.82 12.22
12/16/2021 1:45:00 AM 3.64 38.552 0.215 7.3 6.39 12.21
12/16/2021 2:00:00 AM 3.65 38.57 0.216 7.3 6.02 12.2
12/16/2021 2:15:00 AM 3.66 38.588 0.216 7.3 6.36 12.19
12/16/2021 2:30:00 AM 3.66 38.588 0.216 7.31 6.08 12.19
12/16/2021 2:45:00 AM 3.66 38.588 0.216 7.3 6.16 12.18
12/16/2021 3:00:00 AM 3.67 38.606 0.216 7.3 6.17 12.17
12/16/2021 3:15:00 AM 3.67 38.606 0.216 7.3 6.59 12.16
12/16/2021 3:30:00 AM 3.67 38.606 0.216 7.3 6.03 12.16
12/16/2021 3:45:00 AM 3.67 38.606 0.216 7.31 6.14 12.15
12/16/2021 4:00:00 AM 3.67 38.606 0.216 7.3 6.02 12.14
12/16/2021 4:15:00 AM 3.67 38.606 0.216 7.3 6.31 12.13
12/16/2021 4:30:00 AM 3.67 38.606 0.216 7.3 5.96 12.13
12/16/2021 4:45:00 AM 3.68 38.624 0.216 7.3 6.39 12.12
12/16/2021 5:00:00 AM 3.69 38.642 0.216 7.3 6.21 12.12
12/16/2021 5:15:00 AM 3.71 38.678 0.216 7.3 5.86 12.11
12/16/2021 5:30:00 AM 3.73 38.714 0.216 7.31 5.81 12.1
12/16/2021 5:45:00 AM 3.75 38.75 0.216 7.3 6.2 12.09
12/16/2021 6:00:00 AM 3.75 38.75 0.216 7.31 6.6 12.08
12/16/2021 6:15:00 AM 3.76 38.768 0.216 7.3 6.23 12.08
12/16/2021 6:30:00 AM 3.76 38.768 0.216 7.3 6.32 12.08
12/16/2021 6:45:00 AM 3.76 38.768 0.216 7.3 5.85 12.07
12/16/2021 7:00:00 AM 3.76 38.768 0.216 7.31 6.13 12.07
12/16/2021 7:15:00 AM 3.76 38.768 0.216 7.3 6.27 12.06
12/16/2021 7:30:00 AM 3.76 38.768 0.216 7.3 6.09 12.06
12/16/2021 7:45:00 AM 3.76 38.768 0.216 7.31 6.48 12.09
12/16/2021 8:00:00 AM 3.77 38.786 0.216 7.32 5.98 12.14
12/16/2021 8:15:00 AM 3.79 38.822 0.216 7.32 5.96 12.21
12/16/2021 8:30:00 AM 3.81 38.858 0.216 7.33 6.07 12.27
12/16/2021 8:45:00 AM 3.84 38.912 0.215 7.34 6.04 12.33
12/16/2021 9:00:00 AM 3.87 38.966 0.216 7.35 6.3 12.4
12/16/2021 9:15:00 AM 3.9 39.02 0.216 7.36 5.9 12.43
12/16/2021 9:30:00 AM 3.94 39.092 0.215 7.36 5.9 12.46
12/16/2021 9:45:00 AM 3.99 39.182 0.216 7.36 6.01 12.52
12/16/2021 10:00:00 AM 4.09 39.362 0.215 7.38 6.85 12.57
12/16/2021 10:15:00 AM 4.16 39.488 0.216 7.38 5.88 12.55
12/16/2021 10:30:00 AM 4.24 39.632 0.215 7.39 6.32 12.51
12/16/2021 10:45:00 AM 4.31 39.758 0.215 7.39 6.28 12.49
12/16/2021 11:00:00 AM 4.38 39.884 0.215 7.39 5.76 12.51
12/16/2021 11:15:00 AM 4.44 39.992 0.215 7.4 5.82 12.51
12/16/2021 11:30:00 AM 4.55 40.19 0.215 7.4 6.07 12.59
12/16/2021 11:45:00 AM 4.67 40.406 0.215 7.42 6.24 12.68
12/16/2021 12:00:00 PM 4.82 40.676 0.215 7.43 5.93 12.75
12/16/2021 12:15:00 PM 4.91 40.838 0.215 7.44 5.8 12.74
12/16/2021 12:30:00 PM 5.09 41.162 0.215 7.45 6.22 12.79
12/16/2021 12:45:00 PM 5.21 41.378 0.215 7.47 5.98 12.82
12/16/2021 1:00:00 PM 5.35 41.63 0.215 7.48 6 12.84
12/16/2021 1:15:00 PM 5.46 41.828 0.215 7.48 6.68 12.83
12/16/2021 1:30:00 PM 5.52 41.936 0.215 7.48 5.96 12.78
12/16/2021 1:45:00 PM 5.57 42.026 0.215 7.49 6.38 12.76
12/16/2021 2:00:00 PM 5.6 42.08 0.215 7.49 5.83 12.76
12/16/2021 2:15:00 PM 5.64 42.152 0.215 7.5 5.94 12.72
12/16/2021 2:30:00 PM 5.69 42.242 0.215 7.49 5.87 12.71
12/16/2021 2:45:00 PM 5.75 42.35 0.215 7.49 5.8 12.73
12/16/2021 3:00:00 PM 5.79 42.422 0.215 7.49 5.79 12.68
12/16/2021 3:15:00 PM 5.79 42.422 0.215 7.48 5.81 12.56
12/16/2021 3:30:00 PM 5.78 42.404 0.215 7.47 5.81 12.49
12/16/2021 3:45:00 PM 5.77 42.386 0.215 7.46 6 12.4
12/16/2021 4:00:00 PM 5.79 42.422 0.215 7.44 5.99 12.34
12/16/2021 4:15:00 PM 5.8 42.44 0.215 7.43 5.96 12.22
12/16/2021 4:30:00 PM 5.82 42.476 0.216 7.42 5.78 12.12
12/16/2021 4:45:00 PM 5.85 42.53 0.215 7.4 6.04 12.01
12/16/2021 5:00:00 PM 5.88 42.584 0.216 7.39 6.32 11.91
12/16/2021 5:15:00 PM 5.89 42.602 0.215 7.37 5.88 11.84
12/16/2021 5:30:00 PM 5.91 42.638 0.216 7.36 6.25 11.78
12/16/2021 5:45:00 PM 5.91 42.638 0.215 7.35 6.08 11.73
12/16/2021 6:00:00 PM 5.92 42.656 0.216 7.35 6.25 11.69
12/16/2021 6:15:00 PM 5.94 42.692 0.216 7.35 6.16 11.65
12/16/2021 6:30:00 PM 5.96 42.728 0.216 7.34 6.44 11.64
12/16/2021 6:45:00 PM 5.99 42.782 0.216 7.34 6.23 11.6
12/16/2021 7:00:00 PM 6.03 42.854 0.215 7.33 6.34 11.58
12/16/2021 7:15:00 PM 6.06 42.908 0.215 7.33 6.02 11.56
12/16/2021 7:30:00 PM 6.07 42.926 0.216 7.33 7.3 11.55
12/16/2021 7:45:00 PM 6.11 42.998 0.216 7.33 6.47 11.53
12/16/2021 8:00:00 PM 6.16 43.088 0.215 7.32 6.54 11.52
12/16/2021 8:15:00 PM 6.19 43.142 0.215 7.33 6.84 11.5
12/16/2021 8:30:00 PM 6.24 43.232 0.215 7.32 6.56 11.49
12/16/2021 8:45:00 PM 6.29 43.322 0.215 7.32 6.33 11.46
12/16/2021 9:00:00 PM 6.33 43.394 0.215 7.31 6.47 11.44
12/16/2021 9:15:00 PM 6.37 43.466 0.215 7.31 6.72 11.41
12/16/2021 9:30:00 PM 6.43 43.574 0.215 7.31 6.54 11.4
12/16/2021 9:45:00 PM 6.47 43.646 0.216 7.31 6.8 11.38
12/16/2021 10:00:00 PM 6.49 43.682 0.215 7.31 6.41 11.36
12/16/2021 10:15:00 PM 6.54 43.772 0.216 7.3 6.82 11.33
12/16/2021 10:30:00 PM 6.58 43.844 0.215 7.3 6.71 11.31
12/16/2021 10:45:00 PM 6.62 43.916 0.215 7.31 6.32 11.29
12/16/2021 11:00:00 PM 6.64 43.952 0.215 7.3 6.4 11.28
12/16/2021 11:15:00 PM 6.63 43.934 0.215 7.3 6.32 11.27
12/16/2021 11:30:00 PM 6.59 43.862 0.215 7.31 6.43 11.25
12/16/2021 11:45:00 PM 6.53 43.754 0.216 7.31 6.61 11.25
12/17/2021 12:00:00 AM 6.46 43.628 0.215 7.3 6.75 11.24
12/17/2021 12:15:00 AM 6.4 43.52 0.215 7.3 6.63 11.25
12/17/2021 12:30:00 AM 6.34 43.412 0.215 7.3 6.46 11.25
12/17/2021 12:45:00 AM 6.29 43.322 0.215 7.3 6.48 11.26
12/17/2021 1:00:00 AM 6.26 43.268 0.216 7.31 6.41 11.26
12/17/2021 1:15:00 AM 6.22 43.196 0.215 7.31 6.42 11.26
12/17/2021 1:30:00 AM 6.19 43.142 0.215 7.31 6.85 11.27
12/17/2021 1:45:00 AM 6.16 43.088 0.215 7.31 6.62 11.27
12/17/2021 2:00:00 AM 6.14 43.052 0.215 7.32 6.35 11.27
12/17/2021 2:15:00 AM 6.11 42.998 0.215 7.33 6.65 11.27
12/17/2021 2:30:00 AM 6.09 42.962 0.215 7.32 6.24 11.27
12/17/2021 2:45:00 AM 6.08 42.944 0.215 7.33 6.92 11.27
12/17/2021 3:00:00 AM 6.05 42.89 0.215 7.32 6.58 11.27
12/17/2021 3:15:00 AM 6.03 42.854 0.215 7.32 6.52 11.26
12/17/2021 3:30:00 AM 5.99 42.782 0.215 7.32 6.68 11.26
12/17/2021 3:45:00 AM 5.95 42.71 0.215 7.32 6.38 11.26
12/17/2021 4:00:00 AM 5.9 42.62 0.215 7.32 7 11.27
12/17/2021 4:15:00 AM 5.85 42.53 0.215 7.32 6.74 11.27
12/17/2021 4:30:00 AM 5.8 42.44 0.215 7.32 7.16 11.28
12/17/2021 4:45:00 AM 5.75 42.35 0.216 7.32 6.34 11.28
12/17/2021 5:00:00 AM 5.7 42.26 0.215 7.33 6.51 11.3
12/17/2021 5:15:00 AM 5.65 42.17 0.216 7.33 6.64 11.31
12/17/2021 5:30:00 AM 5.61 42.098 0.215 7.33 6.4 11.32
12/17/2021 5:45:00 AM 5.58 42.044 0.215 7.33 6.77 11.32
12/17/2021 6:00:00 AM 5.55 41.99 0.215 7.32 6.78 11.33
12/17/2021 6:15:00 AM 5.52 41.936 0.216 7.32 6.63 11.33
12/17/2021 6:30:00 AM 5.5 41.9 0.215 7.33 6.6 11.34
12/17/2021 6:45:00 AM 5.47 41.846 0.215 7.33 6.55 11.34
12/17/2021 7:00:00 AM 5.45 41.81 0.216 7.32 6.53 11.35
12/17/2021 7:15:00 AM 5.43 41.774 0.215 7.32 7.41 11.35
12/17/2021 7:30:00 AM 5.39 41.702 0.215 7.32 6.41 11.37
12/17/2021 7:45:00 AM 5.38 41.684 0.216 7.33 6.96 11.39
12/17/2021 8:00:00 AM 5.37 41.666 0.215 7.33 6.32 11.44
12/17/2021 8:15:00 AM 5.36 41.648 0.216 7.34 6.27 11.49
12/17/2021 8:30:00 AM 5.35 41.63 0.216 7.34 6.5 11.57
12/17/2021 8:45:00 AM 5.34 41.612 0.216 7.36 6.44 11.65
12/17/2021 9:00:00 AM 5.34 41.612 0.215 7.37 6.64 11.73
12/17/2021 9:15:00 AM 5.33 41.594 0.215 7.37 6.33 11.83
12/17/2021 9:30:00 AM 5.36 41.648 0.215 7.4 6.76 11.96
12/17/2021 9:45:00 AM 5.39 41.702 0.215 7.42 6.36 12.08
12/17/2021 10:00:00 AM 5.46 41.828 0.215 7.43 6.44 12.21
12/17/2021 10:15:00 AM 5.53 41.954 0.215 7.45 6.59 12.3
12/17/2021 10:30:00 AM 5.59 42.062 0.215 7.47 6.19 12.36
12/17/2021 10:45:00 AM 5.65 42.17 0.215 7.48 6.41 12.42
12/17/2021 11:00:00 AM 5.69 42.242 0.215 7.5 6.57 12.45
12/17/2021 11:15:00 AM 5.77 42.386 0.215 7.51 6.63 12.5
12/17/2021 11:30:00 AM 5.82 42.476 0.215 7.53 6.31 12.53
12/17/2021 11:45:00 AM 5.84 42.512 0.215 7.53 6.75 12.54
12/17/2021 12:00:00 PM 5.86 42.548 0.215 7.54 6.66 12.55
12/17/2021 12:15:00 PM 5.89 42.602 0.215 7.54 6.22 12.59
12/17/2021 12:30:00 PM 5.91 42.638 0.216 7.56 6.33 12.61
12/17/2021 12:45:00 PM 5.9 42.62 0.216 7.55 6.23 12.58
12/17/2021 1:00:00 PM 5.92 42.656 0.215 7.56 6.41 12.6
12/17/2021 1:15:00 PM 5.94 42.692 0.216 7.56 6.58 12.63
12/17/2021 1:30:00 PM 5.98 42.764 0.216 7.57 6.57 12.66
12/17/2021 1:45:00 PM 6.07 42.926 0.216 7.58 6.1 12.7
12/17/2021 2:00:00 PM 6.08 42.944 0.216 7.58 6.19 12.68
12/17/2021 2:15:00 PM 6.09 42.962 0.216 7.59 6.52 12.66
12/17/2021 2:30:00 PM 6.06 42.908 0.216 7.58 6.38 12.64
12/17/2021 2:45:00 PM 6.02 42.836 0.216 7.58 6.54 12.61
12/17/2021 3:00:00 PM 5.98 42.764 0.216 7.57 6.2 12.56
12/17/2021 3:15:00 PM 5.94 42.692 0.216 7.56 6.51 12.52
12/17/2021 3:30:00 PM 5.9 42.62 0.216 7.56 6.31 12.48
12/17/2021 3:45:00 PM 5.88 42.584 0.217 7.54 6.52 12.39
12/17/2021 4:00:00 PM 5.85 42.53 0.217 7.53 6.08 12.31
12/17/2021 4:15:00 PM 5.82 42.476 0.218 7.51 6.4 12.22
12/17/2021 4:30:00 PM 5.78 42.404 0.218 7.49 6.57 12.11
12/17/2021 4:45:00 PM 5.74 42.332 0.218 7.46 6.33 11.98
12/17/2021 5:00:00 PM 5.71 42.278 0.219 7.44 6.41 11.89
12/17/2021 5:15:00 PM 5.68 42.224 0.219 7.42 6.3 11.82
12/17/2021 5:30:00 PM 5.65 42.17 0.219 7.41 6.06 11.75
12/17/2021 5:45:00 PM 5.63 42.134 0.219 7.4 6.42 11.71
12/17/2021 6:00:00 PM 5.59 42.062 0.219 7.38 7.34 11.68
12/17/2021 6:15:00 PM 5.56 42.008 0.219 7.37 6.47 11.66
12/17/2021 6:30:00 PM 5.54 41.972 0.219 7.37 6.62 11.64
12/17/2021 6:45:00 PM 5.52 41.936 0.219 7.36 6.94 11.63
12/17/2021 7:00:00 PM 5.5 41.9 0.219 7.37 6.51 11.62
12/17/2021 7:15:00 PM 5.49 41.882 0.219 7.36 6.56 11.62
12/17/2021 7:30:00 PM 5.48 41.864 0.219 7.36 6.5 11.61
12/17/2021 7:45:00 PM 5.47 41.846 0.219 7.35 6.87 11.61
12/17/2021 8:00:00 PM 5.45 41.81 0.219 7.35 6.37 11.6
12/17/2021 8:15:00 PM 5.43 41.774 0.219 7.35 6.95 11.6
12/17/2021 8:30:00 PM 5.42 41.756 0.219 7.35 6.8 11.6
12/17/2021 8:45:00 PM 5.4 41.72 0.219 7.34 6.49 11.59
12/17/2021 9:00:00 PM 5.39 41.702 0.219 7.35 6.54 11.58
12/17/2021 9:15:00 PM 5.39 41.702 0.219 7.34 6.78 11.58
12/17/2021 9:30:00 PM 5.38 41.684 0.219 7.34 6.55 11.57
12/17/2021 9:45:00 PM 5.38 41.684 0.219 7.33 6.68 11.56
12/17/2021 10:00:00 PM 5.37 41.666 0.219 7.33 7.06 11.56
12/17/2021 10:15:00 PM 5.36 41.648 0.22 7.34 7.03 11.56
12/17/2021 10:30:00 PM 5.36 41.648 0.219 7.33 6.93 11.55
12/17/2021 10:45:00 PM 5.35 41.63 0.219 7.33 6.91 11.55
12/17/2021 11:00:00 PM 5.35 41.63 0.219 7.33 7.38 11.55
12/17/2021 11:15:00 PM 5.34 41.612 0.219 7.33 6.54 11.55
12/17/2021 11:30:00 PM 5.33 41.594 0.219 7.34 6.82 11.54
12/17/2021 11:45:00 PM 5.32 41.576 0.22 7.33 7.3 11.54
12/18/2021 12:00:00 AM 5.31 41.558 0.221 7.32 7.45 11.53
12/18/2021 12:15:00 AM 5.3 41.54 0.221 7.32 7.4 11.52
12/18/2021 12:30:00 AM 5.3 41.54 0.221 7.32 7.3 11.52
12/18/2021 12:45:00 AM 5.29 41.522 0.222 7.31 7.31 11.51
12/18/2021 1:00:00 AM 5.29 41.522 0.222 7.32 7.49 11.5
12/18/2021 1:15:00 AM 5.28 41.504 0.222 7.31 7.38 11.49
12/18/2021 1:30:00 AM 5.27 41.486 0.221 7.3 7.3 11.49
12/18/2021 1:45:00 AM 5.26 41.468 0.22 7.31 7.24 11.48
12/18/2021 2:00:00 AM 5.26 41.468 0.22 7.31 7.09 11.48
12/18/2021 2:15:00 AM 5.26 41.468 0.22 7.3 6.81 11.48
12/18/2021 2:30:00 AM 5.25 41.45 0.22 7.3 6.91 11.47
12/18/2021 2:45:00 AM 5.25 41.45 0.22 7.31 7.12 11.47
12/18/2021 3:00:00 AM 5.25 41.45 0.22 7.3 7.04 11.47
12/18/2021 3:15:00 AM 5.24 41.432 0.22 7.3 6.8 11.47
12/18/2021 3:30:00 AM 5.23 41.414 0.22 7.3 6.97 11.47
12/18/2021 3:45:00 AM 5.22 41.396 0.219 7.3 6.94 11.47
12/18/2021 4:00:00 AM 5.21 41.378 0.22 7.3 7.22 11.47
12/18/2021 4:15:00 AM 5.19 41.342 0.22 7.31 7.03 11.48
12/18/2021 4:30:00 AM 5.18 41.324 0.22 7.31 6.58 11.48
12/18/2021 4:45:00 AM 5.16 41.288 0.22 7.31 6.62 11.48
12/18/2021 5:00:00 AM 5.15 41.27 0.22 7.3 6.62 11.48
12/18/2021 5:15:00 AM 5.14 41.252 0.22 7.31 7.02 11.47
12/18/2021 5:30:00 AM 5.13 41.234 0.22 7.3 6.91 11.47
12/18/2021 5:45:00 AM 5.12 41.216 0.22 7.31 6.95 11.47
12/18/2021 6:00:00 AM 5.11 41.198 0.22 7.3 6.8 11.47
12/18/2021 6:15:00 AM 5.1 41.18 0.22 7.3 6.7 11.47
12/18/2021 6:30:00 AM 5.08 41.144 0.219 7.3 7.16 11.48
12/18/2021 6:45:00 AM 5.05 41.09 0.219 7.31 8.74 11.49
12/18/2021 7:00:00 AM 5.04 41.072 0.218 7.3 8.45 11.51
12/18/2021 7:15:00 AM 5.05 41.09 0.222 7.3 8 11.49
12/18/2021 7:30:00 AM 5.06 41.108 0.223 7.29 7.85 11.48
12/18/2021 7:45:00 AM 5.04 41.072 0.221 7.3 8.22 11.49
12/18/2021 8:00:00 AM 5.02 41.036 0.219 7.3 7.91 11.5
12/18/2021 8:15:00 AM 5.01 41.018 0.217 7.31 8.22 11.52
12/18/2021 8:30:00 AM 5.01 41.018 0.218 7.3 8.61 11.54
12/18/2021 8:45:00 AM 5.01 41.018 0.219 7.3 8.92 11.57
12/18/2021 9:00:00 AM 4.98 40.964 0.215 7.31 9.84 11.61
12/18/2021 9:15:00 AM 4.98 40.964 0.216 7.31 9.59 11.66
12/18/2021 9:30:00 AM 5 41 0.217 7.31 9.91 11.68
12/18/2021 9:45:00 AM 5 41 0.216 7.33 11 11.74
12/18/2021 10:00:00 AM 5 41 0.215 7.32 10.9 11.74
12/18/2021 10:15:00 AM 5.01 41.018 0.215 7.32 11 11.78
12/18/2021 10:30:00 AM 5.01 41.018 0.215 7.33 11.1 11.79
12/18/2021 10:45:00 AM 5.02 41.036 0.215 7.33 10.58 11.84
12/18/2021 11:00:00 AM 5.03 41.054 0.216 7.34 10.47 11.85
12/18/2021 11:15:00 AM 5.03 41.054 0.216 7.34 9.51 11.86
12/18/2021 11:30:00 AM 5.04 41.072 0.217 7.35 9.29 11.91
12/18/2021 11:45:00 AM 5.04 41.072 0.217 7.35 9.3 11.9
12/18/2021 12:00:00 PM 5.05 41.09 0.218 7.35 8.95 11.87
12/18/2021 12:15:00 PM 5.05 41.09 0.219 7.35 9.57 11.84
12/18/2021 12:30:00 PM 5.06 41.108 0.22 7.35 8.87 11.85
12/18/2021 12:45:00 PM 5.06 41.108 0.221 7.35 9.08 11.87
12/18/2021 1:00:00 PM 5.07 41.126 0.221 7.36 8.69 11.86
12/18/2021 1:15:00 PM 5.08 41.144 0.22 7.36 8.48 11.91
12/18/2021 1:30:00 PM 5.09 41.162 0.221 7.38 8.66 11.89
12/18/2021 1:45:00 PM 5.11 41.198 0.221 7.37 8.45 11.9
12/18/2021 2:00:00 PM 5.12 41.216 0.221 7.37 8.47 11.91
12/18/2021 2:15:00 PM 5.14 41.252 0.222 7.38 8.38 11.89
12/18/2021 2:30:00 PM 5.14 41.252 0.221 7.38 9.26 11.85
12/18/2021 2:45:00 PM 5.14 41.252 0.22 7.39 11.08 11.84
12/18/2021 3:00:00 PM 5.14 41.252 0.219 7.38 9.41 11.81
12/18/2021 3:15:00 PM 5.14 41.252 0.218 7.38 9.25 11.79
12/18/2021 3:30:00 PM 5.14 41.252 0.217 7.36 9.73 11.76
12/18/2021 3:45:00 PM 5.15 41.27 0.217 7.37 9.78 11.74
12/18/2021 4:00:00 PM 5.16 41.288 0.217 7.37 11.38 11.71
12/18/2021 4:15:00 PM 5.17 41.306 0.217 7.36 11.22 11.67
12/18/2021 4:30:00 PM 5.19 41.342 0.217 7.35 12.36 11.64
12/18/2021 4:45:00 PM 5.2 41.36 0.216 7.36 11.66 11.62
12/18/2021 5:00:00 PM 5.2 41.36 0.215 7.35 12.17 11.59
12/18/2021 5:15:00 PM 5.2 41.36 0.213 7.33 11.98 11.58
12/18/2021 5:30:00 PM 5.19 41.342 0.212 7.34 11.32 11.57
12/18/2021 5:45:00 PM 5.19 41.342 0.211 7.34 11.41 11.57
12/18/2021 6:00:00 PM 5.19 41.342 0.211 7.34 10.8 11.57
12/18/2021 6:15:00 PM 5.19 41.342 0.21 7.33 11.72 11.57
12/18/2021 6:30:00 PM 5.2 41.36 0.209 7.33 10.77 11.57
12/18/2021 6:45:00 PM 5.23 41.414 0.209 7.33 11.25 11.57
12/18/2021 7:00:00 PM 5.3 41.54 0.208 7.33 11.91 11.56
12/18/2021 7:15:00 PM 5.43 41.774 0.203 7.35 14.8 11.54
12/18/2021 7:30:00 PM 5.55 41.99 0.204 7.37 14.37 11.52
12/18/2021 7:45:00 PM 5.69 42.242 0.201 7.35 15.95 11.46
12/18/2021 8:00:00 PM 5.75 42.35 0.198 7.35 22.64 11.44
12/18/2021 8:15:00 PM 5.74 42.332 0.196 7.34 23.99 11.44
12/18/2021 8:30:00 PM 5.71 42.278 0.196 7.32 88.36 11.45
12/18/2021 8:45:00 PM 5.67 42.206 0.197 7.33 23.58 11.46
12/18/2021 9:00:00 PM 5.65 42.17 0.198 7.34 23.82 11.48
12/18/2021 9:15:00 PM 5.65 42.17 0.201 7.35 25.11 11.48
12/18/2021 9:30:00 PM 5.67 42.206 0.203 7.35 27.74 11.47
12/18/2021 9:45:00 PM 5.66 42.188 0.203 7.35 35.88 11.48
12/18/2021 10:00:00 PM 5.65 42.17 0.201 7.35 70.22 11.48
12/18/2021 10:15:00 PM 5.65 42.17 0.201 7.34 113.57 11.5
12/18/2021 10:30:00 PM 5.63 42.134 0.199 7.35 45.92 11.51
12/18/2021 10:45:00 PM 5.62 42.116 0.197 7.35 46.94 11.51
12/18/2021 11:00:00 PM 5.61 42.098 0.197 7.39 298.42 11.51
12/18/2021 11:15:00 PM 5.57 42.026 0.196 7.33 86.95 11.51
12/18/2021 11:30:00 PM 5.55 41.99 0.195 7.35 64.94 11.52
12/18/2021 11:45:00 PM 5.51 41.918 0.194 7.33 59.32 11.53
12/19/2021 12:00:00 AM 5.48 41.864 0.194 7.38 1446.64 11.53
12/19/2021 12:15:00 AM 5.44 41.792 0.192 7.36 51.56 11.54
12/19/2021 12:30:00 AM 5.4 41.72 0.186 7.33 51.3 11.55
12/19/2021 12:45:00 AM 5.36 41.648 0.189 7.35 53.46 11.56
12/19/2021 1:00:00 AM 5.32 41.576 0.188 7.33 40.89 11.56
12/19/2021 1:15:00 AM 5.29 41.522 0.183 7.34 60.34 11.57
12/19/2021 1:30:00 AM 5.25 41.45 0.185 7.38 34.28 11.57
12/19/2021 1:45:00 AM 5.22 41.396 0.187 7.37 33.17 11.58
12/19/2021 2:00:00 AM 5.18 41.324 0.186 7.36 32.29 11.57
12/19/2021 2:15:00 AM 5.16 41.288 0.185 7.37 32.85 11.58
12/19/2021 2:30:00 AM 5.14 41.252 0.184 7.36 112.65 11.58
12/19/2021 2:45:00 AM 5.11 41.198 0.183 7.36 31.06 11.58
12/19/2021 3:00:00 AM 5.09 41.162 0.182 7.35 26.67 11.59
12/19/2021 3:15:00 AM 5.07 41.126 0.181 7.36 26.77 11.59
12/19/2021 3:30:00 AM 5.05 41.09 0.181 7.31 37.93 11.6
12/19/2021 3:45:00 AM 5.04 41.072 0.18 7.31 30.92 11.6
12/19/2021 4:00:00 AM 5.04 41.072 0.18 7.32 30.36 11.6
12/19/2021 4:15:00 AM 5.04 41.072 0.18 7.3 33.59 11.6
12/19/2021 4:30:00 AM 5.04 41.072 0.179 7.31 34.97 11.59
12/19/2021 4:45:00 AM 5.04 41.072 0.179 7.32 34.42 11.59
12/19/2021 5:00:00 AM 5.04 41.072 0.178 7.3 37.16 11.59
12/19/2021 5:15:00 AM 5.03 41.054 0.177 7.3 40.3 11.59
12/19/2021 5:30:00 AM 5.02 41.036 0.177 7.3 41.81 11.59
12/19/2021 5:45:00 AM 5 41 0.176 7.3 44.89 11.59
12/19/2021 6:00:00 AM 4.98 40.964 0.176 7.31 44.87 11.59
12/19/2021 6:15:00 AM 4.96 40.928 0.175 7.34 45.18 11.6
12/19/2021 6:30:00 AM 4.93 40.874 0.175 7.33 42.02 11.61
12/19/2021 6:45:00 AM 4.91 40.838 0.174 7.3 44.27 11.61
12/19/2021 7:00:00 AM 4.88 40.784 0.174 7.31 55.83 11.62
12/19/2021 7:15:00 AM 4.85 40.73 0.174 7.3 45.76 11.62
12/19/2021 7:30:00 AM 4.83 40.694 0.174 7.31 1503.18 11.63
12/19/2021 7:45:00 AM 4.8 40.64 0.174 7.32 41.75 11.63
12/19/2021 8:00:00 AM 4.77 40.586 0.175 7.31 44.36 11.63
12/19/2021 8:15:00 AM 4.76 40.568 0.175 7.31 43.72 11.64
12/19/2021 8:30:00 AM 4.73 40.514 0.175 7.3 46.28 11.64
12/19/2021 8:45:00 AM 4.71 40.478 0.175 7.21 42.45 11.65
12/19/2021 9:00:00 AM 4.69 40.442 0.175 7.31 45.98 11.65
12/19/2021 9:15:00 AM 4.69 40.442 0.175 7.3 44.74 11.66
12/19/2021 9:30:00 AM 4.69 40.442 0.175 7.3 44 11.66
12/19/2021 9:45:00 AM 4.69 40.442 0.175 7.31 45.32 11.67
12/19/2021 10:00:00 AM 4.68 40.424 0.175 7.31 45.02 11.68
12/19/2021 10:15:00 AM 4.68 40.424 0.174 7.31 43.32 11.69
12/19/2021 10:30:00 AM 4.67 40.406 0.174 7.31 50.02 11.71
12/19/2021 10:45:00 AM 4.67 40.406 0.174 7.31 44.04 11.72
12/19/2021 11:00:00 AM 4.68 40.424 0.174 7.32 43.98 11.74
12/19/2021 11:15:00 AM 4.68 40.424 0.174 7.32 40.64 11.76
12/19/2021 11:30:00 AM 4.69 40.442 0.173 7.31 40.87 11.77
12/19/2021 11:45:00 AM 4.68 40.424 0.173 7.33 40.8 11.78
12/19/2021 12:00:00 PM 4.67 40.406 0.173 7.32 38.43 11.79
12/19/2021 12:15:00 PM 4.67 40.406 0.173 7.33 40.12 11.8
12/19/2021 12:30:00 PM 4.66 40.388 0.174 7.32 39.12 11.81
12/19/2021 12:45:00 PM 4.67 40.406 0.174 7.33 37.61 11.82
12/19/2021 1:00:00 PM 4.67 40.406 0.174 7.32 35.36 11.83
12/19/2021 1:15:00 PM 4.67 40.406 0.174 7.32 33.41 11.84
12/19/2021 1:30:00 PM 4.66 40.388 0.174 7.32 32.34 11.84
12/19/2021 1:45:00 PM 4.65 40.37 0.175 7.31 34.56 11.86
12/19/2021 2:00:00 PM 4.65 40.37 0.174 7.34 35.23 11.87
12/19/2021 2:15:00 PM 4.64 40.352 0.156 7.31 32.68 11.87
12/19/2021 2:30:00 PM 4.64 40.352 0.153 7.3 2315.61 11.88
12/19/2021 2:45:00 PM 4.66 40.388 0.175 7.3 378.7 11.89
12/19/2021 3:00:00 PM 4.65 40.37 0.176 7.3 34.43 11.89
12/19/2021 3:15:00 PM 4.62 40.316 0.176 7.31 35.54 11.89
12/19/2021 3:30:00 PM 4.61 40.298 0.176 7.3 34.09 11.89
12/19/2021 3:45:00 PM 4.58 40.244 0.176 7.31 37.03 11.88
12/19/2021 4:00:00 PM 4.56 40.208 0.176 7.31 32.21 11.88
12/19/2021 4:15:00 PM 4.51 40.118 0.176 7.31 31.95 11.88
12/19/2021 4:30:00 PM 4.47 40.046 0.177 7.3 31.71 11.87
12/19/2021 4:45:00 PM 4.43 39.974 0.176 7.29 30.58 11.87
12/19/2021 5:00:00 PM 4.38 39.884 0.176 7.3 33.14 11.86
12/19/2021 5:15:00 PM 4.34 39.812 0.176 7.28 29.51 11.86
12/19/2021 5:30:00 PM 4.3 39.74 0.176 7.3 31.88 11.86
12/19/2021 5:45:00 PM 4.26 39.668 0.176 7.29 30.4 11.87
12/19/2021 6:00:00 PM 4.22 39.596 0.176 7.28 32.93 11.87
12/19/2021 6:15:00 PM 4.2 39.56 0.176 7.29 31.67 11.88
12/19/2021 6:30:00 PM 4.16 39.488 0.176 7.28 33.78 11.89
12/19/2021 6:45:00 PM 4.15 39.47 0.176 7.28 30.75 11.9
12/19/2021 7:00:00 PM 4.13 39.434 0.176 7.29 28.59 11.9
12/19/2021 7:15:00 PM 4.11 39.398 0.176 7.29 31.86 11.91
12/19/2021 7:30:00 PM 4.08 39.344 0.176 7.28 31.02 11.92
12/19/2021 7:45:00 PM 4.04 39.272 0.176 7.28 29.86 11.93
12/19/2021 8:00:00 PM 3.98 39.164 0.176 7.28 25.6 11.94
12/19/2021 8:15:00 PM 3.95 39.11 0.176 7.27 28.25 11.94
12/19/2021 8:30:00 PM 3.91 39.038 0.176 7.27 26.91 11.95
12/19/2021 8:45:00 PM 3.87 38.966 0.176 7.27 25.86 11.96
12/19/2021 9:00:00 PM 3.83 38.894 0.176 7.27 28.71 11.98
12/19/2021 9:15:00 PM 3.79 38.822 0.176 7.28 26.23 11.99
12/19/2021 9:30:00 PM 3.75 38.75 0.176 7.26 25.19 12
12/19/2021 9:45:00 PM 3.71 38.678 0.176 7.26 24.6 12.02
12/19/2021 10:00:00 PM 3.67 38.606 0.176 7.27 21.48 12.03
12/19/2021 10:15:00 PM 3.63 38.534 0.176 7.26 23.98 12.05
12/19/2021 10:30:00 PM 3.59 38.462 0.177 7.27 21.81 12.06
12/19/2021 10:45:00 PM 3.55 38.39 0.177 7.27 21.45 12.08
12/19/2021 11:00:00 PM 3.5 38.3 0.177 7.27 20.58 12.1
12/19/2021 11:15:00 PM 3.46 38.228 0.177 7.26 21.06 12.12
12/19/2021 11:30:00 PM 3.42 38.156 0.177 7.28 20.95 12.13
12/19/2021 11:45:00 PM 3.38 38.084 0.178 7.26 21.57 12.14
12/20/2021 12:00:00 AM 3.34 38.012 0.178 7.26 27.73 12.15
12/20/2021 12:15:00 AM 3.3 37.94 0.178 7.27 19.57 12.16
12/20/2021 12:30:00 AM 3.25 37.85 0.178 7.27 18.92 12.17
12/20/2021 12:45:00 AM 3.21 37.778 0.179 7.28 18.12 12.19
12/20/2021 1:00:00 AM 3.16 37.688 0.179 7.27 17.31 12.21
12/20/2021 1:15:00 AM 3.12 37.616 0.179 7.27 17.2 12.22
12/20/2021 1:30:00 AM 3.07 37.526 0.179 7.27 17.59 12.23
12/20/2021 1:45:00 AM 3.03 37.454 0.18 7.27 16.16 12.25
12/20/2021 2:00:00 AM 2.98 37.364 0.18 7.26 16.6 12.27
12/20/2021 2:15:00 AM 2.94 37.292 0.18 7.26 17.74 12.29
12/20/2021 2:30:00 AM 2.9 37.22 0.181 7.26 16.8 12.3
12/20/2021 2:45:00 AM 2.85 37.13 0.181 7.26 15.62 12.32
12/20/2021 3:00:00 AM 2.81 37.058 0.181 7.26 15.37 12.33
12/20/2021 3:15:00 AM 2.77 36.986 0.181 7.26 16.1 12.35
12/20/2021 3:30:00 AM 2.73 36.914 0.181 7.26 14.31 12.35
12/20/2021 3:45:00 AM 2.69 36.842 0.181 7.27 14.97 12.37
12/20/2021 4:00:00 AM 2.66 36.788 0.181 7.26 14.84 12.38
12/20/2021 4:15:00 AM 2.64 36.752 0.182 7.26 15.24 12.39
12/20/2021 4:30:00 AM 2.62 36.716 0.182 7.26 14.86 12.41
12/20/2021 4:45:00 AM 2.6 36.68 0.182 7.27 14.6 12.42
12/20/2021 5:00:00 AM 2.58 36.644 0.182 7.26 14.57 12.43
12/20/2021 5:15:00 AM 2.55 36.59 0.151 7.25 14.74 12.44
12/20/2021 5:30:00 AM 2.51 36.518 0.183 7.25 14.11 12.46
12/20/2021 5:45:00 AM 2.47 36.446 0.183 7.26 14.32 12.47
12/20/2021 6:00:00 AM 2.42 36.356 0.183 7.26 13.57 12.49
12/20/2021 6:15:00 AM 2.37 36.266 0.183 7.25 13.51 12.5
12/20/2021 6:30:00 AM 2.33 36.194 0.184 7.24 13.13 12.52
12/20/2021 6:45:00 AM 2.28 36.104 0.184 7.26 13.46 12.54
12/20/2021 7:00:00 AM 2.24 36.032 0.184 7.26 12.8 12.55
12/20/2021 7:15:00 AM 2.2 35.96 0.184 7.27 12.59 12.57
12/20/2021 7:30:00 AM 2.17 35.906 0.185 7.25 12.94 12.58
12/20/2021 7:45:00 AM 2.13 35.834 0.185 7.26 12.69 12.61
12/20/2021 8:00:00 AM 2.11 35.798 0.185 7.27 12.11 12.64
12/20/2021 8:15:00 AM 2.08 35.744 0.185 7.28 11.84 12.67
12/20/2021 8:30:00 AM 2.06 35.708 0.185 7.29 11.78 12.7
12/20/2021 8:45:00 AM 2.04 35.672 0.185 7.28 11.4 12.74
12/20/2021 9:00:00 AM 2.03 35.654 0.185 7.27 11.65 12.79
12/20/2021 9:15:00 AM 2.03 35.654 0.186 7.27 11.99 12.82
12/20/2021 9:30:00 AM 2.04 35.672 0.186 7.29 11.39 12.85
12/20/2021 9:45:00 AM 2.08 35.744 0.186 7.29 10.95 12.91
12/20/2021 10:00:00 AM 2.14 35.852 0.186 7.3 11.17 12.95
12/20/2021 10:15:00 AM 2.2 35.96 0.186 7.32 11.18 12.97
12/20/2021 10:30:00 AM 2.25 36.05 0.186 7.31 10.44 12.99
12/20/2021 10:45:00 AM 2.31 36.158 0.187 7.31 10.41 13.01
12/20/2021 11:00:00 AM 2.37 36.266 0.186 7.32 10.2 13.02
12/20/2021 11:15:00 AM 2.44 36.392 0.187 7.32 10.05 13.03
12/20/2021 11:30:00 AM 2.5 36.5 0.187 7.32 10.41 13.04
12/20/2021 11:45:00 AM 2.55 36.59 0.187 7.33 10.05 13.05
12/20/2021 12:00:00 PM 2.6 36.68 0.188 7.33 9.65 13.06
12/20/2021 12:15:00 PM 2.65 36.77 0.188 7.33 9.55 13.07
12/20/2021 12:30:00 PM 2.69 36.842 0.187 7.33 9.64 13.07
12/20/2021 12:45:00 PM 2.73 36.914 0.188 7.33 9.29 13.07
12/20/2021 1:00:00 PM 2.76 36.968 0.188 7.34 9.41 13.07
12/20/2021 1:15:00 PM 2.78 37.004 0.188 7.34 9.49 13.08
12/20/2021 1:30:00 PM 2.79 37.022 0.188 7.34 9.31 13.08
12/20/2021 1:45:00 PM 2.81 37.058 0.188 7.35 9.24 13.08
12/20/2021 2:00:00 PM 2.81 37.058 0.189 7.35 9.42 13.08
12/20/2021 2:15:00 PM 2.8 37.04 0.189 7.35 8.91 13.08
12/20/2021 2:30:00 PM 2.78 37.004 0.189 7.34 9.3 13.08
12/20/2021 2:45:00 PM 2.76 36.968 0.189 7.35 9.1 13.08
12/20/2021 3:00:00 PM 2.72 36.896 0.19 7.36 8.83 13.07
12/20/2021 3:15:00 PM 2.66 36.788 0.19 7.34 8.74 13.06
12/20/2021 3:30:00 PM 2.6 36.68 0.19 7.35 9.17 13.05
12/20/2021 3:45:00 PM 2.54 36.572 0.19 7.34 8.82 13.02
12/20/2021 4:00:00 PM 2.49 36.482 0.19 7.32 8.9 12.98
12/20/2021 4:15:00 PM 2.45 36.41 0.191 7.33 9.03 12.95
12/20/2021 4:30:00 PM 2.42 36.356 0.191 7.32 8.96 12.93
12/20/2021 4:45:00 PM 2.4 36.32 0.191 7.32 8.8 12.91
12/20/2021 5:00:00 PM 2.37 36.266 0.192 7.31 8.85 12.89
12/20/2021 5:15:00 PM 2.33 36.194 0.192 7.31 9.23 12.87
12/20/2021 5:30:00 PM 2.3 36.14 0.192 7.28 8.92 12.85
12/20/2021 5:45:00 PM 2.26 36.068 0.192 7.29 8.96 12.84
12/20/2021 6:00:00 PM 2.23 36.014 0.192 7.29 8.82 12.84
12/20/2021 6:15:00 PM 2.2 35.96 0.192 7.3 8.93 12.84
12/20/2021 6:30:00 PM 2.17 35.906 0.192 7.29 8.7 12.84
12/20/2021 6:45:00 PM 2.14 35.852 0.192 7.28 8.65 12.84
12/20/2021 7:00:00 PM 2.11 35.798 0.192 7.29 8.45 12.84
12/20/2021 7:15:00 PM 2.09 35.762 0.193 7.28 8.09 12.84
12/20/2021 7:30:00 PM 2.06 35.708 0.193 7.29 8.38 12.84
12/20/2021 7:45:00 PM 2.04 35.672 0.193 7.29 8.08 12.84
12/20/2021 8:00:00 PM 2.02 35.636 0.193 7.29 8.45 12.84
12/20/2021 8:15:00 PM 1.99 35.582 0.193 7.29 8.03 12.85
12/20/2021 8:30:00 PM 1.97 35.546 0.193 7.29 8.15 12.85
12/20/2021 8:45:00 PM 1.95 35.51 0.193 7.29 8.16 12.85
12/20/2021 9:00:00 PM 1.92 35.456 0.193 7.29 8.24 12.85
12/20/2021 9:15:00 PM 1.9 35.42 0.193 7.29 8.12 12.85
12/20/2021 9:30:00 PM 1.88 35.384 0.193 7.28 8 12.85
12/20/2021 9:45:00 PM 1.86 35.348 0.194 7.29 8.04 12.85
12/20/2021 10:00:00 PM 1.83 35.294 0.193 7.29 7.94 12.85
12/20/2021 10:15:00 PM 1.81 35.258 0.193 7.28 8.21 12.86
12/20/2021 10:30:00 PM 1.78 35.204 0.194 7.29 7.68 12.86
12/20/2021 10:45:00 PM 1.76 35.168 0.194 7.29 8.19 12.86
12/20/2021 11:00:00 PM 1.74 35.132 0.194 7.29 7.78 12.86
12/20/2021 11:15:00 PM 1.71 35.078 0.194 7.29 8.32 12.87
12/20/2021 11:30:00 PM 1.69 35.042 0.194 7.29 7.73 12.87
12/20/2021 11:45:00 PM 1.67 35.006 0.194 7.28 7.63 12.87
12/21/2021 12:00:00 AM 1.64 34.952 0.194 7.28 7.76 12.88
12/21/2021 12:15:00 AM 1.62 34.916 0.194 7.27 7.77 12.89
12/21/2021 12:30:00 AM 1.59 34.862 0.195 7.28 7.58 12.89
12/21/2021 12:45:00 AM 1.56 34.808 0.195 7.28 7.55 12.89
12/21/2021 1:00:00 AM 1.54 34.772 0.195 7.29 7.41 12.9
12/21/2021 1:15:00 AM 1.51 34.718 0.194 7.27 7.39 12.91
12/21/2021 1:30:00 AM 1.49 34.682 0.195 7.29 7.54 12.92
12/21/2021 1:45:00 AM 1.47 34.646 0.195 7.28 7.53 12.93
12/21/2021 2:00:00 AM 1.45 34.61 0.195 7.28 7.19 12.93
12/21/2021 2:15:00 AM 1.43 34.574 0.195 7.29 7.31 12.94
12/21/2021 2:30:00 AM 1.41 34.538 0.195 7.29 7.34 12.94
12/21/2021 2:45:00 AM 1.41 34.538 0.195 7.29 7.65 12.95
12/21/2021 3:00:00 AM 1.4 34.52 0.196 7.28 7.33 12.96
12/21/2021 3:15:00 AM 1.38 34.484 0.195 7.28 7.09 12.96
12/21/2021 3:30:00 AM 1.37 34.466 0.196 7.29 7.07 12.96
12/21/2021 3:45:00 AM 1.36 34.448 0.196 7.29 6.82 12.96
12/21/2021 4:00:00 AM 1.35 34.43 0.196 7.28 6.96 12.96
12/21/2021 4:15:00 AM 1.35 34.43 0.196 7.29 7.1 12.97
12/21/2021 4:30:00 AM 1.33 34.394 0.196 7.29 6.77 12.97
12/21/2021 4:45:00 AM 1.32 34.376 0.196 7.29 6.86 12.97
12/21/2021 5:00:00 AM 1.31 34.358 0.196 7.3 6.59 12.97
12/21/2021 5:15:00 AM 1.3 34.34 0.196 7.28 6.61 12.98
12/21/2021 5:30:00 AM 1.29 34.322 0.196 7.29 6.79 12.98
12/21/2021 5:45:00 AM 1.28 34.304 0.196 7.28 6.84 12.98
12/21/2021 6:00:00 AM 1.27 34.286 0.196 7.28 6.59 12.99
12/21/2021 6:15:00 AM 1.25 34.25 0.196 7.29 6.82 12.99
12/21/2021 6:30:00 AM 1.23 34.214 0.196 7.29 6.58 13
12/21/2021 6:45:00 AM 1.21 34.178 0.197 7.28 7.22 13
12/21/2021 7:00:00 AM 1.19 34.142 0.196 7.28 6.78 13.01
12/21/2021 7:15:00 AM 1.18 34.124 0.197 7.27 7.07 13.01
12/21/2021 7:30:00 AM 1.16 34.088 0.197 7.29 6.77 13.02
12/21/2021 7:45:00 AM 1.15 34.07 0.197 7.28 6.9 13.03
12/21/2021 8:00:00 AM 1.13 34.034 0.197 7.29 6.82 13.06
12/21/2021 8:15:00 AM 1.12 34.016 0.197 7.3 6.88 13.08
12/21/2021 8:30:00 AM 1.11 33.998 0.197 7.3 6.8 13.12
12/21/2021 8:45:00 AM 1.12 34.016 0.197 7.31 6.74 13.17
12/21/2021 9:00:00 AM 1.15 34.07 0.197 7.31 7.02 13.23
12/21/2021 9:15:00 AM 1.17 34.106 0.197 7.32 6.85 13.27
12/21/2021 9:30:00 AM 1.21 34.178 0.197 7.32 6.8 13.31
12/21/2021 9:45:00 AM 1.27 34.286 0.197 7.32 7.22 13.34
12/21/2021 10:00:00 AM 1.34 34.412 0.197 7.34 6.84 13.37
12/21/2021 10:15:00 AM 1.39 34.502 0.197 7.33 7.39 13.38
12/21/2021 10:30:00 AM 1.44 34.592 0.197 7.34 6.9 13.38
12/21/2021 10:45:00 AM 1.48 34.664 0.197 7.34 6.85 13.39
12/21/2021 11:00:00 AM 1.57 34.826 0.197 7.35 6.67 13.39
12/21/2021 11:15:00 AM 1.66 34.988 0.197 7.35 6.64 13.39
12/21/2021 11:30:00 AM 1.76 35.168 0.197 7.36 6.53 13.4
12/21/2021 11:45:00 AM 1.84 35.312 0.197 7.34 6.76 13.39
12/21/2021 12:00:00 PM 1.93 35.474 0.197 7.36 6.5 13.39
12/21/2021 12:15:00 PM 2.01 35.618 0.197 7.35 6.54 13.38
12/21/2021 12:30:00 PM 2.08 35.744 0.198 7.35 6.6 13.38
12/21/2021 12:45:00 PM 2.14 35.852 0.197 7.36 6.3 13.38
12/21/2021 1:00:00 PM 2.2 35.96 0.197 7.36 6.57 13.37
12/21/2021 1:15:00 PM 2.24 36.032 0.197 7.37 6.46 13.37
12/21/2021 1:30:00 PM 2.26 36.068 0.197 7.36 7.33 13.36
12/21/2021 1:45:00 PM 2.29 36.122 0.197 7.36 6.59 13.35
12/21/2021 2:00:00 PM 2.31 36.158 0.198 7.36 6.91 13.34
12/21/2021 2:15:00 PM 2.3 36.14 0.197 7.36 6.77 13.33
12/21/2021 2:30:00 PM 2.3 36.14 0.197 7.37 7.09 13.32
12/21/2021 2:45:00 PM 2.29 36.122 0.197 7.37 6.42 13.32
12/21/2021 3:00:00 PM 2.27 36.086 0.198 7.37 6.56 13.31
12/21/2021 3:15:00 PM 2.23 36.014 0.198 7.36 6.66 13.29
12/21/2021 3:30:00 PM 2.17 35.906 0.198 7.37 6.39 13.27
12/21/2021 3:45:00 PM 2.1 35.78 0.197 7.37 6.75 13.24
12/21/2021 4:00:00 PM 2.04 35.672 0.198 7.35 6.54 13.2
12/21/2021 4:15:00 PM 2.01 35.618 0.198 7.35 7.03 13.15
12/21/2021 4:30:00 PM 1.98 35.564 0.198 7.36 6.91 13.12
12/21/2021 4:45:00 PM 1.96 35.528 0.198 7.34 7.08 13.09
12/21/2021 5:00:00 PM 1.94 35.492 0.198 7.34 6.78 13.05
12/21/2021 5:15:00 PM 1.92 35.456 0.198 7.33 6.75 13.01
12/21/2021 5:30:00 PM 1.89 35.402 0.198 7.32 6.93 12.99
12/21/2021 5:45:00 PM 1.86 35.348 0.198 7.33 6.96 12.96
12/21/2021 6:00:00 PM 1.83 35.294 0.198 7.32 6.95 12.94
12/21/2021 6:15:00 PM 1.81 35.258 0.199 7.32 6.97 12.93
12/21/2021 6:30:00 PM 1.79 35.222 0.199 7.31 7.1 12.92
12/21/2021 6:45:00 PM 1.78 35.204 0.199 7.32 7 12.92
12/21/2021 7:00:00 PM 1.77 35.186 0.198 7.31 7.1 12.91
12/21/2021 7:15:00 PM 1.76 35.168 0.199 7.31 7 12.91
12/21/2021 7:30:00 PM 1.74 35.132 0.199 7.31 7.24 12.9
12/21/2021 7:45:00 PM 1.73 35.114 0.199 7.3 7.17 12.9
12/21/2021 8:00:00 PM 1.71 35.078 0.199 7.3 6.97 12.89
12/21/2021 8:15:00 PM 1.69 35.042 0.199 7.3 7.01 12.89
12/21/2021 8:30:00 PM 1.67 35.006 0.199 7.3 6.68 12.89
12/21/2021 8:45:00 PM 1.65 34.97 0.199 7.3 6.87 12.89
12/21/2021 9:00:00 PM 1.63 34.934 0.199 7.31 6.92 12.88
12/21/2021 9:15:00 PM 1.61 34.898 0.199 7.3 7.01 12.88
12/21/2021 9:30:00 PM 1.59 34.862 0.198 7.3 6.73 12.87
12/21/2021 9:45:00 PM 1.57 34.826 0.199 7.3 6.86 12.88
12/21/2021 10:00:00 PM 1.55 34.79 0.199 7.31 6.91 12.87
12/21/2021 10:15:00 PM 1.53 34.754 0.199 7.3 6.82 12.87
12/21/2021 10:30:00 PM 1.52 34.736 0.199 7.31 6.7 12.87
12/21/2021 10:45:00 PM 1.49 34.682 0.199 7.3 6.99 12.87
12/21/2021 11:00:00 PM 1.48 34.664 0.199 7.3 6.7 12.86
12/21/2021 11:15:00 PM 1.46 34.628 0.199 7.3 6.69 12.87
12/21/2021 11:30:00 PM 1.44 34.592 0.199 7.3 6.59 12.85
12/21/2021 11:45:00 PM 1.43 34.574 0.199 7.29 6.91 12.85
12/22/2021 12:00:00 AM 1.41 34.538 0.199 7.29 7.75 12.85
12/22/2021 12:15:00 AM 1.39 34.502 0.199 7.3 6.98 12.86
12/22/2021 12:30:00 AM 1.38 34.484 0.199 7.29 6.73 12.86
12/22/2021 12:45:00 AM 1.36 34.448 0.199 7.29 6.96 12.86
12/22/2021 1:00:00 AM 1.34 34.412 0.199 7.29 6.88 12.85
12/22/2021 1:15:00 AM 1.33 34.394 0.199 7.3 6.92 12.86
12/22/2021 1:30:00 AM 1.31 34.358 0.199 7.3 6.69 12.86
12/22/2021 1:45:00 AM 1.32 34.376 0.199 7.3 6.53 12.86
12/22/2021 2:00:00 AM 1.31 34.358 0.199 7.3 7.02 12.86
12/22/2021 2:15:00 AM 1.31 34.358 0.2 7.3 6.85 12.86
12/22/2021 2:30:00 AM 1.3 34.34 0.199 7.3 6.78 12.86
12/22/2021 2:45:00 AM 1.3 34.34 0.2 7.3 6.64 12.86
12/22/2021 3:00:00 AM 1.3 34.34 0.2 7.3 6.47 12.86
12/22/2021 3:15:00 AM 1.3 34.34 0.2 7.3 6.63 12.85
12/22/2021 3:30:00 AM 1.3 34.34 0.2 7.3 6.65 12.85
12/22/2021 3:45:00 AM 1.3 34.34 0.2 7.31 6.55 12.85
12/22/2021 4:00:00 AM 1.31 34.358 0.2 7.3 6.46 12.85
12/22/2021 4:15:00 AM 1.33 34.394 0.2 7.31 6.74 12.84
12/22/2021 4:30:00 AM 1.36 34.448 0.2 7.3 6.57 12.83
12/22/2021 4:45:00 AM 1.39 34.502 0.2 7.3 6.8 12.83
12/22/2021 5:00:00 AM 1.41 34.538 0.199 7.3 6.85 12.82
12/22/2021 5:15:00 AM 1.43 34.574 0.2 7.3 6.62 12.81
12/22/2021 5:30:00 AM 1.45 34.61 0.2 7.3 6.61 12.81
12/22/2021 5:45:00 AM 1.46 34.628 0.2 7.3 6.87 12.8
12/22/2021 6:00:00 AM 1.46 34.628 0.2 7.31 6.65 12.8
12/22/2021 6:15:00 AM 1.47 34.646 0.2 7.3 6.69 12.8
12/22/2021 6:30:00 AM 1.47 34.646 0.2 7.29 6.72 12.79
12/22/2021 6:45:00 AM 1.47 34.646 0.2 7.3 7.15 12.79
12/22/2021 7:00:00 AM 1.48 34.664 0.2 7.3 7.08 12.79
12/22/2021 7:15:00 AM 1.48 34.664 0.2 7.29 6.65 12.79
12/22/2021 7:30:00 AM 1.49 34.682 0.2 7.31 7.03 12.78
12/22/2021 7:45:00 AM 1.49 34.682 0.2 7.31 6.51 12.79
12/22/2021 8:00:00 AM 1.49 34.682 0.2 7.3 6.57 12.8
12/22/2021 8:15:00 AM 1.48 34.664 0.2 7.31 6.43 12.82
12/22/2021 8:30:00 AM 1.49 34.682 0.2 7.31 6.57 12.85
12/22/2021 8:45:00 AM 1.49 34.682 0.2 7.3 6.6 12.89
12/22/2021 9:00:00 AM 1.51 34.718 0.2 7.32 6.84 12.94
12/22/2021 9:15:00 AM 1.52 34.736 0.2 7.33 6.6 12.97
12/22/2021 9:30:00 AM 1.54 34.772 0.2 7.33 6.89 13.01
12/22/2021 9:45:00 AM 1.55 34.79 0.2 7.33 7.03 13.04
12/22/2021 10:00:00 AM 1.56 34.808 0.2 7.34 6.88 13.05
12/22/2021 10:15:00 AM 1.57 34.826 0.2 7.33 7.17 13.06
12/22/2021 10:30:00 AM 1.58 34.844 0.199 7.34 6.99 13.08
12/22/2021 10:45:00 AM 1.59 34.862 0.2 7.34 7.47 13.07
12/22/2021 11:00:00 AM 1.64 34.952 0.199 7.35 7.27 13.12
12/22/2021 11:15:00 AM 1.69 35.042 0.199 7.36 7.2 13.16
12/22/2021 11:30:00 AM 1.72 35.096 0.199 7.36 7.05 13.17
12/22/2021 11:45:00 AM 1.76 35.168 0.2 7.36 7.07 13.18
12/22/2021 12:00:00 PM 1.76 35.168 0.199 7.37 7 13.19
12/22/2021 12:15:00 PM 1.75 35.15 0.199 7.36 7.21 13.18
12/22/2021 12:30:00 PM 1.8 35.24 0.2 7.36 6.97 13.21
12/22/2021 12:45:00 PM 1.83 35.294 0.199 7.38 6.92 13.23
12/22/2021 1:00:00 PM 1.86 35.348 0.199 7.38 6.74 13.24
12/22/2021 1:15:00 PM 1.86 35.348 0.2 7.38 6.97 13.24
12/22/2021 1:30:00 PM 1.91 35.438 0.199 7.38 7.07 13.26
12/22/2021 1:45:00 PM 1.95 35.51 0.199 7.38 6.97 13.27
12/22/2021 2:00:00 PM 1.92 35.456 0.2 7.39 6.65 13.25
12/22/2021 2:15:00 PM 1.87 35.366 0.199 7.38 6.87 13.21
12/22/2021 2:30:00 PM 1.83 35.294 0.2 7.38 7 13.23
12/22/2021 2:45:00 PM 1.81 35.258 0.2 7.38 7.58 13.22
12/22/2021 3:00:00 PM 1.79 35.222 0.2 7.39 6.42 13.22
12/22/2021 3:15:00 PM 1.77 35.186 0.2 7.39 6.43 13.24
12/22/2021 3:30:00 PM 1.74 35.132 0.2 7.38 7.92 13.23
12/22/2021 3:45:00 PM 1.71 35.078 0.2 7.38 7 13.23
12/22/2021 4:00:00 PM 1.68 35.024 0.2 7.39 6.11 13.21
12/22/2021 4:15:00 PM 1.63 34.934 0.2 7.39 6.29 13.2
12/22/2021 4:30:00 PM 1.6 34.88 0.201 7.39 5.8 13.17
12/22/2021 4:45:00 PM 1.56 34.808 0.2 7.37 6.29 13.13
12/22/2021 5:00:00 PM 1.53 34.754 0.201 7.37 6.32 13.09
12/22/2021 5:15:00 PM 1.51 34.718 0.201 7.36 6.05 13.06
12/22/2021 5:30:00 PM 1.49 34.682 0.201 7.36 6.13 13.04
12/22/2021 5:45:00 PM 1.46 34.628 0.201 7.35 6.17 13.03
12/22/2021 6:00:00 PM 1.43 34.574 0.201 7.35 6.28 13.02
12/22/2021 6:15:00 PM 1.42 34.556 0.201 7.34 6.22 13.01
12/22/2021 6:30:00 PM 1.4 34.52 0.201 7.34 6.71 13.01
12/22/2021 6:45:00 PM 1.38 34.484 0.201 7.33 7.57 13
12/22/2021 7:00:00 PM 1.36 34.448 0.201 7.34 6.63 13.01
12/22/2021 7:15:00 PM 1.33 34.394 0.201 7.33 7.08 13
12/22/2021 7:30:00 PM 1.3 34.34 0.201 7.33 7.19 13.01
12/22/2021 7:45:00 PM 1.28 34.304 0.201 7.32 7.04 13.01
12/22/2021 8:00:00 PM 1.26 34.268 0.201 7.34 6.76 13.02
12/22/2021 8:15:00 PM 1.24 34.232 0.201 7.33 7.06 13.02
12/22/2021 8:30:00 PM 1.2 34.16 0.202 7.33 6.91 13.02
12/22/2021 8:45:00 PM 1.16 34.088 0.202 7.33 7.06 13.03
12/22/2021 9:00:00 PM 1.12 34.016 0.201 7.33 6.92 13.04
12/22/2021 9:15:00 PM 1.08 33.944 0.201 7.34 7.03 13.04
12/22/2021 9:30:00 PM 1.06 33.908 0.202 7.33 6.85 13.05
12/22/2021 9:45:00 PM 1.03 33.854 0.202 7.32 6.78 13.05
12/22/2021 10:00:00 PM 1 33.8 0.202 7.32 7.3 13.05
12/22/2021 10:15:00 PM 0.97 33.746 0.202 7.33 6.82 13.06
12/22/2021 10:30:00 PM 0.96 33.728 0.202 7.32 6.41 13.06
12/22/2021 10:45:00 PM 0.94 33.692 0.202 7.33 6.5 13.06
12/22/2021 11:00:00 PM 0.92 33.656 0.202 7.32 6.53 13.07
12/22/2021 11:15:00 PM 0.91 33.638 0.202 7.33 6.74 13.07
12/22/2021 11:30:00 PM 0.9 33.62 0.202 7.32 6.66 13.07
12/22/2021 11:45:00 PM 0.88 33.584 0.202 7.32 6.49 13.07
12/23/2021 12:00:00 AM 0.86 33.548 0.202 7.31 5.95 13.08
12/23/2021 12:15:00 AM 0.84 33.512 0.203 7.31 6.34 13.08
12/23/2021 12:30:00 AM 0.83 33.494 0.203 7.32 6.23 13.08
12/23/2021 12:45:00 AM 0.84 33.512 0.203 7.31 6.05 13.08
12/23/2021 1:00:00 AM 0.85 33.53 0.203 7.31 6.72 13.08
12/23/2021 1:15:00 AM 0.86 33.548 0.203 7.32 6.71 13.07
12/23/2021 1:30:00 AM 0.86 33.548 0.203 7.22 6.06 13.08
12/23/2021 1:45:00 AM 0.86 33.548 0.203 7.31 6.07 13.08
12/23/2021 2:00:00 AM 0.86 33.548 0.203 7.31 6.22 13.09
12/23/2021 2:15:00 AM 0.86 33.548 0.203 7.31 5.73 13.09
12/23/2021 2:30:00 AM 0.86 33.548 0.203 7.31 6.12 13.09
12/23/2021 2:45:00 AM 0.86 33.548 0.203 7.3 5.99 13.1
12/23/2021 3:00:00 AM 0.86 33.548 0.203 7.3 6.25 13.1
12/23/2021 3:15:00 AM 0.86 33.548 0.204 7.3 5.99 13.1
12/23/2021 3:30:00 AM 0.85 33.53 0.203 7.31 5.86 13.11
12/23/2021 3:45:00 AM 0.84 33.512 0.204 7.3 5.87 13.11
12/23/2021 4:00:00 AM 0.84 33.512 0.204 7.31 6.13 13.11
12/23/2021 4:15:00 AM 0.83 33.494 0.204 7.3 6.46 13.11
12/23/2021 4:30:00 AM 0.83 33.494 0.204 7.31 5.93 13.12
12/23/2021 4:45:00 AM 0.82 33.476 0.204 7.31 6.07 13.12
12/23/2021 5:00:00 AM 0.81 33.458 0.204 7.31 6.09 13.12
12/23/2021 5:15:00 AM 0.8 33.44 0.204 7.31 5.94 13.13
12/23/2021 5:30:00 AM 0.79 33.422 0.204 7.3 6.02 13.13
12/23/2021 5:45:00 AM 0.78 33.404 0.205 7.31 6.03 13.14
12/23/2021 6:00:00 AM 0.77 33.386 0.204 7.31 5.82 13.14
12/23/2021 6:15:00 AM 0.76 33.368 0.205 7.31 6.1 13.15
12/23/2021 6:30:00 AM 0.75 33.35 0.205 7.31 5.94 13.15
12/23/2021 6:45:00 AM 0.74 33.332 0.205 7.31 5.66 13.16
12/23/2021 7:00:00 AM 0.73 33.314 0.205 7.3 5.87 13.16
12/23/2021 7:15:00 AM 0.73 33.314 0.205 7.32 5.9 13.16
12/23/2021 7:30:00 AM 0.72 33.296 0.205 7.3 5.96 13.18
12/23/2021 7:45:00 AM 0.72 33.296 0.205 7.31 5.91 13.18
12/23/2021 8:00:00 AM 0.72 33.296 0.205 7.31 6.03 13.2
12/23/2021 8:15:00 AM 0.71 33.278 0.205 7.31 5.8 13.23
12/23/2021 8:30:00 AM 0.72 33.296 0.206 7.32 5.96 13.27
12/23/2021 8:45:00 AM 0.72 33.296 0.205 7.32 5.93 13.3
12/23/2021 9:00:00 AM 0.74 33.332 0.205 7.34 5.95 13.37
12/23/2021 9:15:00 AM 0.76 33.368 0.205 7.33 5.91 13.42
12/23/2021 9:30:00 AM 0.79 33.422 0.206 7.33 5.75 13.47
12/23/2021 9:45:00 AM 0.82 33.476 0.206 7.35 6.54 13.51
12/23/2021 10:00:00 AM 0.86 33.548 0.206 7.35 5.82 13.55
12/23/2021 10:15:00 AM 0.9 33.62 0.205 7.36 5.74 13.58
12/23/2021 10:30:00 AM 0.94 33.692 0.205 7.36 5.83 13.6
12/23/2021 10:45:00 AM 1.02 33.836 0.205 7.36 5.64 13.63
12/23/2021 11:00:00 AM 1.06 33.908 0.206 7.37 5.71 13.65
12/23/2021 11:15:00 AM 1.13 34.034 0.205 7.37 5.79 13.66
12/23/2021 11:30:00 AM 1.14 34.052 0.206 7.37 6.06 13.67
12/23/2021 11:45:00 AM 1.2 34.16 0.205 7.37 5.61 13.67
12/23/2021 12:00:00 PM 1.2 34.16 0.206 7.38 5.61 13.67
12/23/2021 12:15:00 PM 1.23 34.214 0.206 7.38 5.72 13.68
12/23/2021 12:30:00 PM 1.25 34.25 0.206 7.38 5.88 13.69
12/23/2021 12:45:00 PM 1.27 34.286 0.206 7.39 5.74 13.69
12/23/2021 1:00:00 PM 1.29 34.322 0.206 7.38 6.01 13.69
12/23/2021 1:15:00 PM 1.32 34.376 0.206 7.39 5.99 13.69
12/23/2021 1:30:00 PM 1.34 34.412 0.206 7.39 6.14 13.7
12/23/2021 1:45:00 PM 1.42 34.556 0.206 7.38 5.89 13.71
12/23/2021 2:00:00 PM 1.47 34.646 0.206 7.39 5.79 13.71
12/23/2021 2:15:00 PM 1.5 34.7 0.206 7.38 5.98 13.7
12/23/2021 2:30:00 PM 1.51 34.718 0.207 7.38 5.78 13.69
12/23/2021 2:45:00 PM 1.53 34.754 0.206 7.38 5.64 13.7
12/23/2021 3:00:00 PM 1.51 34.718 0.207 7.38 5.59 13.68
12/23/2021 3:15:00 PM 1.47 34.646 0.207 7.38 5.77 13.65
12/23/2021 3:30:00 PM 1.44 34.592 0.207 7.38 5.51 13.64
12/23/2021 3:45:00 PM 1.41 34.538 0.207 7.37 5.76 13.63
12/23/2021 4:00:00 PM 1.39 34.502 0.207 7.36 5.32 13.6
12/23/2021 4:15:00 PM 1.36 34.448 0.207 7.37 5.82 13.56
12/23/2021 4:30:00 PM 1.34 34.412 0.207 7.37 5.68 13.52
12/23/2021 4:45:00 PM 1.32 34.376 0.208 7.36 5.8 13.46
12/23/2021 5:00:00 PM 1.3 34.34 0.208 7.35 5.91 13.41
12/23/2021 5:15:00 PM 1.3 34.34 0.208 7.35 5.86 13.36
12/23/2021 5:30:00 PM 1.29 34.322 0.208 7.33 6.03 13.33
12/23/2021 5:45:00 PM 1.28 34.304 0.208 7.32 5.97 13.3
12/23/2021 6:00:00 PM 1.28 34.304 0.208 7.33 5.76 13.28
12/23/2021 6:15:00 PM 1.27 34.286 0.208 7.33 5.88 13.25
12/23/2021 6:30:00 PM 1.26 34.268 0.208 7.32 6.25 13.24
12/23/2021 6:45:00 PM 1.26 34.268 0.208 7.32 6.46 13.23
12/23/2021 7:00:00 PM 1.25 34.25 0.208 7.32 6.08 13.21
12/23/2021 7:15:00 PM 1.25 34.25 0.209 7.31 5.92 13.2
12/23/2021 7:30:00 PM 1.27 34.286 0.209 7.31 6.25 13.19
12/23/2021 7:45:00 PM 1.28 34.304 0.209 7.31 6.12 13.18
12/23/2021 8:00:00 PM 1.28 34.304 0.209 7.31 6.22 13.17
12/23/2021 8:15:00 PM 1.29 34.322 0.209 7.31 6.59 13.16
12/23/2021 8:30:00 PM 1.3 34.34 0.209 7.3 6.66 13.15
12/23/2021 8:45:00 PM 1.32 34.376 0.209 7.3 6.18 13.14
12/23/2021 9:00:00 PM 1.32 34.376 0.209 7.3 6.04 13.13
12/23/2021 9:15:00 PM 1.34 34.412 0.209 7.3 6.1 13.12
12/23/2021 9:30:00 PM 1.34 34.412 0.209 7.3 6.31 13.11
12/23/2021 9:45:00 PM 1.36 34.448 0.209 7.3 5.89 13.1
12/23/2021 10:00:00 PM 1.36 34.448 0.209 7.3 6.19 13.09
12/23/2021 10:15:00 PM 1.36 34.448 0.209 7.29 6.14 13.08
12/23/2021 10:30:00 PM 1.31 34.358 0.209 7.3 6.15 13.06
12/23/2021 10:45:00 PM 1.29 34.322 0.209 7.3 6.15 13.06
12/23/2021 11:00:00 PM 1.26 34.268 0.209 7.3 5.83 13.05
12/23/2021 11:15:00 PM 1.2 34.16 0.209 7.3 6.35 13.05
12/23/2021 11:30:00 PM 1.2 34.16 0.209 7.3 6.19 13.05
12/23/2021 11:45:00 PM 1.23 34.214 0.209 7.29 6.39 13.03
12/24/2021 12:00:00 AM 1.25 34.25 0.209 7.28 5.81 13.02
12/24/2021 12:15:00 AM 1.27 34.286 0.209 7.29 6.24 13.02
12/24/2021 12:30:00 AM 1.28 34.304 0.209 7.3 5.96 13.02
12/24/2021 12:45:00 AM 1.29 34.322 0.209 7.29 6.33 13.02
12/24/2021 1:00:00 AM 1.3 34.34 0.212 7.29 6.3 13.01
12/24/2021 1:15:00 AM 1.31 34.358 0.213 7.29 6.31 13.01
12/24/2021 1:30:00 AM 1.32 34.376 0.215 7.29 6.26 13.01
12/24/2021 1:45:00 AM 1.35 34.43 0.217 7.29 6.35 12.99
12/24/2021 2:00:00 AM 1.36 34.448 0.216 7.29 6.1 12.98
12/24/2021 2:15:00 AM 1.38 34.484 0.215 7.28 6.5 12.97
12/24/2021 2:30:00 AM 1.39 34.502 0.213 7.28 6.14 12.97
12/24/2021 2:45:00 AM 1.4 34.52 0.212 7.28 6.08 12.96
12/24/2021 3:00:00 AM 1.41 34.538 0.212 7.28 6.03 12.96
12/24/2021 3:15:00 AM 1.42 34.556 0.211 7.28 5.94 12.96
12/24/2021 3:30:00 AM 1.43 34.574 0.211 7.28 5.94 12.96
12/24/2021 3:45:00 AM 1.43 34.574 0.211 7.27 5.95 12.95
12/24/2021 4:00:00 AM 1.44 34.592 0.21 7.28 6.08 12.94
12/24/2021 4:15:00 AM 1.46 34.628 0.202 7.28 7.92 12.94
12/24/2021 4:30:00 AM 1.47 34.646 0.21 7.28 5.82 12.94
12/24/2021 4:45:00 AM 1.49 34.682 0.21 7.28 5.91 12.93
12/24/2021 5:00:00 AM 1.51 34.718 0.21 7.27 5.98 12.92
12/24/2021 5:15:00 AM 1.53 34.754 0.21 7.29 5.69 12.92
12/24/2021 5:30:00 AM 1.55 34.79 0.21 7.28 6.13 12.91
12/24/2021 5:45:00 AM 1.57 34.826 0.21 7.28 6.03 12.9
12/24/2021 6:00:00 AM 1.59 34.862 0.21 7.29 5.76 12.9
12/24/2021 6:15:00 AM 1.6 34.88 0.21 7.29 6.26 12.89
12/24/2021 6:30:00 AM 1.61 34.898 0.21 7.29 6.11 12.89
12/24/2021 6:45:00 AM 1.61 34.898 0.21 7.29 6.27 12.88
12/24/2021 7:00:00 AM 1.61 34.898 0.21 7.28 6.17 12.88
12/24/2021 7:15:00 AM 1.62 34.916 0.21 7.29 5.95 12.87
12/24/2021 7:30:00 AM 1.62 34.916 0.21 7.28 5.98 12.87
12/24/2021 7:45:00 AM 1.63 34.934 0.21 7.27 5.84 12.88
12/24/2021 8:00:00 AM 1.63 34.934 0.21 7.28 6.13 12.9
12/24/2021 8:15:00 AM 1.63 34.934 0.21 7.29 5.77 12.94
12/24/2021 8:30:00 AM 1.63 34.934 0.21 7.29 6.1 12.98
12/24/2021 8:45:00 AM 1.63 34.934 0.21 7.31 5.62 13.01
12/24/2021 9:00:00 AM 1.65 34.97 0.21 7.32 5.96 13.06
12/24/2021 9:15:00 AM 1.71 35.078 0.21 7.32 5.92 13.13
12/24/2021 9:30:00 AM 1.78 35.204 0.21 7.33 6.03 13.18
12/24/2021 9:45:00 AM 1.84 35.312 0.21 7.33 6.14 13.21
12/24/2021 10:00:00 AM 1.93 35.474 0.209 7.34 5.91 13.24
12/24/2021 10:15:00 AM 2.04 35.672 0.209 7.34 6.14 13.27
12/24/2021 10:30:00 AM 2.14 35.852 0.209 7.35 5.79 13.28
12/24/2021 10:45:00 AM 2.25 36.05 0.209 7.36 6.19 13.28
12/24/2021 11:00:00 AM 2.36 36.248 0.209 7.36 6.03 13.29
12/24/2021 11:15:00 AM 2.48 36.464 0.209 7.36 6.1 13.28
12/24/2021 11:30:00 AM 2.59 36.662 0.209 7.36 5.82 13.28
12/24/2021 11:45:00 AM 2.68 36.824 0.209 7.36 6.05 13.28
12/24/2021 12:00:00 PM 2.75 36.95 0.209 7.37 5.8 13.27
12/24/2021 12:15:00 PM 2.82 37.076 0.209 7.37 6.04 13.27
12/24/2021 12:30:00 PM 2.92 37.256 0.209 7.38 5.97 13.27
12/24/2021 12:45:00 PM 3 37.4 0.209 7.38 5.93 13.27
12/24/2021 1:00:00 PM 3.07 37.526 0.209 7.39 5.89 13.26
12/24/2021 1:15:00 PM 3.19 37.742 0.209 7.39 5.79 13.25
12/24/2021 1:30:00 PM 3.21 37.778 0.21 7.39 5.84 13.23
12/24/2021 1:45:00 PM 3.28 37.904 0.21 7.4 5.89 13.22
12/24/2021 2:00:00 PM 3.3 37.94 0.21 7.4 6.14 13.21
12/24/2021 2:15:00 PM 3.34 38.012 0.21 7.4 5.79 13.19
12/24/2021 2:30:00 PM 3.31 37.958 0.21 7.39 5.95 13.15
12/24/2021 2:45:00 PM 3.26 37.868 0.209 7.39 6.07 13.11
12/24/2021 3:00:00 PM 3.23 37.814 0.21 7.38 5.79 13.08
12/24/2021 3:15:00 PM 3.2 37.76 0.21 7.38 6.18 13.05
12/24/2021 3:30:00 PM 3.19 37.742 0.21 7.37 5.88 13.02
12/24/2021 3:45:00 PM 3.18 37.724 0.21 7.36 5.81 12.95
12/24/2021 4:00:00 PM 3.17 37.706 0.21 7.36 5.9 12.9
12/24/2021 4:15:00 PM 3.17 37.706 0.21 7.35 6.09 12.85
12/24/2021 4:30:00 PM 3.16 37.688 0.209 7.35 5.92 12.8
12/24/2021 4:45:00 PM 3.16 37.688 0.21 7.34 5.75 12.74
12/24/2021 5:00:00 PM 3.15 37.67 0.21 7.33 5.83 12.69
12/24/2021 5:15:00 PM 3.14 37.652 0.21 7.32 5.7 12.65
12/24/2021 5:30:00 PM 3.12 37.616 0.209 7.32 6.07 12.61
12/24/2021 5:45:00 PM 3.11 37.598 0.209 7.31 5.77 12.59
12/24/2021 6:00:00 PM 3.11 37.598 0.21 7.31 5.81 12.56
12/24/2021 6:15:00 PM 3.1 37.58 0.209 7.3 6.04 12.55
12/24/2021 6:30:00 PM 3.1 37.58 0.209 7.32 6.19 12.53
12/24/2021 6:45:00 PM 3.09 37.562 0.209 7.31 6.25 12.52
12/24/2021 7:00:00 PM 3.1 37.58 0.209 7.3 5.93 12.51
12/24/2021 7:15:00 PM 3.12 37.616 0.209 7.3 6.43 12.5
12/24/2021 7:30:00 PM 3.15 37.67 0.209 7.31 6.58 12.48
12/24/2021 7:45:00 PM 3.17 37.706 0.209 7.31 6.39 12.47
12/24/2021 8:00:00 PM 3.2 37.76 0.209 7.3 6.47 12.45
12/24/2021 8:15:00 PM 3.22 37.796 0.209 7.3 6.47 12.44
12/24/2021 8:30:00 PM 3.23 37.814 0.209 7.31 6.61 12.43
12/24/2021 8:45:00 PM 3.25 37.85 0.209 7.31 6.52 12.41
12/24/2021 9:00:00 PM 3.27 37.886 0.208 7.3 6.35 12.4
12/24/2021 9:15:00 PM 3.28 37.904 0.208 7.31 6.21 12.38
12/24/2021 9:30:00 PM 3.3 37.94 0.208 7.3 6.4 12.37
12/24/2021 9:45:00 PM 3.32 37.976 0.208 7.3 6.42 12.36
12/24/2021 10:00:00 PM 3.33 37.994 0.208 7.3 6.1 12.35
12/24/2021 10:15:00 PM 3.35 38.03 0.208 7.3 6.37 12.33
12/24/2021 10:30:00 PM 3.36 38.048 0.208 7.3 6.37 12.31
12/24/2021 10:45:00 PM 3.37 38.066 0.208 7.31 6.41 12.3
12/24/2021 11:00:00 PM 3.38 38.084 0.208 7.3 6.41 12.29
12/24/2021 11:15:00 PM 3.39 38.102 0.208 7.31 6.19 12.28
12/24/2021 11:30:00 PM 3.4 38.12 0.208 7.3 6.2 12.27
12/24/2021 11:45:00 PM 3.42 38.156 0.208 7.31 6.26 12.26
12/25/2021 12:00:00 AM 3.42 38.156 0.208 7.3 6.4 12.25
12/25/2021 12:15:00 AM 3.44 38.192 0.208 7.31 6.46 12.24
12/25/2021 12:30:00 AM 3.45 38.21 0.208 7.29 6.87 12.23
12/25/2021 12:45:00 AM 3.46 38.228 0.208 7.3 6.27 12.21
12/25/2021 1:00:00 AM 3.48 38.264 0.208 7.3 6.47 12.2
12/25/2021 1:15:00 AM 3.49 38.282 0.207 7.3 6.51 12.19
12/25/2021 1:30:00 AM 3.5 38.3 0.207 7.3 6.66 12.17
12/25/2021 1:45:00 AM 3.52 38.336 0.207 7.3 6.95 12.16
12/25/2021 2:00:00 AM 3.53 38.354 0.208 7.29 6.41 12.15
12/25/2021 2:15:00 AM 3.55 38.39 0.208 7.3 6.74 12.14
12/25/2021 2:30:00 AM 3.57 38.426 0.207 7.3 6.45 12.12
12/25/2021 2:45:00 AM 3.61 38.498 0.207 7.29 6.51 12.11
12/25/2021 3:00:00 AM 3.63 38.534 0.207 7.3 6.37 12.1
12/25/2021 3:15:00 AM 3.67 38.606 0.208 7.3 6.72 12.08
12/25/2021 3:30:00 AM 3.69 38.642 0.21 7.3 6.96 12.07
12/25/2021 3:45:00 AM 3.73 38.714 0.21 7.3 6.53 12.06
12/25/2021 4:00:00 AM 3.77 38.786 0.209 7.3 6.53 12.04
12/25/2021 4:15:00 AM 3.81 38.858 0.21 7.3 6.74 12.03
12/25/2021 4:30:00 AM 3.85 38.93 0.212 7.3 6.48 12.01
12/25/2021 4:45:00 AM 3.9 39.02 0.213 7.3 6.48 12
12/25/2021 5:00:00 AM 3.96 39.128 0.212 7.31 6.65 11.98
12/25/2021 5:15:00 AM 4 39.2 0.213 7.29 6.73 11.96
12/25/2021 5:30:00 AM 4.06 39.308 0.218 7.29 7.27 11.94
12/25/2021 5:45:00 AM 4.13 39.434 0.236 7.31 8.8 11.92
12/25/2021 6:00:00 AM 4.18 39.524 0.225 7.31 8.81 11.9
12/25/2021 6:15:00 AM 4.24 39.632 0.22 7.3 8.03 11.87
12/25/2021 6:30:00 AM 4.32 39.776 0.221 7.3 9.15 11.84
12/25/2021 6:45:00 AM 4.46 40.028 0.215 7.32 13.8 11.81
12/25/2021 7:00:00 AM 4.52 40.136 0.215 7.32 12.17 11.79
12/25/2021 7:15:00 AM 4.62 40.316 0.214 7.31 14.27 11.75
12/25/2021 7:30:00 AM 4.68 40.424 0.208 7.32 13.88 11.73
12/25/2021 7:45:00 AM 4.71 40.478 0.205 7.32 14.57 11.73
12/25/2021 8:00:00 AM 4.75 40.55 0.205 7.31 14.38 11.72
12/25/2021 8:15:00 AM 4.78 40.604 0.205 7.31 13.27 11.73
12/25/2021 8:30:00 AM 4.8 40.64 0.205 7.31 12.59 11.75
12/25/2021 8:45:00 AM 4.81 40.658 0.205 7.31 11.66 11.77
12/25/2021 9:00:00 AM 4.85 40.73 0.205 7.31 11 11.79
12/25/2021 9:15:00 AM 4.88 40.784 0.205 7.32 10.58 11.82
12/25/2021 9:30:00 AM 4.95 40.91 0.206 7.33 10.37 11.87
12/25/2021 9:45:00 AM 5.01 41.018 0.207 7.33 10.18 11.9
12/25/2021 10:00:00 AM 5.11 41.198 0.209 7.33 9.77 11.9
12/25/2021 10:15:00 AM 5.21 41.378 0.211 7.35 10.11 11.87
12/25/2021 10:30:00 AM 5.32 41.576 0.211 7.34 11.64 11.79
12/25/2021 10:45:00 AM 5.45 41.81 0.209 7.36 13.04 11.75
12/25/2021 11:00:00 AM 5.61 42.098 0.209 7.35 13.33 11.69
12/25/2021 11:15:00 AM 5.72 42.296 0.206 7.36 15.17 11.69
12/25/2021 11:30:00 AM 5.76 42.368 0.203 7.36 18.92 11.64
12/25/2021 11:45:00 AM 5.81 42.458 0.205 7.36 20.95 11.65
12/25/2021 12:00:00 PM 5.82 42.476 0.206 7.35 22.06 11.64
12/25/2021 12:15:00 PM 5.78 42.404 0.208 7.36 21.92 11.64
12/25/2021 12:30:00 PM 5.76 42.368 0.21 7.35 23.51 11.63
12/25/2021 12:45:00 PM 5.79 42.422 0.215 7.36 28.3 11.61
12/25/2021 1:00:00 PM 5.84 42.512 0.214 7.37 31.93 11.57
12/25/2021 1:15:00 PM 5.88 42.584 0.21 7.35 33.47 11.55
12/25/2021 1:30:00 PM 5.9 42.62 0.206 7.37 36.51 11.56
12/25/2021 1:45:00 PM 5.94 42.692 0.206 7.36 51.66 11.53
12/25/2021 2:00:00 PM 5.93 42.674 0.206 7.36 61.36 11.52
12/25/2021 2:15:00 PM 6.06 42.908 0.201 7.35 65.46 11.47
12/25/2021 2:30:00 PM 6.11 42.998 0.199 7.35 63.49 11.45
12/25/2021 2:45:00 PM 6.15 43.07 0.193 7.36 63.1 11.45
12/25/2021 3:00:00 PM 6.08 42.944 0.189 7.36 56.56 11.49
12/25/2021 3:15:00 PM 6.02 42.836 0.185 7.34 59.64 11.52
12/25/2021 3:30:00 PM 6 42.8 0.184 7.34 49.05 11.52
12/25/2021 3:45:00 PM 6.01 42.818 0.183 7.34 56.05 11.5
12/25/2021 4:00:00 PM 6.02 42.836 0.181 7.33 60.39 11.5
12/25/2021 4:15:00 PM 6.02 42.836 0.178 7.33 63.88 11.47
12/25/2021 4:30:00 PM 6.04 42.872 0.175 7.31 60.39 11.45
12/25/2021 4:45:00 PM 6.05 42.89 0.172 7.31 60.62 11.43
12/25/2021 5:00:00 PM 6.05 42.89 0.171 7.3 64.58 11.42
12/25/2021 5:15:00 PM 6.07 42.926 0.169 7.28 76.9 11.4
12/25/2021 5:30:00 PM 6.11 42.998 0.168 7.28 66.61 11.38
12/25/2021 5:45:00 PM 6.15 43.07 0.167 7.32 66.49 11.35
12/25/2021 6:00:00 PM 6.18 43.124 0.166 7.26 84.81 11.31
12/25/2021 6:15:00 PM 6.21 43.178 0.165 7.26 82.51 11.29
12/25/2021 6:30:00 PM 6.22 43.196 0.164 7.26 109.58 11.27
12/25/2021 6:45:00 PM 6.22 43.196 0.157 7.24 835.42 11.26
12/25/2021 7:00:00 PM 6.21 43.178 0.161 7.2 112.5 11.25
12/25/2021 7:15:00 PM 6.19 43.142 0.16 7.21 96.64 11.24
12/25/2021 7:30:00 PM 6.17 43.106 0.158 7.17 99.28 11.24
12/25/2021 7:45:00 PM 6.18 43.124 0.148 7.21 109.96 11.23
12/25/2021 8:00:00 PM 6.2 43.16 0.148 7.19 103 11.22
12/25/2021 8:15:00 PM 6.21 43.178 0.156 7.2 100.34 11.2
12/25/2021 8:30:00 PM 6.23 43.214 0.148 7.2 104 11.18
12/25/2021 8:45:00 PM 6.25 43.25 0.147 7.2 107.45 11.16
12/25/2021 9:00:00 PM 6.27 43.286 0.145 7.2 112.85 11.15
12/25/2021 9:15:00 PM 6.28 43.304 0.152 7.19 112.41 11.13
12/25/2021 9:30:00 PM 6.3 43.34 0.142 7.17 116.26 11.13
12/25/2021 9:45:00 PM 6.3 43.34 0.149 7.18 116.71 11.12
12/25/2021 10:00:00 PM 6.31 43.358 0.138 7.18 114.77 11.11
12/25/2021 10:15:00 PM 6.32 43.376 0.142 7.15 118.06 11.1
12/25/2021 10:30:00 PM 6.32 43.376 0.146 7.16 115.5 11.1
12/25/2021 10:45:00 PM 6.34 43.412 0.147 7.17 104.11 11.08
12/25/2021 11:00:00 PM 6.35 43.43 0.139 7.16 108.23 11.08
12/25/2021 11:15:00 PM 6.35 43.43 0.14 7.16 100.49 11.07
12/25/2021 11:30:00 PM 6.36 43.448 0.14 7.17 102.42 11.06
12/25/2021 11:45:00 PM 6.37 43.466 0.139 7.16 103.23 11.04
12/26/2021 12:00:00 AM 6.38 43.484 0.139 7.15 100.13 11.04
12/26/2021 12:15:00 AM 6.39 43.502 0.137 7.15 104.4 11.03
12/26/2021 12:30:00 AM 6.39 43.502 0.137 7.14 100.23 11.01
12/26/2021 12:45:00 AM 6.39 43.502 0.136 7.15 99.91 11
12/26/2021 1:00:00 AM 6.39 43.502 0.134 7.14 100.38 10.99
12/26/2021 1:15:00 AM 6.39 43.502 0.133 7.13 97.43 10.99
12/26/2021 1:30:00 AM 6.38 43.484 0.132 7.13 96.2 10.98
12/26/2021 1:45:00 AM 6.39 43.502 0.131 7.15 98.72 10.97
12/26/2021 2:00:00 AM 6.38 43.484 0.13 7.11 96.95 10.96
12/26/2021 2:15:00 AM 6.38 43.484 0.13 7.12 97.86 10.96
12/26/2021 2:30:00 AM 6.38 43.484 0.129 7.12 96.91 10.95
12/26/2021 2:45:00 AM 6.37 43.466 0.128 7.12 94.71 10.95
12/26/2021 3:00:00 AM 6.35 43.43 0.127 7.09 95.72 10.95
12/26/2021 3:15:00 AM 6.35 43.43 0.126 7.08 94.59 10.95
12/26/2021 3:30:00 AM 6.33 43.394 0.125 7.08 96.19 10.94
12/26/2021 3:45:00 AM 6.33 43.394 0.124 7.09 95.24 10.94
12/26/2021 4:00:00 AM 6.33 43.394 0.123 7.09 97.82 10.94
12/26/2021 4:15:00 AM 6.31 43.358 0.122 7.08 98.37 10.94
12/26/2021 4:30:00 AM 6.3 43.34 0.121 7.06 92.43 10.94
12/26/2021 4:45:00 AM 6.29 43.322 0.121 7.05 90.33 10.94
12/26/2021 5:00:00 AM 6.27 43.286 0.119 7.06 87.06 10.94
12/26/2021 5:15:00 AM 6.26 43.268 0.119 7.06 89.5 10.94
12/26/2021 5:30:00 AM 6.26 43.268 0.118 7.06 85.58 10.94
12/26/2021 5:45:00 AM 6.25 43.25 0.117 7.05 82.83 10.95
12/26/2021 6:00:00 AM 6.24 43.232 0.117 7.05 83.03 10.94
12/26/2021 6:15:00 AM 6.23 43.214 0.117 6.96 79.42 10.95
12/26/2021 6:30:00 AM 6.22 43.196 0.116 7.04 76.65 10.95
12/26/2021 6:45:00 AM 6.21 43.178 0.116 7.04 77.89 10.95
12/26/2021 7:00:00 AM 6.19 43.142 0.116 7.03 73.03 10.95
12/26/2021 7:15:00 AM 6.17 43.106 0.117 7.04 70.23 10.96
12/26/2021 7:30:00 AM 6.15 43.07 0.115 7.02 68.01 10.96
12/26/2021 7:45:00 AM 6.14 43.052 0.116 7.01 67.84 10.97
12/26/2021 8:00:00 AM 6.12 43.016 0.116 7.04 64.6 10.97
12/26/2021 8:15:00 AM 6.1 42.98 0.116 7 66.08 10.97
12/26/2021 8:30:00 AM 6.08 42.944 0.11 7.03 62.28 10.98
12/26/2021 8:45:00 AM 6.07 42.926 0.117 7.04 59.17 10.99
12/26/2021 9:00:00 AM 6.06 42.908 0.117 7.03 57.54 11
12/26/2021 9:15:00 AM 6.05 42.89 0.118 7.05 55.11 11
12/26/2021 9:30:00 AM 6.04 42.872 0.118 7.03 56.36 11.01
12/26/2021 9:45:00 AM 6.03 42.854 0.116 7.03 59.19 11.02
12/26/2021 10:00:00 AM 6.01 42.818 0.119 7.04 50.03 11.02
12/26/2021 10:15:00 AM 6.02 42.836 0.119 7.02 49.93 11.04
12/26/2021 10:30:00 AM 6.01 42.818 0.12 7.04 47.5 11.05
12/26/2021 10:45:00 AM 5.99 42.782 0.121 7.04 48.05 11.05
12/26/2021 11:00:00 AM 6.01 42.818 0.121 7.04 45.43 11.06
12/26/2021 11:15:00 AM 6.08 42.944 0.122 7.05 43.84 11.07
12/26/2021 11:30:00 AM 6.1 42.98 0.122 7.04 43.8 11.08
12/26/2021 11:45:00 AM 6.11 42.998 0.123 7.04 42.06 11.09
12/26/2021 12:00:00 PM 6.12 43.016 0.124 7.04 41.68 11.1
12/26/2021 12:15:00 PM 6.09 42.962 0.125 7.06 40.06 11.11
12/26/2021 12:30:00 PM 6.06 42.908 0.125 7.06 39.33 11.11
12/26/2021 12:45:00 PM 6.04 42.872 0.127 7.06 39.57 11.12
12/26/2021 1:00:00 PM 6.08 42.944 0.127 7.07 37.72 11.14
12/26/2021 1:15:00 PM 6.08 42.944 0.128 7.09 36.76 11.14
12/26/2021 1:30:00 PM 6.1 42.98 0.128 7.1 39.91 11.16
12/26/2021 1:45:00 PM 6.1 42.98 0.129 7.1 35.33 11.17
12/26/2021 2:00:00 PM 6.11 42.998 0.129 7.09 33.87 11.18
12/26/2021 2:15:00 PM 6.07 42.926 0.131 7.1 34.25 11.19
12/26/2021 2:30:00 PM 6.05 42.89 0.131 7.09 33.98 11.2
12/26/2021 2:45:00 PM 6.03 42.854 0.131 7.09 32.65 11.21
12/26/2021 3:00:00 PM 6.05 42.89 0.132 7.09 31.18 11.22
12/26/2021 3:15:00 PM 6.02 42.836 0.132 7.09 30.43 11.24
12/26/2021 3:30:00 PM 6.01 42.818 0.133 7.08 29.52 11.25
12/26/2021 3:45:00 PM 5.98 42.764 0.133 7.09 30.25 11.25
12/26/2021 4:00:00 PM 5.94 42.692 0.134 7.09 28.98 11.26
12/26/2021 4:15:00 PM 5.91 42.638 0.135 7.1 28.85 11.27
12/26/2021 4:30:00 PM 5.88 42.584 0.135 7.09 28.62 11.28
12/26/2021 4:45:00 PM 5.85 42.53 0.136 7.09 28.59 11.28
12/26/2021 5:00:00 PM 5.83 42.494 0.137 7.1 27.82 11.29
12/26/2021 5:15:00 PM 5.8 42.44 0.137 7.09 26.74 11.3
12/26/2021 5:30:00 PM 5.77 42.386 0.137 7.1 25.6 11.3
12/26/2021 5:45:00 PM 5.74 42.332 0.138 7.09 26 11.3
12/26/2021 6:00:00 PM 5.71 42.278 0.138 7.11 25.16 11.31
12/26/2021 6:15:00 PM 5.68 42.224 0.139 7.1 24.67 11.33
12/26/2021 6:30:00 PM 5.65 42.17 0.139 7.11 25.17 11.34
12/26/2021 6:45:00 PM 5.63 42.134 0.139 7.1 24.35 11.35
12/26/2021 7:00:00 PM 5.59 42.062 0.141 7.12 23.13 11.37
12/26/2021 7:15:00 PM 5.56 42.008 0.14 7.12 23.04 11.38
12/26/2021 7:30:00 PM 5.53 41.954 0.141 7.11 23.43 11.39
12/26/2021 7:45:00 PM 5.51 41.918 0.141 7.12 22.78 11.41
12/26/2021 8:00:00 PM 5.48 41.864 0.141 7.11 23.68 11.42
12/26/2021 8:15:00 PM 5.44 41.792 0.142 7.13 21.46 11.43
12/26/2021 8:30:00 PM 5.41 41.738 0.142 7.12 21.38 11.45
12/26/2021 8:45:00 PM 5.38 41.684 0.142 7.13 22.15 11.45
12/26/2021 9:00:00 PM 5.35 41.63 0.142 7.12 20.69 11.46
12/26/2021 9:15:00 PM 5.33 41.594 0.143 7.12 20.84 11.48
12/26/2021 9:30:00 PM 5.3 41.54 0.143 7.12 21.33 11.49
12/26/2021 9:45:00 PM 5.27 41.486 0.144 7.13 20.27 11.5
12/26/2021 10:00:00 PM 5.24 41.432 0.144 7.12 20.22 11.51
12/26/2021 10:15:00 PM 5.21 41.378 0.144 7.12 17.23 11.51
12/26/2021 10:30:00 PM 5.17 41.306 0.144 7.13 20.1 11.53
12/26/2021 10:45:00 PM 5.14 41.252 0.145 7.13 18.99 11.54
12/26/2021 11:00:00 PM 5.11 41.198 0.153 7.14 21.9 11.55
12/26/2021 11:15:00 PM 5.08 41.144 0.145 7.13 19.98 11.56
12/26/2021 11:30:00 PM 5.05 41.09 0.146 7.15 19.27 11.57
12/26/2021 11:45:00 PM 5.03 41.054 0.146 7.14 17.66 11.58
12/27/2021 12:00:00 AM 5 41 0.146 7.15 18.18 11.59
12/27/2021 12:15:00 AM 4.97 40.946 0.147 7.15 18.61 11.6
12/27/2021 12:30:00 AM 4.95 40.91 0.154 7.15 17.98 11.61
12/27/2021 12:45:00 AM 4.92 40.856 0.146 7.15 17.07 11.61
12/27/2021 1:00:00 AM 4.9 40.82 0.147 7.15 18.79 11.62
12/27/2021 1:15:00 AM 4.87 40.766 0.147 7.15 17.66 11.63
12/27/2021 1:30:00 AM 4.85 40.73 0.155 7.14 17.11 11.64
12/27/2021 1:45:00 AM 4.83 40.694 0.148 7.16 16.94 11.65
12/27/2021 2:00:00 AM 4.82 40.676 0.147 7.15 16.54 11.66
12/27/2021 2:15:00 AM 4.8 40.64 0.148 7.15 16.98 11.66
12/27/2021 2:30:00 AM 4.78 40.604 0.148 7.16 16.72 11.67
12/27/2021 2:45:00 AM 4.76 40.568 0.148 7.15 15.88 11.68
12/27/2021 3:00:00 AM 4.73 40.514 0.148 7.16 16.17 11.69
12/27/2021 3:15:00 AM 4.71 40.478 0.149 7.16 16.26 11.7
12/27/2021 3:30:00 AM 4.7 40.46 0.157 7.17 16.2 11.7
12/27/2021 3:45:00 AM 4.69 40.442 0.149 7.15 16.15 11.71
12/27/2021 4:00:00 AM 4.67 40.406 0.158 7.16 15.39 11.72
12/27/2021 4:15:00 AM 4.66 40.388 0.158 7.16 16.87 11.72
12/27/2021 4:30:00 AM 4.65 40.37 0.15 7.16 18.03 11.73
12/27/2021 4:45:00 AM 4.63 40.334 0.15 7.16 15.41 11.74
12/27/2021 5:00:00 AM 4.61 40.298 0.15 7.16 14.65 11.74
12/27/2021 5:15:00 AM 4.6 40.28 0.15 7.16 14.02 11.75
12/27/2021 5:30:00 AM 4.59 40.262 0.158 7.16 15.12 11.75
12/27/2021 5:45:00 AM 4.57 40.226 0.15 7.16 15.73 11.75
12/27/2021 6:00:00 AM 4.56 40.208 0.159 7.15 14.83 11.76
12/27/2021 6:15:00 AM 4.54 40.172 0.151 7.15 15.44 11.76
12/27/2021 6:30:00 AM 4.52 40.136 0.151 7.16 13.72 11.77
12/27/2021 6:45:00 AM 4.5 40.1 0.151 7.16 15.35 11.77
12/27/2021 7:00:00 AM 4.48 40.064 0.16 7.16 14.78 11.77
12/27/2021 7:15:00 AM 4.47 40.046 0.151 7.16 15.21 11.78
12/27/2021 7:30:00 AM 4.46 40.028 0.152 7.17 14.28 11.79
12/27/2021 7:45:00 AM 4.44 39.992 0.16 7.17 14.59 11.79
12/27/2021 8:00:00 AM 4.43 39.974 0.161 7.17 16.63 11.79
12/27/2021 8:15:00 AM 4.38 39.884 0.161 7.17 14.83 11.8
12/27/2021 8:30:00 AM 4.24 39.632 0.161 7.16 14.36 11.81
12/27/2021 8:45:00 AM 3.92 39.056 0.161 7.17 13.65 11.83
12/27/2021 9:00:00 AM 3.61 38.498 0.152 7.18 14.71 11.87
12/27/2021 9:15:00 AM 3.46 38.228 0.152 7.18 14.58 11.9
12/27/2021 9:30:00 AM 3.4 38.12 0.152 7.18 14.04 11.92
12/27/2021 9:45:00 AM 3.35 38.03 0.152 7.18 13.53 11.96
12/27/2021 10:00:00 AM 3.32 37.976 0.152 7.18 14.42 12
12/27/2021 10:15:00 AM 3.32 37.976 0.152 7.19 14.43 12.02
12/27/2021 10:30:00 AM 3.36 38.048 0.152 7.18 13.21 12.05
12/27/2021 10:45:00 AM 3.4 38.12 0.152 7.19 13.8 12.06
12/27/2021 11:00:00 AM 3.41 38.138 0.152 7.19 13.78 12.08
12/27/2021 11:15:00 AM 3.4 38.12 0.153 7.2 12.99 12.1
12/27/2021 11:30:00 AM 3.39 38.102 0.161 7.19 13.5 12.12
12/27/2021 11:45:00 AM 3.38 38.084 0.153 7.19 13.64 12.13
12/27/2021 12:00:00 PM 3.38 38.084 0.153 7.19 13.88 12.15
12/27/2021 12:15:00 PM 3.38 38.084 0.153 7.19 13.69 12.15
12/27/2021 12:30:00 PM 3.38 38.084 0.163 7.19 13.64 12.15
12/27/2021 12:45:00 PM 3.39 38.102 0.155 7.19 13.61 12.16
12/27/2021 1:00:00 PM 3.4 38.12 0.164 7.2 13.56 12.16
12/27/2021 1:15:00 PM 3.42 38.156 0.167 7.2 14.29 12.17
12/27/2021 1:30:00 PM 3.43 38.174 0.17 7.2 13.92 12.18
12/27/2021 1:45:00 PM 3.44 38.192 0.169 7.2 13.64 12.17
12/27/2021 2:00:00 PM 3.45 38.21 0.17 7.19 13.31 12.18
12/27/2021 2:15:00 PM 3.45 38.21 0.169 7.2 13.27 12.19
12/27/2021 2:30:00 PM 3.44 38.192 0.172 7.2 13.68 12.19
12/27/2021 2:45:00 PM 3.42 38.156 0.173 7.2 13.28 12.2
12/27/2021 3:00:00 PM 3.4 38.12 0.173 7.21 13.16 12.2
12/27/2021 3:15:00 PM 3.38 38.084 0.173 7.2 13.23 12.21
12/27/2021 3:30:00 PM 3.35 38.03 0.173 7.21 13.29 12.21
12/27/2021 3:45:00 PM 3.32 37.976 0.173 7.21 12.78 12.22
12/27/2021 4:00:00 PM 3.3 37.94 0.175 7.2 13.24 12.23
12/27/2021 4:15:00 PM 3.28 37.904 0.194 7.21 15.02 12.23
12/27/2021 4:30:00 PM 3.27 37.886 0.19 7.21 14.45 12.23
12/27/2021 4:45:00 PM 3.27 37.886 0.187 7.21 13.68 12.23
12/27/2021 5:00:00 PM 3.24 37.832 0.183 7.21 13.5 12.24
12/27/2021 5:15:00 PM 3.19 37.742 0.211 7.23 22.52 12.27
12/27/2021 5:30:00 PM 3.22 37.796 0.207 7.23 17.79 12.25
12/27/2021 5:45:00 PM 3.23 37.814 0.203 7.23 16.48 12.24
12/27/2021 6:00:00 PM 3.24 37.832 0.201 7.22 16 12.24
12/27/2021 6:15:00 PM 3.25 37.85 0.196 7.22 13.79 12.23
12/27/2021 6:30:00 PM 3.26 37.868 0.188 7.21 13.9 12.23
12/27/2021 6:45:00 PM 3.26 37.868 0.187 7.22 13.8 12.23
12/27/2021 7:00:00 PM 3.27 37.886 0.185 7.22 14.31 12.23
12/27/2021 7:15:00 PM 3.27 37.886 0.184 7.2 13.46 12.23
12/27/2021 7:30:00 PM 3.27 37.886 0.185 7.21 14.07 12.24
12/27/2021 7:45:00 PM 3.28 37.904 0.184 7.21 14.49 12.23
12/27/2021 8:00:00 PM 3.28 37.904 0.183 7.2 14.75 12.22
12/27/2021 8:15:00 PM 3.29 37.922 0.179 7.2 3551.98 12.22
12/27/2021 8:30:00 PM 3.3 37.94 0.177 7.19 13.09 12.22
12/27/2021 8:45:00 PM 3.3 37.94 0.175 7.2 13.82 12.22
12/27/2021 9:00:00 PM 3.29 37.922 0.176 7.2 13.73 12.23
12/27/2021 9:15:00 PM 3.29 37.922 0.176 7.2 13.48 12.23
12/27/2021 9:30:00 PM 3.29 37.922 0.176 7.19 14.67 12.22
12/27/2021 9:45:00 PM 3.28 37.904 0.175 7.2 14.54 12.23
12/27/2021 10:00:00 PM 3.28 37.904 0.174 7.19 13.87 12.23
12/27/2021 10:15:00 PM 3.28 37.904 0.173 7.2 13.3 12.23
12/27/2021 10:30:00 PM 3.27 37.886 0.173 7.19 13.86 12.24
12/27/2021 10:45:00 PM 3.27 37.886 0.173 7.19 13.46 12.24
12/27/2021 11:00:00 PM 3.27 37.886 0.174 7.2 14.52 12.25
12/27/2021 11:15:00 PM 3.27 37.886 0.174 7.2 14.17 12.25
12/27/2021 11:30:00 PM 3.27 37.886 0.175 7.2 14.24 12.25
12/27/2021 11:45:00 PM 3.27 37.886 0.174 7.19 14.49 12.26
12/28/2021 12:00:00 AM 3.27 37.886 0.174 7.19 14.42 12.26
12/28/2021 12:15:00 AM 3.28 37.904 0.174 7.19 14.76 12.26
12/28/2021 12:30:00 AM 3.3 37.94 0.174 7.2 20.63 12.26
12/28/2021 12:45:00 AM 3.3 37.94 0.175 7.2 15.64 12.26
12/28/2021 1:00:00 AM 3.31 37.958 0.176 7.2 14.03 12.26
12/28/2021 1:15:00 AM 3.32 37.976 0.176 7.19 14.73 12.26
12/28/2021 1:30:00 AM 3.35 38.03 0.177 7.2 14.25 12.25
12/28/2021 1:45:00 AM 3.37 38.066 0.177 7.19 14.84 12.25
12/28/2021 2:00:00 AM 3.37 38.066 0.178 7.19 14.31 12.25
12/28/2021 2:15:00 AM 3.37 38.066 0.178 7.18 14.92 12.25
12/28/2021 2:30:00 AM 3.36 38.048 0.18 7.18 15.3 12.25
12/28/2021 2:45:00 AM 3.35 38.03 0.18 7.18 17.12 12.25
12/28/2021 3:00:00 AM 3.34 38.012 0.181 7.18 15.36 12.25
12/28/2021 3:15:00 AM 3.34 38.012 0.181 7.19 16.42 12.26
12/28/2021 3:30:00 AM 3.34 38.012 0.181 7.18 16.45 12.26
12/28/2021 3:45:00 AM 3.34 38.012 0.18 7.17 17.53 12.26
12/28/2021 4:00:00 AM 3.34 38.012 0.177 7.17 17.7 12.26
12/28/2021 4:15:00 AM 3.34 38.012 0.175 7.17 21.35 12.26
12/28/2021 4:30:00 AM 3.33 37.994 0.173 7.2 18.22 12.27
12/28/2021 4:45:00 AM 3.32 37.976 0.163 7.18 20.45 12.27
12/28/2021 5:00:00 AM 3.3 37.94 0.169 7.2 20.87 12.27
12/28/2021 5:15:00 AM 3.29 37.922 0.168 7.23 22.44 12.27
12/28/2021 5:30:00 AM 3.27 37.886 0.168 7.22 21.62 12.27
12/28/2021 5:45:00 AM 3.25 37.85 0.157 7.21 22.69 12.27
12/28/2021 6:00:00 AM 3.24 37.832 0.157 7.18 22.89 12.27
12/28/2021 6:15:00 AM 3.22 37.796 0.156 7.17 23.96 12.27
12/28/2021 6:30:00 AM 3.22 37.796 0.156 7.17 23.96 12.27
12/28/2021 6:45:00 AM 3.21 37.778 0.155 7.17 24.77 12.27
12/28/2021 7:00:00 AM 3.2 37.76 0.155 7.16 24.13 12.27
12/28/2021 7:15:00 AM 3.2 37.76 0.154 7.18 25.7 12.26
12/28/2021 7:30:00 AM 3.2 37.76 0.154 7.17 26.91 12.26
12/28/2021 7:45:00 AM 3.2 37.76 0.153 7.16 27.64 12.25
12/28/2021 8:00:00 AM 3.21 37.778 0.153 7.17 27.19 12.25
12/28/2021 8:15:00 AM 3.21 37.778 0.153 7.16 27.3 12.25
12/28/2021 8:30:00 AM 3.22 37.796 0.152 7.16 27.51 12.25
12/28/2021 8:45:00 AM 3.23 37.814 0.151 7.16 27.57 12.25
12/28/2021 9:00:00 AM 3.25 37.85 0.151 7.16 27.45 12.25
12/28/2021 9:15:00 AM 3.28 37.904 0.151 7.17 26.79 12.25
12/28/2021 9:30:00 AM 3.31 37.958 0.15 7.18 27.64 12.25
12/28/2021 9:45:00 AM 3.35 38.03 0.15 7.17 26.5 12.25
12/28/2021 10:00:00 AM 3.38 38.084 0.15 7.18 27.01 12.25
12/28/2021 10:15:00 AM 3.42 38.156 0.143 7.15 27.91 12.24
12/28/2021 10:30:00 AM 3.45 38.21 0.151 7.2 28.4 12.25
12/28/2021 10:45:00 AM 3.49 38.282 0.151 7.18 26.49 12.24
12/28/2021 11:00:00 AM 3.51 38.318 0.152 7.18 26.11 12.24
12/28/2021 11:15:00 AM 3.55 38.39 0.152 7.21 27.06 12.23
12/28/2021 11:30:00 AM 3.57 38.426 0.153 7.19 26.45 12.23
12/28/2021 11:45:00 AM 3.58 38.444 0.152 7.19 26.21 12.22
12/28/2021 12:00:00 PM 3.6 38.48 0.152 7.21 25.85 12.21
12/28/2021 12:15:00 PM 3.62 38.516 0.152 7.21 25.79 12.2
12/28/2021 12:30:00 PM 3.64 38.552 0.151 7.18 26.01 12.19
12/28/2021 12:45:00 PM 3.66 38.588 0.15 7.18 25.85 12.18
12/28/2021 1:00:00 PM 3.68 38.624 0.15 7.18 27.42 12.18
12/28/2021 1:15:00 PM 3.69 38.642 0.149 7.18 26.31 12.17
12/28/2021 1:30:00 PM 3.71 38.678 0.149 7.18 26.14 12.16
12/28/2021 1:45:00 PM 3.73 38.714 0.149 7.18 25.49 12.14
12/28/2021 2:00:00 PM 3.76 38.768 0.149 7.18 25.19 12.14
12/28/2021 2:15:00 PM 3.78 38.804 0.148 7.18 26.57 12.13
12/28/2021 2:30:00 PM 3.79 38.822 0.148 7.16 25.08 12.12
12/28/2021 2:45:00 PM 3.81 38.858 0.148 7.17 24.94 12.11
12/28/2021 3:00:00 PM 3.83 38.894 0.148 7.17 24.83 12.11
12/28/2021 3:15:00 PM 3.85 38.93 0.148 7.17 24.36 12.1
12/28/2021 3:30:00 PM 3.85 38.93 0.148 7.16 24.06 12.09
12/28/2021 3:45:00 PM 3.87 38.966 0.148 7.16 20.39 12.08
12/28/2021 4:00:00 PM 3.88 38.984 0.148 7.17 23.1 12.07
12/28/2021 4:15:00 PM 3.89 39.002 0.148 7.17 23.47 12.07
12/28/2021 4:30:00 PM 3.9 39.02 0.148 7.17 23.93 12.05
12/28/2021 4:45:00 PM 3.91 39.038 0.148 7.17 22.06 12.04
12/28/2021 5:00:00 PM 3.92 39.056 0.149 7.17 22.02 12.03
12/28/2021 5:15:00 PM 3.93 39.074 0.148 7.15 21.35 12.02
12/28/2021 5:30:00 PM 3.94 39.092 0.148 7.16 21.68 12.01
12/28/2021 5:45:00 PM 3.95 39.11 0.149 7.16 19.53 12.01
12/28/2021 6:00:00 PM 3.96 39.128 0.149 7.16 20.72 12
12/28/2021 6:15:00 PM 3.97 39.146 0.149 7.15 19.49 12
12/28/2021 6:30:00 PM 3.98 39.164 0.149 7.16 19.93 11.98
12/28/2021 6:45:00 PM 4 39.2 0.15 7.16 19.66 11.98
12/28/2021 7:00:00 PM 4.01 39.218 0.15 7.15 20.54 11.97
12/28/2021 7:15:00 PM 4.02 39.236 0.15 7.15 18.58 11.96
12/28/2021 7:30:00 PM 4.04 39.272 0.15 7.15 19.92 11.96
12/28/2021 7:45:00 PM 4.05 39.29 0.15 7.15 20 11.95
12/28/2021 8:00:00 PM 4.07 39.326 0.151 7.15 18 11.94
12/28/2021 8:15:00 PM 4.07 39.326 0.151 7.15 19.87 11.94
12/28/2021 8:30:00 PM 4.08 39.344 0.152 7.16 18.78 11.93
12/28/2021 8:45:00 PM 4.07 39.326 0.161 7.15 22.67 11.94
12/28/2021 9:00:00 PM 4.08 39.344 0.153 7.16 22.06 11.94
12/28/2021 9:15:00 PM 4.08 39.344 0.151 7.17 23.2 11.94
12/28/2021 9:30:00 PM 4.08 39.344 0.15 7.16 23.24 11.94
12/28/2021 9:45:00 PM 4.09 39.362 0.149 7.16 22.56 11.94
12/28/2021 10:00:00 PM 4.11 39.398 0.15 7.17 23.69 11.94
12/28/2021 10:15:00 PM 4.12 39.416 0.15 7.14 23.01 11.95
12/28/2021 10:30:00 PM 4.12 39.416 0.15 7.18 23.9 11.96
12/28/2021 10:45:00 PM 4.1 39.38 0.149 7.19 27.04 11.99
12/28/2021 11:00:00 PM 4.08 39.344 0.149 7.19 36.71 12.01
12/28/2021 11:15:00 PM 4.01 39.218 0.146 7.19 54.2 12.05
12/28/2021 11:30:00 PM 3.93 39.074 0.144 7.17 540.06 12.09
12/28/2021 11:45:00 PM 3.87 38.966 0.141 7.2 136.13 12.11
12/29/2021 12:00:00 AM 3.85 38.93 0.139 7.19 167.95 12.12
12/29/2021 12:15:00 AM 3.79 38.822 0.136 7.14 215.3 12.15
12/29/2021 12:30:00 AM 3.72 38.696 0.134 7.1 275.22 12.19
12/29/2021 12:45:00 AM 3.66 38.588 0.078 7.15 333.06 12.21
12/29/2021 1:00:00 AM 3.64 38.552 0.129 7.12 319.17 12.21
12/29/2021 1:15:00 AM 3.66 38.588 0.125 7.1 271.02 12.2
12/29/2021 1:30:00 AM 3.69 38.642 0.12 7.04 631.91 12.18
12/29/2021 1:45:00 AM 3.74 38.732 0.124 7.05 248.81 12.15
12/29/2021 2:00:00 AM 3.79 38.822 0.121 6.97 29025.78 12.13
12/29/2021 2:15:00 AM 3.84 38.912 0.116 7.08 660.17 12.11
12/29/2021 2:30:00 AM 3.87 38.966 0.108 7 1476.46 12.09
12/29/2021 2:45:00 AM 3.89 39.002 0.108 7.03 582.75 12.07
12/29/2021 3:00:00 AM 3.9 39.02 0.107 7.01 1400.53 12.04
12/29/2021 3:15:00 AM 3.89 39.002 0.104 7 283.42 12.02
12/29/2021 3:30:00 AM 3.85 38.93 0.103 6.99 206.91 12.01
12/29/2021 3:45:00 AM 3.79 38.822 0.1 6.97 398.59 12.02
12/29/2021 4:00:00 AM 3.72 38.696 0.097 6.98 198.82 12.02
12/29/2021 4:15:00 AM 3.68 38.624 0.102 6.98 262.82 12.02
12/29/2021 4:30:00 AM 3.65 38.57 0.102 6.96 196.77 12.02
12/29/2021 4:45:00 AM 3.64 38.552 0.105 6.96 536.31 12.01
12/29/2021 5:00:00 AM 3.65 38.57 0.102 6.97 186.17 12.01
12/29/2021 5:15:00 AM 3.66 38.588 0.103 6.97 186.2 12
12/29/2021 5:30:00 AM 3.67 38.606 0.105 6.96 176.33 12
12/29/2021 5:45:00 AM 3.68 38.624 0.105 6.92 162.39 11.98
12/29/2021 6:00:00 AM 3.71 38.678 0.106 6.97 1364.46 11.97
12/29/2021 6:15:00 AM 3.73 38.714 0.107 6.97 237.61 11.96
12/29/2021 6:30:00 AM 3.75 38.75 0.109 6.94 174.31 11.95
12/29/2021 6:45:00 AM 3.77 38.786 0.102 6.94 180.06 11.94
12/29/2021 7:00:00 AM 3.79 38.822 0.111 6.95 140.39 11.94
12/29/2021 7:15:00 AM 3.81 38.858 0.111 6.95 80 11.93
12/29/2021 7:30:00 AM 3.83 38.894 0.11 6.94 147.76 11.93
12/29/2021 7:45:00 AM 3.85 38.93 0.11 6.97 124.7 11.92
12/29/2021 8:00:00 AM 3.86 38.948 0.108 6.93 149.12 11.91
12/29/2021 8:15:00 AM 3.86 38.948 0.108 6.95 155.68 11.9
12/29/2021 8:30:00 AM 3.88 38.984 0.093 6.93 127.86 11.89
12/29/2021 8:45:00 AM 3.89 39.002 0.1 6.93 152.16 11.88
12/29/2021 9:00:00 AM 3.9 39.02 0.109 6.91 127.74 11.86
12/29/2021 9:15:00 AM 3.91 39.038 0.106 6.92 133.77 11.86
12/29/2021 9:30:00 AM 3.91 39.038 0.108 6.9 121.73 11.85
12/29/2021 9:45:00 AM 3.93 39.074 0.108 6.89 130.13 11.84
12/29/2021 10:00:00 AM 3.94 39.092 0.106 6.88 131.51 11.83
12/29/2021 10:15:00 AM 3.96 39.128 0.107 6.88 127.71 11.82
12/29/2021 10:30:00 AM 3.97 39.146 0.103 6.88 131.33 11.82
12/29/2021 10:45:00 AM 3.99 39.182 0.102 6.83 333.65 11.82
12/29/2021 11:00:00 AM 4.01 39.218 0.099 6.86 134.46 11.82
12/29/2021 11:15:00 AM 4.02 39.236 0.104 6.85 134.08 11.82
12/29/2021 11:30:00 AM 4.03 39.254 0.103 6.84 154.54 11.81
12/29/2021 11:45:00 AM 4.03 39.254 0.098 6.83 134.59 11.81
12/29/2021 12:00:00 PM 4.05 39.29 0.072 6.86 147.75 11.82
12/29/2021 12:15:00 PM 4.05 39.29 0.102 6.85 131.67 11.82
12/29/2021 12:30:00 PM 4.06 39.308 0.101 6.86 129.7 11.83
12/29/2021 12:45:00 PM 4.06 39.308 0.1 6.83 125.28 11.83
12/29/2021 1:00:00 PM 4.07 39.326 0.099 6.85 124.48 11.83
12/29/2021 1:15:00 PM 4.08 39.344 0.099 6.84 121.18 11.82
12/29/2021 1:30:00 PM 4.09 39.362 0.098 6.85 118.8 11.82
12/29/2021 1:45:00 PM 4.11 39.398 0.097 6.82 113.88 11.81
12/29/2021 2:00:00 PM 4.15 39.47 0.097 6.83 107.65 11.81
12/29/2021 2:15:00 PM 4.18 39.524 0.097 6.81 104.82 11.8
12/29/2021 2:30:00 PM 4.22 39.596 0.097 6.82 101.56 11.79
12/29/2021 2:45:00 PM 4.26 39.668 0.097 6.82 92.45 11.78
12/29/2021 3:00:00 PM 4.32 39.776 0.097 6.81 112.91 11.77
12/29/2021 3:15:00 PM 4.36 39.848 0.097 6.83 88.34 11.76
12/29/2021 3:30:00 PM 4.41 39.938 0.098 6.84 84.83 11.75
12/29/2021 3:45:00 PM 4.46 40.028 0.098 6.82 82.8 11.73
12/29/2021 4:00:00 PM 4.5 40.1 0.097 6.82 80.05 11.72
12/29/2021 4:15:00 PM 4.55 40.19 0.098 6.82 76.82 11.69
12/29/2021 4:30:00 PM 4.6 40.28 0.099 6.82 74.37 11.68
12/29/2021 4:45:00 PM 4.65 40.37 0.099 6.84 72.68 11.67
12/29/2021 5:00:00 PM 4.69 40.442 0.1 6.84 74.14 11.64
12/29/2021 5:15:00 PM 4.74 40.532 0.1 6.83 72.76 11.62
12/29/2021 5:30:00 PM 4.79 40.622 0.101 6.83 65.88 11.61
12/29/2021 5:45:00 PM 4.83 40.694 0.101 6.85 65.41 11.59
12/29/2021 6:00:00 PM 4.87 40.766 0.102 6.85 62.18 11.58
12/29/2021 6:15:00 PM 4.92 40.856 0.103 6.86 61.25 11.56
12/29/2021 6:30:00 PM 4.96 40.928 0.103 6.85 53.77 11.55
12/29/2021 6:45:00 PM 5 41 0.104 6.87 57.79 11.53
12/29/2021 7:00:00 PM 5.05 41.09 0.105 6.87 54.78 11.52
12/29/2021 7:15:00 PM 5.09 41.162 0.105 6.88 50.29 11.5
12/29/2021 7:30:00 PM 5.13 41.234 0.106 6.87 49.58 11.49
12/29/2021 7:45:00 PM 5.18 41.324 0.106 6.87 49.63 11.47
12/29/2021 8:00:00 PM 5.22 41.396 0.107 6.86 47.89 11.45
12/29/2021 8:15:00 PM 5.26 41.468 0.107 6.87 49.1 11.44
12/29/2021 8:30:00 PM 5.31 41.558 0.108 6.88 45.14 11.42
12/29/2021 8:45:00 PM 5.35 41.63 0.108 6.85 49.41 11.4
12/29/2021 9:00:00 PM 5.39 41.702 0.11 6.88 49.47 11.39
12/29/2021 9:15:00 PM 5.43 41.774 0.11 6.89 47.08 11.38
12/29/2021 9:30:00 PM 5.47 41.846 0.111 6.9 49.83 11.36
12/29/2021 9:45:00 PM 5.5 41.9 0.111 6.89 46.9 11.35
12/29/2021 10:00:00 PM 5.54 41.972 0.112 6.9 46.91 11.34
12/29/2021 10:15:00 PM 5.57 42.026 0.112 6.88 46.09 11.33
12/29/2021 10:30:00 PM 5.61 42.098 0.113 6.9 36.88 11.32
12/29/2021 10:45:00 PM 5.64 42.152 0.114 6.88 44.24 11.3
12/29/2021 11:00:00 PM 5.67 42.206 0.102 6.9 52.43 11.3
12/29/2021 11:15:00 PM 5.71 42.278 0.114 6.92 36.81 11.28
12/29/2021 11:30:00 PM 5.74 42.332 0.116 6.89 35.69 11.26
12/29/2021 11:45:00 PM 5.77 42.386 0.115 6.93 41.6 11.25
12/30/2021 12:00:00 AM 5.8 42.44 0.116 6.92 35.37 11.25
12/30/2021 12:15:00 AM 5.83 42.494 0.117 6.91 33.73 11.24
12/30/2021 12:30:00 AM 5.86 42.548 0.117 6.92 33.61 11.23
12/30/2021 12:45:00 AM 5.89 42.602 0.117 6.9 32.04 11.22
12/30/2021 1:00:00 AM 5.91 42.638 0.118 6.89 31.79 11.21
12/30/2021 1:15:00 AM 5.94 42.692 0.118 6.93 31.52 11.21
12/30/2021 1:30:00 AM 5.97 42.746 0.118 6.93 33.42 11.19
12/30/2021 1:45:00 AM 5.99 42.782 0.12 6.92 26.76 11.19
12/30/2021 2:00:00 AM 6.02 42.836 0.119 6.91 34.11 11.19
12/30/2021 2:15:00 AM 6.04 42.872 0.12 6.9 29.7 11.18
12/30/2021 2:30:00 AM 6.06 42.908 0.119 6.91 29.73 11.17
12/30/2021 2:45:00 AM 6.08 42.944 0.121 6.91 30.92 11.16
12/30/2021 3:00:00 AM 6.1 42.98 0.121 6.88 30.24 11.16
12/30/2021 3:15:00 AM 6.11 42.998 0.122 6.89 34.24 11.15
12/30/2021 3:30:00 AM 6.13 43.034 0.122 6.9 30.28 11.14
12/30/2021 3:45:00 AM 6.15 43.07 0.122 6.91 30.77 11.13
12/30/2021 4:00:00 AM 6.16 43.088 0.122 6.87 31.32 11.13
12/30/2021 4:15:00 AM 6.18 43.124 0.124 6.92 30.75 11.13
12/30/2021 4:30:00 AM 6.19 43.142 0.123 6.92 30.29 11.12
12/30/2021 4:45:00 AM 6.2 43.16 0.124 6.91 28.28 11.12
12/30/2021 5:00:00 AM 6.21 43.178 0.124 6.92 30.03 11.12
12/30/2021 5:15:00 AM 6.22 43.196 0.124 6.9 28.15 11.11
12/30/2021 5:30:00 AM 6.22 43.196 0.125 6.93 28.05 11.11
12/30/2021 5:45:00 AM 6.23 43.214 0.125 6.91 29.91 11.11
12/30/2021 6:00:00 AM 6.24 43.232 0.125 6.93 27.55 11.11
12/30/2021 6:15:00 AM 6.25 43.25 0.125 6.94 26.88 11.11
12/30/2021 6:30:00 AM 6.25 43.25 0.125 6.92 28.52 11.11
12/30/2021 6:45:00 AM 6.26 43.268 0.126 6.92 28.52 11.11
12/30/2021 7:00:00 AM 6.27 43.286 0.126 6.92 26.83 11.11
12/30/2021 7:15:00 AM 6.28 43.304 0.126 6.91 26.74 11.11
12/30/2021 7:30:00 AM 6.29 43.322 0.127 6.95 25.43 11.11
12/30/2021 7:45:00 AM 6.29 43.322 0.127 6.92 25.49 11.11
12/30/2021 8:00:00 AM 6.3 43.34 0.102 6.91 29.24 11.11
12/30/2021 8:15:00 AM 6.31 43.358 0.127 6.91 30.96 11.11
12/30/2021 8:30:00 AM 6.32 43.376 0.125 6.94 28.43 11.11
12/30/2021 8:45:00 AM 6.32 43.376 0.128 6.79 27.59 11.11
12/30/2021 9:00:00 AM 6.33 43.394 0.129 6.94 29.52 11.11
12/30/2021 9:15:00 AM 6.35 43.43 0.128 6.93 31.6 11.11
12/30/2021 9:30:00 AM 6.36 43.448 0.128 6.95 29.54 11.11
12/30/2021 9:45:00 AM 6.37 43.466 0.129 6.95 26.02 11.11
12/30/2021 10:00:00 AM 6.38 43.484 0.129 6.93 29.56 11.11
12/30/2021 10:15:00 AM 6.4 43.52 0.13 6.94 23.64 11.11
12/30/2021 10:30:00 AM 6.42 43.556 0.13 6.94 23.5 11.11
12/30/2021 10:45:00 AM 6.46 43.628 0.13 6.94 23.81 11.11
12/30/2021 11:00:00 AM 6.49 43.682 0.13 6.95 22.46 11.11
12/30/2021 11:15:00 AM 6.52 43.736 0.13 6.94 22.98 11.11
12/30/2021 11:30:00 AM 6.54 43.772 0.131 6.95 21.65 11.11
12/30/2021 11:45:00 AM 6.56 43.808 0.131 6.94 23.55 11.1
12/30/2021 12:00:00 PM 6.59 43.862 0.132 6.94 22.27 11.11
12/30/2021 12:15:00 PM 6.6 43.88 0.132 6.93 22.45 11.1
12/30/2021 12:30:00 PM 6.64 43.952 0.132 6.94 22.29 11.1
12/30/2021 12:45:00 PM 6.67 44.006 0.132 6.95 22.7 11.1
12/30/2021 1:00:00 PM 6.68 44.024 0.132 6.96 23.1 11.1
12/30/2021 1:15:00 PM 6.7 44.06 0.132 6.96 21.67 11.09
12/30/2021 1:30:00 PM 6.72 44.096 0.134 6.95 18.94 11.09
12/30/2021 1:45:00 PM 6.75 44.15 0.133 6.95 25.07 11.08
12/30/2021 2:00:00 PM 6.78 44.204 0.133 6.79 22.33 11.08
12/30/2021 2:15:00 PM 6.81 44.258 0.133 6.94 22.12 11.08
12/30/2021 2:30:00 PM 6.83 44.294 0.133 6.95 22.24 11.07
12/30/2021 2:45:00 PM 6.85 44.33 0.134 6.97 24.2 11.06
12/30/2021 3:00:00 PM 6.88 44.384 0.134 6.95 22.33 11.06
12/30/2021 3:15:00 PM 6.9 44.42 0.133 6.95 21.49 11.05
12/30/2021 3:30:00 PM 6.92 44.456 0.134 6.97 21.43 11.05
12/30/2021 3:45:00 PM 6.94 44.492 0.134 6.97 21.61 11.04
12/30/2021 4:00:00 PM 6.94 44.492 0.134 6.99 21.77 11.03
12/30/2021 4:15:00 PM 6.95 44.51 0.135 6.97 21.83 11.02
12/30/2021 4:30:00 PM 6.96 44.528 0.135 6.97 19.28 11.01
12/30/2021 4:45:00 PM 6.97 44.546 0.135 6.95 21.52 11.01
12/30/2021 5:00:00 PM 6.96 44.528 0.135 6.97 21.5 11
12/30/2021 5:15:00 PM 6.96 44.528 0.135 6.95 22.41 11
12/30/2021 5:30:00 PM 6.97 44.546 0.136 6.96 40.6 10.99
12/30/2021 5:45:00 PM 6.97 44.546 0.135 6.95 21.02 10.99
12/30/2021 6:00:00 PM 6.99 44.582 0.135 6.96 20.86 10.98
12/30/2021 6:15:00 PM 7.01 44.618 0.136 6.97 20.8 10.98
12/30/2021 6:30:00 PM 7.02 44.636 0.136 6.96 20.71 10.98
12/30/2021 6:45:00 PM 7.02 44.636 0.136 6.97 21.25 10.98
12/30/2021 7:00:00 PM 7.03 44.654 0.136 6.96 20.93 10.97
12/30/2021 7:15:00 PM 7.04 44.672 0.137 6.96 21.78 10.97
12/30/2021 7:30:00 PM 7.05 44.69 0.137 6.97 22.96 10.97
12/30/2021 7:45:00 PM 7.05 44.69 0.137 6.96 20.23 10.97
12/30/2021 8:00:00 PM 7.06 44.708 0.137 6.97 21.11 10.96
12/30/2021 8:15:00 PM 7.07 44.726 0.137 6.98 20.18 10.96
12/30/2021 8:30:00 PM 7.08 44.744 0.137 6.96 19.36 10.95
12/30/2021 8:45:00 PM 7.09 44.762 0.137 6.97 19.48 10.95
12/30/2021 9:00:00 PM 7.1 44.78 0.137 6.97 19.88 10.96
12/30/2021 9:15:00 PM 7.11 44.798 0.138 6.98 19.49 10.95
12/30/2021 9:30:00 PM 7.11 44.798 0.138 6.98 19.74 10.95
12/30/2021 9:45:00 PM 7.12 44.816 0.138 6.97 18.27 10.94
12/30/2021 10:00:00 PM 7.12 44.816 0.139 6.97 18.9 10.94
12/30/2021 10:15:00 PM 7.12 44.816 0.139 6.98 20.27 10.94
12/30/2021 10:30:00 PM 7.13 44.834 0.139 6.98 19.41 10.94
12/30/2021 10:45:00 PM 7.13 44.834 0.139 6.97 19.29 10.93
12/30/2021 11:00:00 PM 7.13 44.834 0.139 6.99 17.01 10.93
12/30/2021 11:15:00 PM 7.13 44.834 0.139 6.97 18.91 10.93
12/30/2021 11:30:00 PM 7.15 44.87 0.139 6.99 19.52 10.93
12/30/2021 11:45:00 PM 7.15 44.87 0.14 6.98 19.35 10.92
12/31/2021 12:00:00 AM 7.16 44.888 0.14 6.97 19.13 10.92
12/31/2021 12:15:00 AM 7.16 44.888 0.14 6.97 17.47 10.91
12/31/2021 12:30:00 AM 7.17 44.906 0.14 6.97 17.88 10.92
12/31/2021 12:45:00 AM 7.17 44.906 0.14 6.98 15.82 10.91
12/31/2021 1:00:00 AM 7.18 44.924 0.14 6.97 23 10.91
12/31/2021 1:15:00 AM 7.19 44.942 0.14 6.99 17.33 10.91
12/31/2021 1:30:00 AM 7.18 44.924 0.14 6.98 16.95 10.91
12/31/2021 1:45:00 AM 7.18 44.924 0.14 6.98 14.06 10.91
12/31/2021 2:00:00 AM 7.19 44.942 0.141 6.99 16.57 10.91
12/31/2021 2:15:00 AM 7.19 44.942 0.14 6.98 17.73 10.9
12/31/2021 2:30:00 AM 7.2 44.96 0.141 6.99 16.65 10.9
12/31/2021 2:45:00 AM 7.2 44.96 0.141 6.99 18.13 10.9
12/31/2021 3:00:00 AM 7.2 44.96 0.141 6.98 17.22 10.9
12/31/2021 3:15:00 AM 7.2 44.96 0.141 6.98 17.73 10.9
12/31/2021 3:30:00 AM 7.2 44.96 0.141 6.98 17.66 10.89
12/31/2021 3:45:00 AM 7.2 44.96 0.141 6.98 15.58 10.9
12/31/2021 4:00:00 AM 7.18 44.924 0.141 6.99 17.3 10.9
12/31/2021 4:15:00 AM 7.17 44.906 0.142 7 16.92 10.9
12/31/2021 4:30:00 AM 7.17 44.906 0.141 6.98 16.71 10.9
12/31/2021 4:45:00 AM 7.18 44.924 0.142 6.99 16.97 10.89
12/31/2021 5:00:00 AM 7.18 44.924 0.142 6.99 16.24 10.9
12/31/2021 5:15:00 AM 7.18 44.924 0.142 6.97 16.95 10.9
12/31/2021 5:30:00 AM 7.18 44.924 0.142 6.99 17.93 10.9
12/31/2021 5:45:00 AM 7.17 44.906 0.142 7 17.86 10.9
12/31/2021 6:00:00 AM 7.17 44.906 0.142 7 15.75 10.9
12/31/2021 6:15:00 AM 7.17 44.906 0.15 6.99 16.79 10.9
12/31/2021 6:30:00 AM 7.17 44.906 0.142 6.99 16.35 10.9
12/31/2021 6:45:00 AM 7.17 44.906 0.143 7 16.77 10.91
12/31/2021 7:00:00 AM 7.17 44.906 0.143 6.99 16.61 10.91
12/31/2021 7:15:00 AM 7.16 44.888 0.144 7 16.89 10.91
12/31/2021 7:30:00 AM 7.15 44.87 0.143 7.02 15.69 10.91
12/31/2021 7:45:00 AM 7.13 44.834 0.143 7.01 98.46 10.92
12/31/2021 8:00:00 AM 7.12 44.816 0.144 7.01 15.62 10.92
12/31/2021 8:15:00 AM 7.1 44.78 0.144 6.99 15.47 10.93
12/31/2021 8:30:00 AM 7.09 44.762 0.144 7.01 15.12 10.93
12/31/2021 8:45:00 AM 7.08 44.744 0.144 7 15.77 10.94
12/31/2021 9:00:00 AM 7.07 44.726 0.151 7.01 16.35 10.94
12/31/2021 9:15:00 AM 7.08 44.744 0.144 7.01 16.23 10.95
12/31/2021 9:30:00 AM 7.1 44.78 0.144 7.01 15.31 10.96
12/31/2021 9:45:00 AM 7.12 44.816 0.144 7.01 15.79 10.97
12/31/2021 10:00:00 AM 7.15 44.87 0.144 7.02 16.71 10.98
12/31/2021 10:15:00 AM 7.17 44.906 0.144 7.01 15.76 10.99
12/31/2021 10:30:00 AM 7.18 44.924 0.145 7.02 16.87 10.99
12/31/2021 10:45:00 AM 7.18 44.924 0.145 7.03 13.89 10.99
12/31/2021 11:00:00 AM 7.19 44.942 0.145 7.02 14.52 11
12/31/2021 11:15:00 AM 7.23 45.014 0.145 7.03 14.93 11.01
12/31/2021 11:30:00 AM 7.26 45.068 0.145 7.04 13.94 11.01
12/31/2021 11:45:00 AM 7.33 45.194 0.153 7.03 16.08 11.02
12/31/2021 12:00:00 PM 7.42 45.356 0.145 7.02 16.93 11.02
12/31/2021 12:15:00 PM 7.48 45.464 0.145 7.04 16.1 11.02
12/31/2021 12:30:00 PM 7.5 45.5 0.145 7.03 17.64 11.02
12/31/2021 12:45:00 PM 7.52 45.536 0.154 7.04 15.37 11.02
12/31/2021 1:00:00 PM 7.51 45.518 0.154 7.04 15.58 11.02
12/31/2021 1:15:00 PM 7.48 45.464 0.153 7.04 14.3 11.02
12/31/2021 1:30:00 PM 7.47 45.446 0.154 7.05 14.98 11.02
12/31/2021 1:45:00 PM 7.48 45.464 0.146 7.05 14.51 11.03
12/31/2021 2:00:00 PM 7.47 45.446 0.146 7.03 14.75 11.03
12/31/2021 2:15:00 PM 7.48 45.464 0.154 7.03 14.96 11.03
12/31/2021 2:30:00 PM 7.5 45.5 0.147 7.04 14.83 11.02
12/31/2021 2:45:00 PM 7.52 45.536 0.148 7.04 14.66 11.02
12/31/2021 3:00:00 PM 7.52 45.536 0.154 7.04 14.78 11.02
12/31/2021 3:15:00 PM 7.55 45.59 0.154 6.89 15.44 11.02
12/31/2021 3:30:00 PM 7.56 45.608 0.155 7.03 14.63 11.01
12/31/2021 3:45:00 PM 7.56 45.608 0.154 7.04 14.39 11.01
12/31/2021 4:00:00 PM 7.56 45.608 0.155 7.04 14.79 10.99
12/31/2021 4:15:00 PM 7.56 45.608 0.155 7.06 14.58 10.99
12/31/2021 4:30:00 PM 7.56 45.608 0.155 7.03 14.92 10.97
12/31/2021 4:45:00 PM 7.55 45.59 0.155 7.02 15.02 10.96
12/31/2021 5:00:00 PM 7.54 45.572 0.147 7.05 14.49 10.95
12/31/2021 5:15:00 PM 7.54 45.572 0.155 7.04 15.23 10.94
12/31/2021 5:30:00 PM 7.54 45.572 0.155 7.04 15.55 10.94
12/31/2021 5:45:00 PM 7.53 45.554 0.155 7.04 16.25 10.93
12/31/2021 6:00:00 PM 7.53 45.554 0.156 7.05 15.26 10.92
12/31/2021 6:15:00 PM 7.52 45.536 0.156 7.03 13.37 10.92
12/31/2021 6:30:00 PM 7.51 45.518 0.156 7.03 15.58 10.92
12/31/2021 6:45:00 PM 7.5 45.5 0.156 7.04 15.3 10.92
12/31/2021 7:00:00 PM 7.5 45.5 0.156 7.04 14.83 10.91
12/31/2021 7:15:00 PM 7.49 45.482 0.157 7.03 14.99 10.91
12/31/2021 7:30:00 PM 7.48 45.464 0.149 7.04 15.09 10.9
12/31/2021 7:45:00 PM 7.47 45.446 0.157 7.05 15.14 10.9
12/31/2021 8:00:00 PM 7.46 45.428 0.157 7.04 14.64 10.9
12/31/2021 8:15:00 PM 7.45 45.41 0.157 7.04 14.59 10.9
12/31/2021 8:30:00 PM 7.45 45.41 0.157 7.06 14.52 10.89
12/31/2021 8:45:00 PM 7.44 45.392 0.157 7.04 14.34 10.89
12/31/2021 9:00:00 PM 7.43 45.374 0.158 7.05 14.22 10.89
12/31/2021 9:15:00 PM 7.43 45.374 0.158 7.05 14.63 10.89
12/31/2021 9:30:00 PM 7.43 45.374 0.158 7.04 13.85 10.88
12/31/2021 9:45:00 PM 7.43 45.374 0.158 7.05 14.66 10.88
12/31/2021 10:00:00 PM 7.43 45.374 0.158 7.03 13.76 10.88
12/31/2021 10:15:00 PM 7.43 45.374 0.158 7.04 14.06 10.88
12/31/2021 10:30:00 PM 7.43 45.374 0.158 7.02 13.66 10.88
12/31/2021 10:45:00 PM 7.43 45.374 0.158 7.04 14.81 10.87
12/31/2021 11:00:00 PM 7.43 45.374 0.158 7.05 14.45 10.87
12/31/2021 11:15:00 PM 7.43 45.374 0.158 7.05 14.2 10.87
12/31/2021 11:30:00 PM 7.44 45.392 0.159 7.04 13.99 10.87
12/31/2021 11:45:00 PM 7.44 45.392 0.159 7.04 13.79 10.87
1/1/2022 12:00:00 AM 7.43 45.374 0.159 7.04 13.94 10.86
1/1/2022 12:15:00 AM 7.44 45.392 0.159 7.03 13.95 10.86
1/1/2022 12:30:00 AM 7.44 45.392 0.159 7.04 13.27 10.86
1/1/2022 12:45:00 AM 7.45 45.41 0.159 7.04 13.9 10.85
1/1/2022 1:00:00 AM 7.46 45.428 0.159 7.04 13.57 10.85
1/1/2022 1:15:00 AM 7.47 45.446 0.159 7.04 13.55 10.85
1/1/2022 1:30:00 AM 7.48 45.464 0.159 7.04 13.56 10.85
1/1/2022 1:45:00 AM 7.49 45.482 0.159 7.05 13.25 10.84
1/1/2022 2:00:00 AM 7.5 45.5 0.16 7.04 14.38 10.84
1/1/2022 2:15:00 AM 7.51 45.518 0.16 7.04 13.47 10.83
1/1/2022 2:30:00 AM 7.52 45.536 0.16 7.03 13.17 10.83
1/1/2022 2:45:00 AM 7.53 45.554 0.16 7.04 14.38 10.82
1/1/2022 3:00:00 AM 7.54 45.572 0.16 7.03 13.18 10.82
1/1/2022 3:15:00 AM 7.56 45.608 0.16 7.04 13.1 10.82
1/1/2022 3:30:00 AM 7.58 45.644 0.16 7.04 13.29 10.81
1/1/2022 3:45:00 AM 7.6 45.68 0.16 7.04 12.88 10.81
1/1/2022 4:00:00 AM 7.62 45.716 0.16 7.06 14.43 10.81
1/1/2022 4:15:00 AM 7.64 45.752 0.16 7.05 13.48 10.8
1/1/2022 4:30:00 AM 7.65 45.77 0.16 7.05 13.64 10.8
1/1/2022 4:45:00 AM 7.67 45.806 0.161 7.04 13.63 10.79
1/1/2022 5:00:00 AM 7.68 45.824 0.161 7.06 13.6 10.79
1/1/2022 5:15:00 AM 7.71 45.878 0.16 7.04 14.98 10.78
1/1/2022 5:30:00 AM 7.87 46.166 0.155 7.09 31.92 10.78
1/1/2022 5:45:00 AM 7.9 46.22 0.158 7.11 32.26 10.76
1/1/2022 6:00:00 AM 7.89 46.202 0.156 7.1 32.92 10.75
1/1/2022 6:15:00 AM 7.86 46.148 0.157 7.09 26.98 10.76
1/1/2022 6:30:00 AM 7.84 46.112 0.158 7.07 23.34 10.77
1/1/2022 6:45:00 AM 7.83 46.094 0.159 7.07 23.94 10.77
1/1/2022 7:00:00 AM 7.83 46.094 0.159 7.05 21.51 10.77
1/1/2022 7:15:00 AM 7.84 46.112 0.162 7.07 22.73 10.78
1/1/2022 7:30:00 AM 7.85 46.13 0.164 7.09 24.44 10.79
1/1/2022 7:45:00 AM 7.85 46.13 0.164 7.08 42.58 10.8
1/1/2022 8:00:00 AM 7.85 46.13 0.165 7.1 25.62 10.81
1/1/2022 8:15:00 AM 7.83 46.094 0.164 7.1 30.29 10.82
1/1/2022 8:30:00 AM 7.82 46.076 0.162 7.1 37.62 10.82
1/1/2022 8:45:00 AM 7.82 46.076 0.162 7.09 47.33 10.82
1/1/2022 9:00:00 AM 7.81 46.058 0.161 7.09 49.04 10.81
1/1/2022 9:15:00 AM 7.82 46.076 0.16 7.1 40.66 10.81
1/1/2022 9:30:00 AM 7.82 46.076 0.16 7.09 35.83 10.81
1/1/2022 9:45:00 AM 7.82 46.076 0.159 7.04 35.02 10.82
1/1/2022 10:00:00 AM 7.82 46.076 0.159 7.09 35.2 10.82
1/1/2022 10:15:00 AM 7.83 46.094 0.158 7.08 32.83 10.82
1/1/2022 10:30:00 AM 7.83 46.094 0.158 7.08 28.08 10.82
1/1/2022 10:45:00 AM 7.84 46.112 0.158 6.97 25.76 10.82
1/1/2022 11:00:00 AM 7.85 46.13 0.158 7.08 24.72 10.82
1/1/2022 11:15:00 AM 7.87 46.166 0.157 7.08 22.46 10.83
1/1/2022 11:30:00 AM 7.88 46.184 0.157 7.08 22.52 10.82
1/1/2022 11:45:00 AM 7.9 46.22 0.156 7.08 22.68 10.82
1/1/2022 12:00:00 PM 7.92 46.256 0.155 7.08 22.87 10.83
1/1/2022 12:15:00 PM 7.96 46.328 0.155 7.08 22.07 10.84
1/1/2022 12:30:00 PM 7.98 46.364 0.155 7.07 22.84 10.83
1/1/2022 12:45:00 PM 7.99 46.382 0.155 7.07 20.79 10.82
1/1/2022 1:00:00 PM 8.01 46.418 0.147 7.06 20.02 10.81
1/1/2022 1:15:00 PM 8.03 46.454 0.155 7.07 20.19 10.81
1/1/2022 1:30:00 PM 8.04 46.472 0.155 7.07 21.66 10.8
1/1/2022 1:45:00 PM 8.04 46.472 0.155 7.07 21.86 10.8
1/1/2022 2:00:00 PM 8.04 46.472 0.155 7.08 21.82 10.79
1/1/2022 2:15:00 PM 8.04 46.472 0.155 7.06 22.51 10.78
1/1/2022 2:30:00 PM 8.04 46.472 0.155 7.06 20.87 10.78
1/1/2022 2:45:00 PM 8.05 46.49 0.155 7.06 21.9 10.77
1/1/2022 3:00:00 PM 8.05 46.49 0.155 7.08 22 10.77
1/1/2022 3:15:00 PM 8.05 46.49 0.155 7.08 24.06 10.77
1/1/2022 3:30:00 PM 8.05 46.49 0.155 7.08 22.89 10.76
1/1/2022 3:45:00 PM 8.05 46.49 0.154 7.07 21.06 10.75
1/1/2022 4:00:00 PM 8.05 46.49 0.155 6.92 21.61 10.75
1/1/2022 4:15:00 PM 8.05 46.49 0.154 7.08 21.71 10.74
1/1/2022 4:30:00 PM 8.05 46.49 0.154 6.94 21.57 10.74
1/1/2022 4:45:00 PM 8.05 46.49 0.154 7.09 22.53 10.75
1/1/2022 5:00:00 PM 8.05 46.49 0.146 7.08 23.32 10.73
1/1/2022 5:15:00 PM 8.06 46.508 0.154 7.08 20.92 10.74
1/1/2022 5:30:00 PM 8.07 46.526 0.154 7.08 20.99 10.73
1/1/2022 5:45:00 PM 8.07 46.526 0.146 7.07 20.92 10.73
1/1/2022 6:00:00 PM 8.08 46.544 0.154 7.07 22.11 10.72
1/1/2022 6:15:00 PM 8.09 46.562 0.153 7.08 21.95 10.73
1/1/2022 6:30:00 PM 8.09 46.562 0.146 7.09 21.92 10.73
1/1/2022 6:45:00 PM 8.1 46.58 0.152 7.08 24.42 10.73
1/1/2022 7:00:00 PM 8.11 46.598 0.144 7.08 24.83 10.74
1/1/2022 7:15:00 PM 8.11 46.598 0.145 7.1 25.36 10.73
1/1/2022 7:30:00 PM 8.1 46.58 0.144 7.1 26.64 10.73
1/1/2022 7:45:00 PM 8.1 46.58 0.152 7.1 29.03 10.74
1/1/2022 8:00:00 PM 8.09 46.562 0.152 7.09 30.84 10.75
1/1/2022 8:15:00 PM 8.08 46.544 0.145 7.11 33.89 10.74
1/1/2022 8:30:00 PM 8.07 46.526 0.144 7.13 36.06 10.75
1/1/2022 8:45:00 PM 8.06 46.508 0.097 6.94 57.92 10.75
1/1/2022 9:00:00 PM 8.05 46.49 0.151 7.1 38.58 10.73
1/1/2022 9:15:00 PM 8.05 46.49 0.15 7.11 37.79 10.74
1/1/2022 9:30:00 PM 8.05 46.49 0.142 7.11 36.34 10.73
1/1/2022 9:45:00 PM 8.05 46.49 0.141 7.09 36.01 10.72
1/1/2022 10:00:00 PM 8.05 46.49 0.14 7.1 36.09 10.72
1/1/2022 10:15:00 PM 8.06 46.508 0.147 7.08 36.4 10.7
1/1/2022 10:30:00 PM 8.06 46.508 0.139 7.09 32.72 10.7
1/1/2022 10:45:00 PM 8.07 46.526 0.138 7.09 34.01 10.69
1/1/2022 11:00:00 PM 8.07 46.526 0.138 7.08 36.96 10.69
1/1/2022 11:15:00 PM 8.08 46.544 0.137 7.07 36.14 10.67
1/1/2022 11:30:00 PM 8.08 46.544 0.136 7.08 40.66 10.66
1/1/2022 11:45:00 PM 8.09 46.562 0.136 7.06 38.42 10.66
1/2/2022 12:00:00 AM 8.09 46.562 0.135 7.06 41.17 10.66
1/2/2022 12:15:00 AM 8.09 46.562 0.138 7.05 31.85 10.64
1/2/2022 12:30:00 AM 8.08 46.544 0.134 7.06 43.85 10.64
1/2/2022 12:45:00 AM 8.08 46.544 0.134 7.06 44.6 10.64
1/2/2022 1:00:00 AM 8.08 46.544 0.111 7.04 14905.72 10.64
1/2/2022 1:15:00 AM 8.08 46.544 0.133 7.06 42.99 10.62
1/2/2022 1:30:00 AM 8.08 46.544 0.133 7.06 44.35 10.63
1/2/2022 1:45:00 AM 8.08 46.544 0.133 7.05 44.27 10.62
1/2/2022 2:00:00 AM 8.08 46.544 0.133 7.07 43.38 10.62
1/2/2022 2:15:00 AM 8.08 46.544 0.132 7.07 44.32 10.61
1/2/2022 2:30:00 AM 8.09 46.562 0.133 7.06 51.32 10.61
1/2/2022 2:45:00 AM 8.09 46.562 0.132 7.07 45.72 10.61
1/2/2022 3:00:00 AM 8.09 46.562 0.132 7.06 44.35 10.61
1/2/2022 3:15:00 AM 8.09 46.562 0.126 7.09 607.29 10.61
1/2/2022 3:30:00 AM 8.09 46.562 0.132 7.06 45.29 10.61
1/2/2022 3:45:00 AM 8.1 46.58 0.132 7.06 44.87 10.6
1/2/2022 4:00:00 AM 8.1 46.58 0.131 7.06 45.21 10.6
1/2/2022 4:15:00 AM 8.1 46.58 0.131 7.07 45.95 10.6
1/2/2022 4:30:00 AM 8.1 46.58 0.13 6.96 50.8 10.59
1/2/2022 4:45:00 AM 8.1 46.58 0.13 7.06 53 10.59
1/2/2022 5:00:00 AM 8.1 46.58 0.13 7.07 58.24 10.58
1/2/2022 5:15:00 AM 8.11 46.598 0.129 7.06 52.6 10.58
1/2/2022 5:30:00 AM 8.11 46.598 0.129 6.94 45.25 10.57
1/2/2022 5:45:00 AM 8.11 46.598 0.13 7.07 48.71 10.57
1/2/2022 6:00:00 AM 8.12 46.616 0.13 7.08 51.69 10.57
1/2/2022 6:15:00 AM 8.12 46.616 0.13 7.07 45.14 10.57
1/2/2022 6:30:00 AM 8.12 46.616 0.13 6.93 44.05 10.56
1/2/2022 6:45:00 AM 8.11 46.598 0.13 7.07 44.56 10.57
1/2/2022 7:00:00 AM 8.11 46.598 0.13 7.07 48.57 10.57
1/2/2022 7:15:00 AM 8.1 46.58 0.13 7.08 131.15 10.56
1/2/2022 7:30:00 AM 8.1 46.58 0.129 7.08 46.22 10.57
1/2/2022 7:45:00 AM 8.08 46.544 0.129 7.1 45.28 10.56
1/2/2022 8:00:00 AM 8.07 46.526 0.127 7.07 74.33 10.56
1/2/2022 8:15:00 AM 8.06 46.508 0.128 6.93 61.39 10.56
1/2/2022 8:30:00 AM 8.05 46.49 0.127 7.06 48.99 10.57
1/2/2022 8:45:00 AM 8.05 46.49 0.127 7.07 65.62 10.56
1/2/2022 9:00:00 AM 8.04 46.472 0.127 7.08 49.57 10.57
1/2/2022 9:15:00 AM 8.04 46.472 0.126 7.07 46.81 10.57
1/2/2022 9:30:00 AM 8.04 46.472 0.126 7.07 201.32 10.57
1/2/2022 9:45:00 AM 8.03 46.454 0.126 7.06 37.22 10.57
1/2/2022 10:00:00 AM 8.03 46.454 0.126 7.08 38.32 10.57
1/2/2022 10:15:00 AM 8.03 46.454 0.126 7.07 35.93 10.57
1/2/2022 10:30:00 AM 8.02 46.436 0.126 7.07 35.14 10.58
1/2/2022 10:45:00 AM 8.01 46.418 0.126 7.07 34.77 10.58
1/2/2022 11:00:00 AM 8.03 46.454 0.126 7.07 33.75 10.58
1/2/2022 11:15:00 AM 8.02 46.436 0.126 7.07 33.69 10.58
1/2/2022 11:30:00 AM 8.02 46.436 0.126 7.06 31.78 10.59
1/2/2022 11:45:00 AM 8.01 46.418 0.126 7.06 31.64 10.59
1/2/2022 12:00:00 PM 7.99 46.382 0.126 6.9 30.49 10.58
1/2/2022 12:15:00 PM 7.98 46.364 0.127 7.06 31.61 10.59
1/2/2022 12:30:00 PM 7.98 46.364 0.128 7.07 31.43 10.59
1/2/2022 12:45:00 PM 7.97 46.346 0.127 7.06 30.58 10.58
1/2/2022 1:00:00 PM 7.97 46.346 0.128 7.05 29.34 10.59
1/2/2022 1:15:00 PM 7.98 46.364 0.128 7.06 28.41 10.6
1/2/2022 1:30:00 PM 7.97 46.346 0.128 7.06 28.83 10.59
1/2/2022 1:45:00 PM 7.96 46.328 0.129 7.06 28.19 10.59
1/2/2022 2:00:00 PM 7.94 46.292 0.129 7.07 28.09 10.6
1/2/2022 2:15:00 PM 7.93 46.274 0.129 7.06 27.16 10.6
1/2/2022 2:30:00 PM 7.91 46.238 0.13 7.07 27.17 10.61
1/2/2022 2:45:00 PM 7.89 46.202 0.13 7.06 26.68 10.61
1/2/2022 3:00:00 PM 7.87 46.166 0.13 7.06 25.75 10.62
1/2/2022 3:15:00 PM 7.85 46.13 0.131 7.05 25.8 10.63
1/2/2022 3:30:00 PM 7.83 46.094 0.131 7.06 24.86 10.63
1/2/2022 3:45:00 PM 7.8 46.04 0.132 7.07 24.7 10.64
1/2/2022 4:00:00 PM 7.76 45.968 0.132 7.08 23.95 10.65
1/2/2022 4:15:00 PM 7.73 45.914 0.133 7.08 24.03 10.66
1/2/2022 4:30:00 PM 7.7 45.86 0.133 7.08 23.94 10.67
1/2/2022 4:45:00 PM 7.67 45.806 0.133 7.08 19.44 10.68
1/2/2022 5:00:00 PM 7.65 45.77 0.134 7.08 22.73 10.68
1/2/2022 5:15:00 PM 7.62 45.716 0.134 7.08 22.93 10.69
1/2/2022 5:30:00 PM 7.59 45.662 0.135 7.08 22.33 10.71
1/2/2022 5:45:00 PM 7.56 45.608 0.135 7.09 21.72 10.71
1/2/2022 6:00:00 PM 7.53 45.554 0.136 7.08 21.45 10.72
1/2/2022 6:15:00 PM 7.51 45.518 0.136 7.07 21.55 10.73
1/2/2022 6:30:00 PM 7.49 45.482 0.136 7.07 20.99 10.74
1/2/2022 6:45:00 PM 7.45 45.41 0.137 7.07 20.74 10.75
1/2/2022 7:00:00 PM 7.42 45.356 0.137 7.07 20.54 10.77
1/2/2022 7:15:00 PM 7.39 45.302 0.137 7.07 20.48 10.78
1/2/2022 7:30:00 PM 7.35 45.23 0.138 7.06 20.31 10.8
1/2/2022 7:45:00 PM 7.32 45.176 0.138 6.96 19.85 10.81
1/2/2022 8:00:00 PM 7.29 45.122 0.138 7.07 20.65 10.82
1/2/2022 8:15:00 PM 7.27 45.086 0.138 7.06 19.54 10.83
1/2/2022 8:30:00 PM 7.24 45.032 0.139 7.05 19.52 10.85
1/2/2022 8:45:00 PM 7.21 44.978 0.139 7.07 20.08 10.86
1/2/2022 9:00:00 PM 7.17 44.906 0.139 7.07 18.51 10.87
1/2/2022 9:15:00 PM 7.13 44.834 0.14 7.07 18.7 10.88
1/2/2022 9:30:00 PM 7.1 44.78 0.14 7.07 17.98 10.9
1/2/2022 9:45:00 PM 7.05 44.69 0.14 7.06 18.22 10.91
1/2/2022 10:00:00 PM 7.02 44.636 0.141 7.07 17.54 10.92
1/2/2022 10:15:00 PM 6.99 44.582 0.141 7.07 17.4 10.93
1/2/2022 10:30:00 PM 6.95 44.51 0.141 7.08 17.47 10.95
1/2/2022 10:45:00 PM 6.91 44.438 0.141 7.08 17.47 10.96
1/2/2022 11:00:00 PM 6.88 44.384 0.141 7.08 17.67 10.98
1/2/2022 11:15:00 PM 6.83 44.294 0.141 7.08 16.85 10.99
1/2/2022 11:30:00 PM 6.8 44.24 0.142 7.08 16.93 11.01
1/2/2022 11:45:00 PM 6.76 44.168 0.142 7.08 17.16 11.02
1/3/2022 12:00:00 AM 6.71 44.078 0.142 7.08 16.51 11.04
1/3/2022 12:15:00 AM 6.68 44.024 0.142 7.09 18.48 11.05
1/3/2022 12:30:00 AM 6.64 43.952 0.143 7.08 16.51 11.07
1/3/2022 12:45:00 AM 6.61 43.898 0.143 7.07 50.91 11.07
1/3/2022 1:00:00 AM 6.57 43.826 0.143 7.08 16.04 11.09
1/3/2022 1:15:00 AM 6.52 43.736 0.143 7.09 16.38 11.1
1/3/2022 1:30:00 AM 6.49 43.682 0.143 7.09 15.87 11.11
1/3/2022 1:45:00 AM 6.45 43.61 0.143 6.9 16.45 11.13
1/3/2022 2:00:00 AM 6.4 43.52 0.144 7.08 17.22 11.14
1/3/2022 2:15:00 AM 6.36 43.448 0.144 7.08 16.26 11.16
1/3/2022 2:30:00 AM 6.32 43.376 0.144 7.09 16.31 11.17
1/3/2022 2:45:00 AM 6.28 43.304 0.144 7.09 15.25 11.19
1/3/2022 3:00:00 AM 6.23 43.214 0.144 7.1 16.71 11.2
1/3/2022 3:15:00 AM 6.18 43.124 0.144 7.09 15.24 11.22
1/3/2022 3:30:00 AM 6.14 43.052 0.145 7.07 15.02 11.24
1/3/2022 3:45:00 AM 6.1 42.98 0.145 7.09 15.42 11.25
1/3/2022 4:00:00 AM 6.05 42.89 0.145 7.09 16.2 11.26
1/3/2022 4:15:00 AM 6 42.8 0.145 7.09 16.06 11.28
1/3/2022 4:30:00 AM 5.95 42.71 0.145 7.09 15.49 11.29
1/3/2022 4:45:00 AM 5.91 42.638 0.145 7.09 14.9 11.3
1/3/2022 5:00:00 AM 5.85 42.53 0.146 7.09 15.6 11.31
1/3/2022 5:15:00 AM 5.8 42.44 0.146 7.1 15.82 11.33
1/3/2022 5:30:00 AM 5.76 42.368 0.146 7.09 15.58 11.33
1/3/2022 5:45:00 AM 5.71 42.278 0.146 7.09 15.68 11.36
1/3/2022 6:00:00 AM 5.66 42.188 0.146 7.09 15.55 11.38
1/3/2022 6:15:00 AM 5.61 42.098 0.146 7.09 15.67 11.4
1/3/2022 6:30:00 AM 5.56 42.008 0.147 7.09 15.63 11.41
1/3/2022 6:45:00 AM 5.51 41.918 0.147 7.1 16.23 11.43
1/3/2022 7:00:00 AM 5.46 41.828 0.147 7.09 15.75 11.45
1/3/2022 7:15:00 AM 5.42 41.756 0.148 7.09 15.17 11.46
1/3/2022 7:30:00 AM 5.38 41.684 0.148 7.09 15.16 11.47
1/3/2022 7:45:00 AM 5.35 41.63 0.147 7.1 15.02 11.49
1/3/2022 8:00:00 AM 5.3 41.54 0.147 7.1 14.74 11.5
1/3/2022 8:15:00 AM 5.26 41.468 0.148 7.09 14.94 11.52
1/3/2022 8:30:00 AM 5.22 41.396 0.148 7.08 14.83 11.54
1/3/2022 8:45:00 AM 5.17 41.306 0.148 7.08 15.52 11.55
1/3/2022 9:00:00 AM 5.14 41.252 0.148 7.08 15.29 11.57
1/3/2022 9:15:00 AM 5.1 41.18 0.148 7.09 13.89 11.59
1/3/2022 9:30:00 AM 5.07 41.126 0.148 7.08 14.4 11.61
1/3/2022 9:45:00 AM 5.05 41.09 0.148 7.09 14.9 11.63
1/3/2022 10:00:00 AM 5.02 41.036 0.149 7.09 14.52 11.65
1/3/2022 10:15:00 AM 4.99 40.982 0.149 7.1 13.9 11.68
1/3/2022 10:30:00 AM 4.97 40.946 0.149 7.1 13.61 11.7
1/3/2022 10:45:00 AM 4.94 40.892 0.149 7.1 14.6 11.71
1/3/2022 11:00:00 AM 4.91 40.838 0.15 7.09 13.78 11.73
1/3/2022 11:15:00 AM 4.89 40.802 0.15 7.1 13.82 11.75
1/3/2022 11:30:00 AM 4.87 40.766 0.15 7.1 13.79 11.77
1/3/2022 11:45:00 AM 4.86 40.748 0.15 7.11 13.9 11.8
1/3/2022 12:00:00 PM 4.85 40.73 0.15 7.12 13.9 11.82
1/3/2022 12:15:00 PM 4.84 40.712 0.15 7.12 14.21 11.83
1/3/2022 12:30:00 PM 4.81 40.658 0.15 7.12 14.37 11.85
1/3/2022 12:45:00 PM 4.83 40.694 0.15 7.11 14.24 11.87
1/3/2022 1:00:00 PM 4.86 40.748 0.151 7.12 14.32 11.88
1/3/2022 1:15:00 PM 4.86 40.748 0.15 6.96 16.18 11.88
1/3/2022 1:30:00 PM 4.86 40.748 0.15 7.13 14.43 11.9
1/3/2022 1:45:00 PM 4.85 40.73 0.151 7.13 14.05 11.91
1/3/2022 2:00:00 PM 4.81 40.658 0.151 7.13 13.91 11.92
1/3/2022 2:15:00 PM 4.77 40.586 0.151 7.12 13.59 11.93
1/3/2022 2:30:00 PM 4.74 40.532 0.151 7.12 13.26 11.94
1/3/2022 2:45:00 PM 4.69 40.442 0.151 7.12 14.19 11.96
1/3/2022 3:00:00 PM 4.65 40.37 0.151 7.13 13.26 11.97
1/3/2022 3:15:00 PM 4.59 40.262 0.151 7.12 13.34 11.98
1/3/2022 3:30:00 PM 4.53 40.154 0.151 7.11 13.46 11.98
1/3/2022 3:45:00 PM 4.47 40.046 0.151 7.12 13.4 11.98
1/3/2022 4:00:00 PM 4.41 39.938 0.152 7.11 13.43 12
1/3/2022 4:15:00 PM 4.35 39.83 0.152 7.13 13.1 12
1/3/2022 4:30:00 PM 4.32 39.776 0.152 7.11 13.08 12.01
1/3/2022 4:45:00 PM 4.27 39.686 0.152 7.11 13.25 12.01
1/3/2022 5:00:00 PM 4.21 39.578 0.152 7.11 12.93 12.02
1/3/2022 5:15:00 PM 4.16 39.488 0.152 7.1 13.27 12.03
1/3/2022 5:30:00 PM 4.12 39.416 0.152 7.11 13.77 12.04
1/3/2022 5:45:00 PM 4.08 39.344 0.153 7.11 13.57 12.05
1/3/2022 6:00:00 PM 4.03 39.254 0.153 7.12 13.62 12.06
1/3/2022 6:15:00 PM 4 39.2 0.153 7.11 13.28 12.07
1/3/2022 6:30:00 PM 3.96 39.128 0.153 7.11 12.88 12.07
1/3/2022 6:45:00 PM 3.92 39.056 0.153 7.11 12.33 12.09
1/3/2022 7:00:00 PM 3.87 38.966 0.153 7.12 12.82 12.09
1/3/2022 7:15:00 PM 3.83 38.894 0.153 7.11 12.75 12.11
1/3/2022 7:30:00 PM 3.79 38.822 0.153 7.13 13.01 12.12
1/3/2022 7:45:00 PM 3.75 38.75 0.154 7.11 12.45 12.13
1/3/2022 8:00:00 PM 3.7 38.66 0.153 7.11 12.41 12.14
1/3/2022 8:15:00 PM 3.67 38.606 0.154 7.11 12.68 12.15
1/3/2022 8:30:00 PM 3.63 38.534 0.154 7.12 12.26 12.16
1/3/2022 8:45:00 PM 3.6 38.48 0.154 7.11 12.58 12.18
1/3/2022 9:00:00 PM 3.55 38.39 0.154 7.12 12.38 12.19
1/3/2022 9:15:00 PM 3.5 38.3 0.154 7.12 11.86 12.21
1/3/2022 9:30:00 PM 3.47 38.246 0.154 7.12 12.35 12.22
1/3/2022 9:45:00 PM 3.43 38.174 0.154 7.13 12.32 12.24
1/3/2022 10:00:00 PM 3.4 38.12 0.154 7.12 12.06 12.25
1/3/2022 10:15:00 PM 3.37 38.066 0.155 7.11 11.77 12.26
1/3/2022 10:30:00 PM 3.35 38.03 0.155 7.13 12.02 12.27
1/3/2022 10:45:00 PM 3.32 37.976 0.155 7.13 12.73 12.28
1/3/2022 11:00:00 PM 3.3 37.94 0.155 7.11 11.71 12.29
1/3/2022 11:15:00 PM 3.27 37.886 0.155 7.12 11.3 12.31
1/3/2022 11:30:00 PM 3.25 37.85 0.155 7.13 11.53 12.32
1/3/2022 11:45:00 PM 3.22 37.796 0.155 7.13 11.88 12.32
1/4/2022 12:00:00 AM 3.19 37.742 0.155 7.12 12.07 12.34
1/4/2022 12:15:00 AM 3.17 37.706 0.155 7.13 11.53 12.35
1/4/2022 12:30:00 AM 3.15 37.67 0.156 7.13 11.21 12.36
1/4/2022 12:45:00 AM 3.12 37.616 0.156 7.13 11.21 12.36
1/4/2022 1:00:00 AM 3.09 37.562 0.156 7.14 11.29 12.37
1/4/2022 1:15:00 AM 3.06 37.508 0.156 7.12 11.26 12.39
1/4/2022 1:30:00 AM 3.03 37.454 0.156 7.13 10.58 12.4
1/4/2022 1:45:00 AM 3 37.4 0.156 7.13 10.73 12.41
1/4/2022 2:00:00 AM 2.98 37.364 0.156 7.13 11.28 12.42
1/4/2022 2:15:00 AM 2.95 37.31 0.156 7.13 11.34 12.42
1/4/2022 2:30:00 AM 2.93 37.274 0.156 7.13 11 12.44
1/4/2022 2:45:00 AM 2.9 37.22 0.156 7.13 11.11 12.45
1/4/2022 3:00:00 AM 2.87 37.166 0.157 7.13 10.18 12.45
1/4/2022 3:15:00 AM 2.84 37.112 0.157 7.14 11.68 12.46
1/4/2022 3:30:00 AM 2.8 37.04 0.157 7.13 12.44 12.48
1/4/2022 3:45:00 AM 2.77 36.986 0.157 7.13 13.94 12.49
1/4/2022 4:00:00 AM 2.74 36.932 0.158 7.12 12.54 12.5
1/4/2022 4:15:00 AM 2.71 36.878 0.157 7.12 13.03 12.51
1/4/2022 4:30:00 AM 2.69 36.842 0.157 7.14 12.78 12.52
1/4/2022 4:45:00 AM 2.66 36.788 0.157 7.15 12.86 12.53
1/4/2022 5:00:00 AM 2.65 36.77 0.158 7.14 12.79 12.52
1/4/2022 5:15:00 AM 2.63 36.734 0.158 7.14 12.77 12.53
1/4/2022 5:30:00 AM 2.61 36.698 0.158 7.13 12.77 12.54
1/4/2022 5:45:00 AM 2.58 36.644 0.158 7.14 12.92 12.54
1/4/2022 6:00:00 AM 2.56 36.608 0.158 7.13 12.99 12.55
1/4/2022 6:15:00 AM 2.54 36.572 0.158 7.14 12.64 12.57
1/4/2022 6:30:00 AM 2.53 36.554 0.158 7.14 12.91 12.57
1/4/2022 6:45:00 AM 2.5 36.5 0.159 7.14 12.67 12.58
1/4/2022 7:00:00 AM 2.48 36.464 0.159 7.14 12.79 12.59
1/4/2022 7:15:00 AM 2.45 36.41 0.159 7.14 12.89 12.6
1/4/2022 7:30:00 AM 2.43 36.374 0.159 7.14 13.01 12.61
1/4/2022 7:45:00 AM 2.41 36.338 0.159 7.13 12.73 12.62
1/4/2022 8:00:00 AM 2.4 36.32 0.159 7.14 12.7 12.63
1/4/2022 8:15:00 AM 2.38 36.284 0.159 7.14 12.55 12.64
1/4/2022 8:30:00 AM 2.37 36.266 0.16 7.14 13.07 12.65
1/4/2022 8:45:00 AM 2.36 36.248 0.16